<?xml version="1.0" encoding="UTF-8" standalone="no" ?>
<gpx xmlns="http://www.topografix.com/GPX/1/1" xmlns:xsi="http://www.w3.org/2001/XMLSchema-instance" xsi:schemaLocation="http://www.topografix.com/GPX/1/1 http://www.topografix.com/GPX/1/1/gpx.xsd" version="1.1" creator="VisuGPX - https://www.visugpx.com">
  <metadata>
    <name>TETEOU-22 14:40:13</name>
    <desc><![CDATA[bonne partie à l'ombre en forêt, ballade agréable avec un joli point de vue au bout]]></desc>
  </metadata>
  <trk>
    <name><![CDATA[TETEOU-22 14:40:13]]></name>
    <trkseg>
      <trkpt lat="44.41116" lon="6.47022">
        <ele>1408.95</ele>
        <time>2022-08-09T07:22:36Z</time>
      </trkpt>
      <trkpt lat="44.41114" lon="6.4702">
        <ele>1410.39</ele>
        <time>2022-08-09T07:22:53Z</time>
      </trkpt>
      <trkpt lat="44.41112" lon="6.47038">
        <ele>1413.28</ele>
        <time>2022-08-09T07:23:09Z</time>
      </trkpt>
      <trkpt lat="44.4111" lon="6.4705">
        <ele>1413.76</ele>
        <time>2022-08-09T07:23:19Z</time>
      </trkpt>
      <trkpt lat="44.41109" lon="6.47065">
        <ele>1415.68</ele>
        <time>2022-08-09T07:23:32Z</time>
      </trkpt>
      <trkpt lat="44.41108" lon="6.47082">
        <ele>1419.52</ele>
        <time>2022-08-09T07:23:46Z</time>
      </trkpt>
      <trkpt lat="44.41105" lon="6.47107">
        <ele>1421.45</ele>
        <time>2022-08-09T07:24:03Z</time>
      </trkpt>
      <trkpt lat="44.41103" lon="6.47126">
        <ele>1422.89</ele>
        <time>2022-08-09T07:24:17Z</time>
      </trkpt>
      <trkpt lat="44.41104" lon="6.47142">
        <ele>1424.33</ele>
        <time>2022-08-09T07:24:30Z</time>
      </trkpt>
      <trkpt lat="44.41103" lon="6.47161">
        <ele>1427.21</ele>
        <time>2022-08-09T07:24:44Z</time>
      </trkpt>
      <trkpt lat="44.41103" lon="6.47181">
        <ele>1428.66</ele>
        <time>2022-08-09T07:24:59Z</time>
      </trkpt>
      <trkpt lat="44.41105" lon="6.47185">
        <ele>1429.62</ele>
        <time>2022-08-09T07:25:03Z</time>
      </trkpt>
      <trkpt lat="44.41114" lon="6.47198">
        <ele>1430.1</ele>
        <time>2022-08-09T07:25:16Z</time>
      </trkpt>
      <trkpt lat="44.4112" lon="6.47208">
        <ele>1431.54</ele>
        <time>2022-08-09T07:25:29Z</time>
      </trkpt>
      <trkpt lat="44.4113" lon="6.47212">
        <ele>1443.56</ele>
        <time>2022-08-09T07:25:43Z</time>
      </trkpt>
      <trkpt lat="44.41142" lon="6.47211">
        <ele>1456.05</ele>
        <time>2022-08-09T07:25:58Z</time>
      </trkpt>
      <trkpt lat="44.41158" lon="6.47206">
        <ele>1471.44</ele>
        <time>2022-08-09T07:26:13Z</time>
      </trkpt>
      <trkpt lat="44.41171" lon="6.47199">
        <ele>1481.05</ele>
        <time>2022-08-09T07:26:27Z</time>
      </trkpt>
      <trkpt lat="44.41178" lon="6.47193">
        <ele>1480.09</ele>
        <time>2022-08-09T07:26:34Z</time>
      </trkpt>
      <trkpt lat="44.4119" lon="6.47183">
        <ele>1476.72</ele>
        <time>2022-08-09T07:26:47Z</time>
      </trkpt>
      <trkpt lat="44.412" lon="6.47175">
        <ele>1474.32</ele>
        <time>2022-08-09T07:26:57Z</time>
      </trkpt>
      <trkpt lat="44.41216" lon="6.47174">
        <ele>1473.84</ele>
        <time>2022-08-09T07:27:14Z</time>
      </trkpt>
      <trkpt lat="44.41231" lon="6.47173">
        <ele>1470.47</ele>
        <time>2022-08-09T07:27:29Z</time>
      </trkpt>
      <trkpt lat="44.41236" lon="6.47173">
        <ele>1468.07</ele>
        <time>2022-08-09T07:27:33Z</time>
      </trkpt>
      <trkpt lat="44.41241" lon="6.47171">
        <ele>1466.63</ele>
        <time>2022-08-09T07:27:38Z</time>
      </trkpt>
      <trkpt lat="44.41248" lon="6.47171">
        <ele>1464.23</ele>
        <time>2022-08-09T07:27:43Z</time>
      </trkpt>
      <trkpt lat="44.41261" lon="6.47176">
        <ele>1461.34</ele>
        <time>2022-08-09T07:27:57Z</time>
      </trkpt>
      <trkpt lat="44.41268" lon="6.4718">
        <ele>1463.74</ele>
        <time>2022-08-09T07:28:05Z</time>
      </trkpt>
      <trkpt lat="44.41281" lon="6.47186">
        <ele>1468.07</ele>
        <time>2022-08-09T07:28:19Z</time>
      </trkpt>
      <trkpt lat="44.41286" lon="6.47189">
        <ele>1469.03</ele>
        <time>2022-08-09T07:28:24Z</time>
      </trkpt>
      <trkpt lat="44.41299" lon="6.47192">
        <ele>1472.88</ele>
        <time>2022-08-09T07:28:37Z</time>
      </trkpt>
      <trkpt lat="44.41308" lon="6.47191">
        <ele>1472.88</ele>
        <time>2022-08-09T07:28:44Z</time>
      </trkpt>
      <trkpt lat="44.41311" lon="6.4719">
        <ele>1472.4</ele>
        <time>2022-08-09T07:28:46Z</time>
      </trkpt>
      <trkpt lat="44.41325" lon="6.4719">
        <ele>1470.47</ele>
        <time>2022-08-09T07:28:57Z</time>
      </trkpt>
      <trkpt lat="44.4134" lon="6.47195">
        <ele>1469.03</ele>
        <time>2022-08-09T07:29:10Z</time>
      </trkpt>
      <trkpt lat="44.4135" lon="6.47198">
        <ele>1469.51</ele>
        <time>2022-08-09T07:29:18Z</time>
      </trkpt>
      <trkpt lat="44.4136" lon="6.47209">
        <ele>1469.99</ele>
        <time>2022-08-09T07:29:27Z</time>
      </trkpt>
      <trkpt lat="44.41367" lon="6.47215">
        <ele>1467.59</ele>
        <time>2022-08-09T07:29:33Z</time>
      </trkpt>
      <trkpt lat="44.41379" lon="6.47214">
        <ele>1469.51</ele>
        <time>2022-08-09T07:29:45Z</time>
      </trkpt>
      <trkpt lat="44.41388" lon="6.47208">
        <ele>1469.51</ele>
        <time>2022-08-09T07:29:54Z</time>
      </trkpt>
      <trkpt lat="44.41395" lon="6.47206">
        <ele>1469.51</ele>
        <time>2022-08-09T07:30:09Z</time>
      </trkpt>
      <trkpt lat="44.41395" lon="6.47206">
        <ele>1469.51</ele>
        <time>2022-08-09T07:30:10Z</time>
      </trkpt>
      <trkpt lat="44.41406" lon="6.47204">
        <ele>1469.99</ele>
        <time>2022-08-09T07:30:16Z</time>
      </trkpt>
      <trkpt lat="44.4142" lon="6.47203">
        <ele>1474.32</ele>
        <time>2022-08-09T07:30:30Z</time>
      </trkpt>
      <trkpt lat="44.41429" lon="6.47205">
        <ele>1478.16</ele>
        <time>2022-08-09T07:30:40Z</time>
      </trkpt>
      <trkpt lat="44.41432" lon="6.47205">
        <ele>1478.16</ele>
        <time>2022-08-09T07:30:43Z</time>
      </trkpt>
      <trkpt lat="44.41436" lon="6.47207">
        <ele>1477.68</ele>
        <time>2022-08-09T07:30:47Z</time>
      </trkpt>
      <trkpt lat="44.41442" lon="6.47206">
        <ele>1475.76</ele>
        <time>2022-08-09T07:30:51Z</time>
      </trkpt>
      <trkpt lat="44.4146" lon="6.4721">
        <ele>1474.32</ele>
        <time>2022-08-09T07:31:07Z</time>
      </trkpt>
      <trkpt lat="44.41467" lon="6.47211">
        <ele>1472.88</ele>
        <time>2022-08-09T07:31:13Z</time>
      </trkpt>
      <trkpt lat="44.41475" lon="6.47214">
        <ele>1470.95</ele>
        <time>2022-08-09T07:31:26Z</time>
      </trkpt>
      <trkpt lat="44.41483" lon="6.4722">
        <ele>1472.4</ele>
        <time>2022-08-09T07:31:38Z</time>
      </trkpt>
      <trkpt lat="44.41488" lon="6.47223">
        <ele>1471.44</ele>
        <time>2022-08-09T07:31:43Z</time>
      </trkpt>
      <trkpt lat="44.41496" lon="6.47228">
        <ele>1471.44</ele>
        <time>2022-08-09T07:31:50Z</time>
      </trkpt>
      <trkpt lat="44.41501" lon="6.47227">
        <ele>1472.4</ele>
        <time>2022-08-09T07:31:54Z</time>
      </trkpt>
      <trkpt lat="44.41506" lon="6.47224">
        <ele>1473.36</ele>
        <time>2022-08-09T07:31:59Z</time>
      </trkpt>
      <trkpt lat="44.41518" lon="6.47217">
        <ele>1473.36</ele>
        <time>2022-08-09T07:32:12Z</time>
      </trkpt>
      <trkpt lat="44.41531" lon="6.47208">
        <ele>1474.8</ele>
        <time>2022-08-09T07:32:26Z</time>
      </trkpt>
      <trkpt lat="44.41535" lon="6.47205">
        <ele>1476.24</ele>
        <time>2022-08-09T07:32:32Z</time>
      </trkpt>
      <trkpt lat="44.41545" lon="6.47197">
        <ele>1480.09</ele>
        <time>2022-08-09T07:32:44Z</time>
      </trkpt>
      <trkpt lat="44.41553" lon="6.47178">
        <ele>1484.41</ele>
        <time>2022-08-09T07:33:00Z</time>
      </trkpt>
      <trkpt lat="44.41557" lon="6.4716">
        <ele>1485.37</ele>
        <time>2022-08-09T07:33:15Z</time>
      </trkpt>
      <trkpt lat="44.41561" lon="6.47143">
        <ele>1486.34</ele>
        <time>2022-08-09T07:33:30Z</time>
      </trkpt>
      <trkpt lat="44.41565" lon="6.47131">
        <ele>1490.66</ele>
        <time>2022-08-09T07:33:42Z</time>
      </trkpt>
      <trkpt lat="44.41567" lon="6.47127">
        <ele>1491.14</ele>
        <time>2022-08-09T07:33:45Z</time>
      </trkpt>
      <trkpt lat="44.41575" lon="6.47119">
        <ele>1494.03</ele>
        <time>2022-08-09T07:33:59Z</time>
      </trkpt>
      <trkpt lat="44.41584" lon="6.47109">
        <ele>1495.47</ele>
        <time>2022-08-09T07:34:13Z</time>
      </trkpt>
      <trkpt lat="44.41592" lon="6.471">
        <ele>1499.31</ele>
        <time>2022-08-09T07:34:28Z</time>
      </trkpt>
      <trkpt lat="44.41599" lon="6.47084">
        <ele>1503.16</ele>
        <time>2022-08-09T07:34:43Z</time>
      </trkpt>
      <trkpt lat="44.41601" lon="6.47088">
        <ele>1507.48</ele>
        <time>2022-08-09T07:34:56Z</time>
      </trkpt>
      <trkpt lat="44.41599" lon="6.47101">
        <ele>1511.33</ele>
        <time>2022-08-09T07:35:10Z</time>
      </trkpt>
      <trkpt lat="44.416" lon="6.47108">
        <ele>1511.81</ele>
        <time>2022-08-09T07:35:22Z</time>
      </trkpt>
      <trkpt lat="44.41595" lon="6.4712">
        <ele>1513.73</ele>
        <time>2022-08-09T07:35:37Z</time>
      </trkpt>
      <trkpt lat="44.41599" lon="6.47126">
        <ele>1513.73</ele>
        <time>2022-08-09T07:35:47Z</time>
      </trkpt>
      <trkpt lat="44.4161" lon="6.47117">
        <ele>1515.18</ele>
        <time>2022-08-09T07:36:03Z</time>
      </trkpt>
      <trkpt lat="44.41616" lon="6.4711">
        <ele>1517.1</ele>
        <time>2022-08-09T07:36:12Z</time>
      </trkpt>
      <trkpt lat="44.41624" lon="6.47097">
        <ele>1519.98</ele>
        <time>2022-08-09T07:36:27Z</time>
      </trkpt>
      <trkpt lat="44.41629" lon="6.47083">
        <ele>1522.39</ele>
        <time>2022-08-09T07:36:42Z</time>
      </trkpt>
      <trkpt lat="44.41636" lon="6.47069">
        <ele>1521.9</ele>
        <time>2022-08-09T07:36:56Z</time>
      </trkpt>
      <trkpt lat="44.41645" lon="6.47061">
        <ele>1523.35</ele>
        <time>2022-08-09T07:37:10Z</time>
      </trkpt>
      <trkpt lat="44.41653" lon="6.4705">
        <ele>1527.67</ele>
        <time>2022-08-09T07:37:24Z</time>
      </trkpt>
      <trkpt lat="44.41661" lon="6.47036">
        <ele>1529.59</ele>
        <time>2022-08-09T07:37:39Z</time>
      </trkpt>
      <trkpt lat="44.41666" lon="6.4703">
        <ele>1532</ele>
        <time>2022-08-09T07:37:53Z</time>
      </trkpt>
      <trkpt lat="44.41668" lon="6.47018">
        <ele>1536.32</ele>
        <time>2022-08-09T07:38:08Z</time>
      </trkpt>
      <trkpt lat="44.41668" lon="6.47008">
        <ele>1539.69</ele>
        <time>2022-08-09T07:38:22Z</time>
      </trkpt>
      <trkpt lat="44.4167" lon="6.46999">
        <ele>1542.57</ele>
        <time>2022-08-09T07:38:36Z</time>
      </trkpt>
      <trkpt lat="44.4167" lon="6.46993">
        <ele>1542.09</ele>
        <time>2022-08-09T07:38:56Z</time>
      </trkpt>
      <trkpt lat="44.4167" lon="6.46989">
        <ele>1542.57</ele>
        <time>2022-08-09T07:38:59Z</time>
      </trkpt>
      <trkpt lat="44.41672" lon="6.46972">
        <ele>1543.53</ele>
        <time>2022-08-09T07:39:14Z</time>
      </trkpt>
      <trkpt lat="44.41673" lon="6.4696">
        <ele>1545.46</ele>
        <time>2022-08-09T07:39:29Z</time>
      </trkpt>
      <trkpt lat="44.4167" lon="6.46952">
        <ele>1547.86</ele>
        <time>2022-08-09T07:39:43Z</time>
      </trkpt>
      <trkpt lat="44.41671" lon="6.46946">
        <ele>1552.19</ele>
        <time>2022-08-09T07:39:55Z</time>
      </trkpt>
      <trkpt lat="44.41667" lon="6.46943">
        <ele>1558.43</ele>
        <time>2022-08-09T07:40:10Z</time>
      </trkpt>
      <trkpt lat="44.41669" lon="6.46937">
        <ele>1557.95</ele>
        <time>2022-08-09T07:40:24Z</time>
      </trkpt>
      <trkpt lat="44.41665" lon="6.46934">
        <ele>1560.36</ele>
        <time>2022-08-09T07:40:34Z</time>
      </trkpt>
      <trkpt lat="44.41667" lon="6.46929">
        <ele>1560.84</ele>
        <time>2022-08-09T07:40:49Z</time>
      </trkpt>
      <trkpt lat="44.41661" lon="6.46928">
        <ele>1565.16</ele>
        <time>2022-08-09T07:41:04Z</time>
      </trkpt>
      <trkpt lat="44.4166" lon="6.46921">
        <ele>1565.16</ele>
        <time>2022-08-09T07:41:17Z</time>
      </trkpt>
      <trkpt lat="44.41662" lon="6.46916">
        <ele>1566.12</ele>
        <time>2022-08-09T07:41:32Z</time>
      </trkpt>
      <trkpt lat="44.41668" lon="6.46914">
        <ele>1565.64</ele>
        <time>2022-08-09T07:41:44Z</time>
      </trkpt>
      <trkpt lat="44.41676" lon="6.46913">
        <ele>1565.64</ele>
        <time>2022-08-09T07:41:59Z</time>
      </trkpt>
      <trkpt lat="44.41675" lon="6.46907">
        <ele>1567.57</ele>
        <time>2022-08-09T07:42:13Z</time>
      </trkpt>
      <trkpt lat="44.41672" lon="6.469">
        <ele>1568.05</ele>
        <time>2022-08-09T07:42:26Z</time>
      </trkpt>
      <trkpt lat="44.41671" lon="6.469">
        <ele>1568.05</ele>
        <time>2022-08-09T07:42:38Z</time>
      </trkpt>
      <trkpt lat="44.4167" lon="6.46896">
        <ele>1569.01</ele>
        <time>2022-08-09T07:42:51Z</time>
      </trkpt>
      <trkpt lat="44.41676" lon="6.46895">
        <ele>1570.93</ele>
        <time>2022-08-09T07:43:05Z</time>
      </trkpt>
      <trkpt lat="44.41672" lon="6.46884">
        <ele>1577.18</ele>
        <time>2022-08-09T07:43:19Z</time>
      </trkpt>
      <trkpt lat="44.4167" lon="6.46879">
        <ele>1578.14</ele>
        <time>2022-08-09T07:43:30Z</time>
      </trkpt>
      <trkpt lat="44.41669" lon="6.46879">
        <ele>1578.14</ele>
        <time>2022-08-09T07:43:47Z</time>
      </trkpt>
      <trkpt lat="44.4167" lon="6.4688">
        <ele>1577.66</ele>
        <time>2022-08-09T07:44:11Z</time>
      </trkpt>
      <trkpt lat="44.4167" lon="6.46881">
        <ele>1578.14</ele>
        <time>2022-08-09T07:44:30Z</time>
      </trkpt>
      <trkpt lat="44.41671" lon="6.46881">
        <ele>1579.1</ele>
        <time>2022-08-09T07:44:50Z</time>
      </trkpt>
      <trkpt lat="44.41673" lon="6.46879">
        <ele>1577.66</ele>
        <time>2022-08-09T07:45:21Z</time>
      </trkpt>
      <trkpt lat="44.41673" lon="6.46878">
        <ele>1577.66</ele>
        <time>2022-08-09T07:45:41Z</time>
      </trkpt>
      <trkpt lat="44.41672" lon="6.46878">
        <ele>1576.22</ele>
        <time>2022-08-09T07:46:02Z</time>
      </trkpt>
      <trkpt lat="44.41671" lon="6.46878">
        <ele>1576.7</ele>
        <time>2022-08-09T07:46:26Z</time>
      </trkpt>
      <trkpt lat="44.41672" lon="6.46877">
        <ele>1578.14</ele>
        <time>2022-08-09T07:46:45Z</time>
      </trkpt>
      <trkpt lat="44.4167" lon="6.46882">
        <ele>1582.47</ele>
        <time>2022-08-09T07:47:07Z</time>
      </trkpt>
      <trkpt lat="44.41671" lon="6.46881">
        <ele>1581.99</ele>
        <time>2022-08-09T07:47:31Z</time>
      </trkpt>
      <trkpt lat="44.41671" lon="6.4688">
        <ele>1583.43</ele>
        <time>2022-08-09T07:47:51Z</time>
      </trkpt>
      <trkpt lat="44.41671" lon="6.46879">
        <ele>1583.43</ele>
        <time>2022-08-09T07:48:07Z</time>
      </trkpt>
      <trkpt lat="44.41663" lon="6.46876">
        <ele>1585.35</ele>
        <time>2022-08-09T07:48:23Z</time>
      </trkpt>
      <trkpt lat="44.4166" lon="6.46872">
        <ele>1586.31</ele>
        <time>2022-08-09T07:48:34Z</time>
      </trkpt>
      <trkpt lat="44.41659" lon="6.46862">
        <ele>1590.64</ele>
        <time>2022-08-09T07:48:48Z</time>
      </trkpt>
      <trkpt lat="44.41663" lon="6.46851">
        <ele>1594.96</ele>
        <time>2022-08-09T07:49:03Z</time>
      </trkpt>
      <trkpt lat="44.41669" lon="6.46847">
        <ele>1597.85</ele>
        <time>2022-08-09T07:49:16Z</time>
      </trkpt>
      <trkpt lat="44.4168" lon="6.46843">
        <ele>1601.69</ele>
        <time>2022-08-09T07:49:32Z</time>
      </trkpt>
      <trkpt lat="44.41689" lon="6.46841">
        <ele>1606.02</ele>
        <time>2022-08-09T07:49:48Z</time>
      </trkpt>
      <trkpt lat="44.41688" lon="6.46845">
        <ele>1608.9</ele>
        <time>2022-08-09T07:50:01Z</time>
      </trkpt>
      <trkpt lat="44.41686" lon="6.46856">
        <ele>1609.86</ele>
        <time>2022-08-09T07:50:15Z</time>
      </trkpt>
      <trkpt lat="44.41691" lon="6.46865">
        <ele>1611.79</ele>
        <time>2022-08-09T07:50:30Z</time>
      </trkpt>
      <trkpt lat="44.41693" lon="6.4687">
        <ele>1611.31</ele>
        <time>2022-08-09T07:50:42Z</time>
      </trkpt>
      <trkpt lat="44.41697" lon="6.46866">
        <ele>1614.19</ele>
        <time>2022-08-09T07:50:57Z</time>
      </trkpt>
      <trkpt lat="44.41699" lon="6.46858">
        <ele>1616.59</ele>
        <time>2022-08-09T07:51:10Z</time>
      </trkpt>
      <trkpt lat="44.41701" lon="6.46857">
        <ele>1619.48</ele>
        <time>2022-08-09T07:51:26Z</time>
      </trkpt>
      <trkpt lat="44.41703" lon="6.46865">
        <ele>1620.44</ele>
        <time>2022-08-09T07:51:40Z</time>
      </trkpt>
      <trkpt lat="44.41707" lon="6.4686">
        <ele>1621.88</ele>
        <time>2022-08-09T07:51:54Z</time>
      </trkpt>
      <trkpt lat="44.41708" lon="6.46855">
        <ele>1625.25</ele>
        <time>2022-08-09T07:52:07Z</time>
      </trkpt>
      <trkpt lat="44.41707" lon="6.4685">
        <ele>1629.09</ele>
        <time>2022-08-09T07:52:19Z</time>
      </trkpt>
      <trkpt lat="44.41707" lon="6.46841">
        <ele>1633.9</ele>
        <time>2022-08-09T07:52:33Z</time>
      </trkpt>
      <trkpt lat="44.41708" lon="6.46831">
        <ele>1633.42</ele>
        <time>2022-08-09T07:52:46Z</time>
      </trkpt>
      <trkpt lat="44.41709" lon="6.46824">
        <ele>1636.3</ele>
        <time>2022-08-09T07:52:58Z</time>
      </trkpt>
      <trkpt lat="44.41711" lon="6.46822">
        <ele>1636.78</ele>
        <time>2022-08-09T07:53:17Z</time>
      </trkpt>
      <trkpt lat="44.41717" lon="6.46815">
        <ele>1633.9</ele>
        <time>2022-08-09T07:53:38Z</time>
      </trkpt>
      <trkpt lat="44.41722" lon="6.46796">
        <ele>1635.34</ele>
        <time>2022-08-09T07:53:53Z</time>
      </trkpt>
      <trkpt lat="44.41723" lon="6.46792">
        <ele>1636.78</ele>
        <time>2022-08-09T07:54:07Z</time>
      </trkpt>
      <trkpt lat="44.41722" lon="6.4679">
        <ele>1637.74</ele>
        <time>2022-08-09T07:54:23Z</time>
      </trkpt>
      <trkpt lat="44.41734" lon="6.46769">
        <ele>1638.22</ele>
        <time>2022-08-09T07:54:37Z</time>
      </trkpt>
      <trkpt lat="44.41742" lon="6.46753">
        <ele>1641.11</ele>
        <time>2022-08-09T07:54:52Z</time>
      </trkpt>
      <trkpt lat="44.41751" lon="6.46741">
        <ele>1643.99</ele>
        <time>2022-08-09T07:55:07Z</time>
      </trkpt>
      <trkpt lat="44.41757" lon="6.46738">
        <ele>1644.47</ele>
        <time>2022-08-09T07:55:13Z</time>
      </trkpt>
      <trkpt lat="44.41761" lon="6.46734">
        <ele>1644.47</ele>
        <time>2022-08-09T07:55:18Z</time>
      </trkpt>
      <trkpt lat="44.41772" lon="6.46722">
        <ele>1648.32</ele>
        <time>2022-08-09T07:55:33Z</time>
      </trkpt>
      <trkpt lat="44.41782" lon="6.46713">
        <ele>1651.2</ele>
        <time>2022-08-09T07:55:48Z</time>
      </trkpt>
      <trkpt lat="44.41792" lon="6.46707">
        <ele>1653.6</ele>
        <time>2022-08-09T07:56:03Z</time>
      </trkpt>
      <trkpt lat="44.41802" lon="6.46702">
        <ele>1654.57</ele>
        <time>2022-08-09T07:56:16Z</time>
      </trkpt>
      <trkpt lat="44.41808" lon="6.46702">
        <ele>1656.49</ele>
        <time>2022-08-09T07:56:29Z</time>
      </trkpt>
      <trkpt lat="44.41809" lon="6.46706">
        <ele>1658.89</ele>
        <time>2022-08-09T07:56:42Z</time>
      </trkpt>
      <trkpt lat="44.41804" lon="6.46711">
        <ele>1660.81</ele>
        <time>2022-08-09T07:56:54Z</time>
      </trkpt>
      <trkpt lat="44.41802" lon="6.46718">
        <ele>1664.18</ele>
        <time>2022-08-09T07:57:07Z</time>
      </trkpt>
      <trkpt lat="44.41806" lon="6.46722">
        <ele>1665.14</ele>
        <time>2022-08-09T07:57:20Z</time>
      </trkpt>
      <trkpt lat="44.41807" lon="6.46724">
        <ele>1665.62</ele>
        <time>2022-08-09T07:57:33Z</time>
      </trkpt>
      <trkpt lat="44.41802" lon="6.46725">
        <ele>1671.87</ele>
        <time>2022-08-09T07:57:47Z</time>
      </trkpt>
      <trkpt lat="44.41804" lon="6.46732">
        <ele>1673.79</ele>
        <time>2022-08-09T07:58:00Z</time>
      </trkpt>
      <trkpt lat="44.41801" lon="6.4674">
        <ele>1675.72</ele>
        <time>2022-08-09T07:58:15Z</time>
      </trkpt>
      <trkpt lat="44.41797" lon="6.46745">
        <ele>1676.68</ele>
        <time>2022-08-09T07:58:29Z</time>
      </trkpt>
      <trkpt lat="44.41795" lon="6.4675">
        <ele>1677.16</ele>
        <time>2022-08-09T07:58:43Z</time>
      </trkpt>
      <trkpt lat="44.41798" lon="6.46753">
        <ele>1676.2</ele>
        <time>2022-08-09T07:58:55Z</time>
      </trkpt>
      <trkpt lat="44.41803" lon="6.46752">
        <ele>1679.08</ele>
        <time>2022-08-09T07:59:08Z</time>
      </trkpt>
      <trkpt lat="44.41812" lon="6.46751">
        <ele>1682.93</ele>
        <time>2022-08-09T07:59:24Z</time>
      </trkpt>
      <trkpt lat="44.41816" lon="6.4675">
        <ele>1685.33</ele>
        <time>2022-08-09T07:59:38Z</time>
      </trkpt>
      <trkpt lat="44.41822" lon="6.46753">
        <ele>1690.62</ele>
        <time>2022-08-09T07:59:51Z</time>
      </trkpt>
      <trkpt lat="44.41824" lon="6.46752">
        <ele>1691.58</ele>
        <time>2022-08-09T08:00:02Z</time>
      </trkpt>
      <trkpt lat="44.41829" lon="6.46755">
        <ele>1691.58</ele>
        <time>2022-08-09T08:00:18Z</time>
      </trkpt>
      <trkpt lat="44.41828" lon="6.46763">
        <ele>1694.46</ele>
        <time>2022-08-09T08:00:34Z</time>
      </trkpt>
      <trkpt lat="44.41831" lon="6.46769">
        <ele>1696.86</ele>
        <time>2022-08-09T08:00:48Z</time>
      </trkpt>
      <trkpt lat="44.41841" lon="6.46777">
        <ele>1697.83</ele>
        <time>2022-08-09T08:01:03Z</time>
      </trkpt>
      <trkpt lat="44.41849" lon="6.46789">
        <ele>1700.23</ele>
        <time>2022-08-09T08:01:20Z</time>
      </trkpt>
      <trkpt lat="44.41857" lon="6.46798">
        <ele>1706.48</ele>
        <time>2022-08-09T08:01:36Z</time>
      </trkpt>
      <trkpt lat="44.41868" lon="6.46804">
        <ele>1707.44</ele>
        <time>2022-08-09T08:01:51Z</time>
      </trkpt>
      <trkpt lat="44.41869" lon="6.46806">
        <ele>1707.92</ele>
        <time>2022-08-09T08:02:15Z</time>
      </trkpt>
      <trkpt lat="44.4187" lon="6.46806">
        <ele>1707.92</ele>
        <time>2022-08-09T08:02:38Z</time>
      </trkpt>
      <trkpt lat="44.41877" lon="6.46812">
        <ele>1711.76</ele>
        <time>2022-08-09T08:02:53Z</time>
      </trkpt>
      <trkpt lat="44.41885" lon="6.46821">
        <ele>1715.61</ele>
        <time>2022-08-09T08:03:09Z</time>
      </trkpt>
      <trkpt lat="44.4189" lon="6.46826">
        <ele>1715.61</ele>
        <time>2022-08-09T08:03:26Z</time>
      </trkpt>
      <trkpt lat="44.41891" lon="6.46825">
        <ele>1715.61</ele>
        <time>2022-08-09T08:03:53Z</time>
      </trkpt>
      <trkpt lat="44.41894" lon="6.46827">
        <ele>1718.01</ele>
        <time>2022-08-09T08:04:11Z</time>
      </trkpt>
      <trkpt lat="44.41904" lon="6.46836">
        <ele>1723.3</ele>
        <time>2022-08-09T08:04:26Z</time>
      </trkpt>
      <trkpt lat="44.41911" lon="6.46843">
        <ele>1726.18</ele>
        <time>2022-08-09T08:04:40Z</time>
      </trkpt>
      <trkpt lat="44.41912" lon="6.46846">
        <ele>1729.55</ele>
        <time>2022-08-09T08:04:54Z</time>
      </trkpt>
      <trkpt lat="44.4191" lon="6.4685">
        <ele>1730.99</ele>
        <time>2022-08-09T08:05:06Z</time>
      </trkpt>
      <trkpt lat="44.41903" lon="6.46853">
        <ele>1731.47</ele>
        <time>2022-08-09T08:05:20Z</time>
      </trkpt>
      <trkpt lat="44.41903" lon="6.46857">
        <ele>1731.47</ele>
        <time>2022-08-09T08:05:34Z</time>
      </trkpt>
      <trkpt lat="44.41906" lon="6.46863">
        <ele>1732.91</ele>
        <time>2022-08-09T08:05:47Z</time>
      </trkpt>
      <trkpt lat="44.41899" lon="6.46862">
        <ele>1735.8</ele>
        <time>2022-08-09T08:06:02Z</time>
      </trkpt>
      <trkpt lat="44.419" lon="6.46866">
        <ele>1736.28</ele>
        <time>2022-08-09T08:06:15Z</time>
      </trkpt>
      <trkpt lat="44.41903" lon="6.46872">
        <ele>1737.72</ele>
        <time>2022-08-09T08:06:28Z</time>
      </trkpt>
      <trkpt lat="44.41909" lon="6.46873">
        <ele>1742.53</ele>
        <time>2022-08-09T08:06:43Z</time>
      </trkpt>
      <trkpt lat="44.41912" lon="6.46872">
        <ele>1749.26</ele>
        <time>2022-08-09T08:06:56Z</time>
      </trkpt>
      <trkpt lat="44.41916" lon="6.46866">
        <ele>1757.43</ele>
        <time>2022-08-09T08:07:08Z</time>
      </trkpt>
      <trkpt lat="44.41927" lon="6.46865">
        <ele>1758.39</ele>
        <time>2022-08-09T08:07:22Z</time>
      </trkpt>
      <trkpt lat="44.4193" lon="6.46865">
        <ele>1755.99</ele>
        <time>2022-08-09T08:07:39Z</time>
      </trkpt>
      <trkpt lat="44.4194" lon="6.46869">
        <ele>1750.22</ele>
        <time>2022-08-09T08:07:52Z</time>
      </trkpt>
      <trkpt lat="44.41945" lon="6.46871">
        <ele>1749.26</ele>
        <time>2022-08-09T08:08:06Z</time>
      </trkpt>
      <trkpt lat="44.41953" lon="6.46877">
        <ele>1748.29</ele>
        <time>2022-08-09T08:08:19Z</time>
      </trkpt>
      <trkpt lat="44.41954" lon="6.46879">
        <ele>1746.85</ele>
        <time>2022-08-09T08:08:34Z</time>
      </trkpt>
      <trkpt lat="44.41961" lon="6.46885">
        <ele>1747.81</ele>
        <time>2022-08-09T08:08:48Z</time>
      </trkpt>
      <trkpt lat="44.41965" lon="6.46892">
        <ele>1750.22</ele>
        <time>2022-08-09T08:09:04Z</time>
      </trkpt>
      <trkpt lat="44.41964" lon="6.46896">
        <ele>1753.1</ele>
        <time>2022-08-09T08:09:16Z</time>
      </trkpt>
      <trkpt lat="44.41959" lon="6.46897">
        <ele>1756.47</ele>
        <time>2022-08-09T08:09:31Z</time>
      </trkpt>
      <trkpt lat="44.4195" lon="6.469">
        <ele>1760.79</ele>
        <time>2022-08-09T08:09:45Z</time>
      </trkpt>
      <trkpt lat="44.41948" lon="6.46907">
        <ele>1760.79</ele>
        <time>2022-08-09T08:10:01Z</time>
      </trkpt>
      <trkpt lat="44.41948" lon="6.46921">
        <ele>1763.2</ele>
        <time>2022-08-09T08:10:16Z</time>
      </trkpt>
      <trkpt lat="44.41948" lon="6.46927">
        <ele>1766.08</ele>
        <time>2022-08-09T08:10:33Z</time>
      </trkpt>
      <trkpt lat="44.41952" lon="6.46931">
        <ele>1765.12</ele>
        <time>2022-08-09T08:10:41Z</time>
      </trkpt>
      <trkpt lat="44.41966" lon="6.46944">
        <ele>1763.68</ele>
        <time>2022-08-09T08:10:59Z</time>
      </trkpt>
      <trkpt lat="44.41964" lon="6.46948">
        <ele>1766.08</ele>
        <time>2022-08-09T08:11:14Z</time>
      </trkpt>
      <trkpt lat="44.41959" lon="6.46948">
        <ele>1768.96</ele>
        <time>2022-08-09T08:11:30Z</time>
      </trkpt>
      <trkpt lat="44.41954" lon="6.4695">
        <ele>1770.89</ele>
        <time>2022-08-09T08:11:45Z</time>
      </trkpt>
      <trkpt lat="44.41947" lon="6.46949">
        <ele>1772.81</ele>
        <time>2022-08-09T08:11:58Z</time>
      </trkpt>
      <trkpt lat="44.41944" lon="6.46949">
        <ele>1771.85</ele>
        <time>2022-08-09T08:12:11Z</time>
      </trkpt>
      <trkpt lat="44.41944" lon="6.46949">
        <ele>1771.85</ele>
        <time>2022-08-09T08:12:22Z</time>
      </trkpt>
      <trkpt lat="44.41943" lon="6.4695">
        <ele>1772.33</ele>
        <time>2022-08-09T08:12:32Z</time>
      </trkpt>
      <trkpt lat="44.41939" lon="6.46949">
        <ele>1771.37</ele>
        <time>2022-08-09T08:12:47Z</time>
      </trkpt>
      <trkpt lat="44.41936" lon="6.46949">
        <ele>1770.89</ele>
        <time>2022-08-09T08:13:03Z</time>
      </trkpt>
      <trkpt lat="44.41936" lon="6.4695">
        <ele>1770.89</ele>
        <time>2022-08-09T08:13:29Z</time>
      </trkpt>
      <trkpt lat="44.41936" lon="6.46951">
        <ele>1770.89</ele>
        <time>2022-08-09T08:13:47Z</time>
      </trkpt>
      <trkpt lat="44.41934" lon="6.46953">
        <ele>1770.89</ele>
        <time>2022-08-09T08:14:02Z</time>
      </trkpt>
      <trkpt lat="44.41934" lon="6.46953">
        <ele>1770.41</ele>
        <time>2022-08-09T08:14:27Z</time>
      </trkpt>
      <trkpt lat="44.41934" lon="6.46953">
        <ele>1769.92</ele>
        <time>2022-08-09T08:14:58Z</time>
      </trkpt>
      <trkpt lat="44.41935" lon="6.46953">
        <ele>1769.92</ele>
        <time>2022-08-09T08:15:35Z</time>
      </trkpt>
      <trkpt lat="44.41935" lon="6.46952">
        <ele>1769.44</ele>
        <time>2022-08-09T08:16:08Z</time>
      </trkpt>
      <trkpt lat="44.41935" lon="6.46953">
        <ele>1769.44</ele>
        <time>2022-08-09T08:16:43Z</time>
      </trkpt>
      <trkpt lat="44.41935" lon="6.46953">
        <ele>1768.48</ele>
        <time>2022-08-09T08:17:19Z</time>
      </trkpt>
      <trkpt lat="44.41934" lon="6.46953">
        <ele>1768.96</ele>
        <time>2022-08-09T08:17:35Z</time>
      </trkpt>
      <trkpt lat="44.41934" lon="6.46954">
        <ele>1768.48</ele>
        <time>2022-08-09T08:18:06Z</time>
      </trkpt>
      <trkpt lat="44.41936" lon="6.46951">
        <ele>1768.96</ele>
        <time>2022-08-09T08:18:29Z</time>
      </trkpt>
      <trkpt lat="44.41944" lon="6.46952">
        <ele>1769.44</ele>
        <time>2022-08-09T08:18:43Z</time>
      </trkpt>
      <trkpt lat="44.41951" lon="6.46952">
        <ele>1768.96</ele>
        <time>2022-08-09T08:19:00Z</time>
      </trkpt>
      <trkpt lat="44.4196" lon="6.46958">
        <ele>1768</ele>
        <time>2022-08-09T08:19:13Z</time>
      </trkpt>
      <trkpt lat="44.41959" lon="6.46969">
        <ele>1772.81</ele>
        <time>2022-08-09T08:19:30Z</time>
      </trkpt>
      <trkpt lat="44.41957" lon="6.46979">
        <ele>1777.61</ele>
        <time>2022-08-09T08:19:45Z</time>
      </trkpt>
      <trkpt lat="44.41952" lon="6.46989">
        <ele>1780.02</ele>
        <time>2022-08-09T08:20:00Z</time>
      </trkpt>
      <trkpt lat="44.4195" lon="6.47005">
        <ele>1784.34</ele>
        <time>2022-08-09T08:20:15Z</time>
      </trkpt>
      <trkpt lat="44.4195" lon="6.47016">
        <ele>1786.27</ele>
        <time>2022-08-09T08:20:28Z</time>
      </trkpt>
      <trkpt lat="44.4195" lon="6.47016">
        <ele>1786.27</ele>
        <time>2022-08-09T08:20:29Z</time>
      </trkpt>
      <trkpt lat="44.41958" lon="6.47024">
        <ele>1790.11</ele>
        <time>2022-08-09T08:20:43Z</time>
      </trkpt>
      <trkpt lat="44.41967" lon="6.47034">
        <ele>1790.59</ele>
        <time>2022-08-09T08:20:59Z</time>
      </trkpt>
      <trkpt lat="44.41976" lon="6.47049">
        <ele>1793</ele>
        <time>2022-08-09T08:21:15Z</time>
      </trkpt>
      <trkpt lat="44.41984" lon="6.47055">
        <ele>1794.44</ele>
        <time>2022-08-09T08:21:28Z</time>
      </trkpt>
      <trkpt lat="44.41987" lon="6.47062">
        <ele>1797.32</ele>
        <time>2022-08-09T08:21:44Z</time>
      </trkpt>
      <trkpt lat="44.41993" lon="6.47068">
        <ele>1801.65</ele>
        <time>2022-08-09T08:22:00Z</time>
      </trkpt>
      <trkpt lat="44.41996" lon="6.47074">
        <ele>1803.09</ele>
        <time>2022-08-09T08:22:13Z</time>
      </trkpt>
      <trkpt lat="44.42004" lon="6.47081">
        <ele>1805.49</ele>
        <time>2022-08-09T08:22:29Z</time>
      </trkpt>
      <trkpt lat="44.42011" lon="6.47082">
        <ele>1809.34</ele>
        <time>2022-08-09T08:22:46Z</time>
      </trkpt>
      <trkpt lat="44.42016" lon="6.47087">
        <ele>1810.3</ele>
        <time>2022-08-09T08:23:00Z</time>
      </trkpt>
      <trkpt lat="44.42023" lon="6.47093">
        <ele>1812.22</ele>
        <time>2022-08-09T08:23:14Z</time>
      </trkpt>
      <trkpt lat="44.42028" lon="6.47098">
        <ele>1814.63</ele>
        <time>2022-08-09T08:23:27Z</time>
      </trkpt>
      <trkpt lat="44.42035" lon="6.47105">
        <ele>1817.51</ele>
        <time>2022-08-09T08:23:43Z</time>
      </trkpt>
      <trkpt lat="44.42044" lon="6.47111">
        <ele>1822.32</ele>
        <time>2022-08-09T08:23:58Z</time>
      </trkpt>
      <trkpt lat="44.42053" lon="6.47115">
        <ele>1826.16</ele>
        <time>2022-08-09T08:24:12Z</time>
      </trkpt>
      <trkpt lat="44.42061" lon="6.47122">
        <ele>1828.08</ele>
        <time>2022-08-09T08:24:25Z</time>
      </trkpt>
      <trkpt lat="44.42068" lon="6.47126">
        <ele>1831.45</ele>
        <time>2022-08-09T08:24:38Z</time>
      </trkpt>
      <trkpt lat="44.42075" lon="6.47133">
        <ele>1837.22</ele>
        <time>2022-08-09T08:24:53Z</time>
      </trkpt>
      <trkpt lat="44.4208" lon="6.47135">
        <ele>1842.98</ele>
        <time>2022-08-09T08:25:09Z</time>
      </trkpt>
      <trkpt lat="44.42087" lon="6.47141">
        <ele>1846.83</ele>
        <time>2022-08-09T08:25:23Z</time>
      </trkpt>
      <trkpt lat="44.42094" lon="6.47142">
        <ele>1853.08</ele>
        <time>2022-08-09T08:25:37Z</time>
      </trkpt>
      <trkpt lat="44.421" lon="6.47145">
        <ele>1860.77</ele>
        <time>2022-08-09T08:25:53Z</time>
      </trkpt>
      <trkpt lat="44.42105" lon="6.47146">
        <ele>1868.46</ele>
        <time>2022-08-09T08:26:10Z</time>
      </trkpt>
      <trkpt lat="44.42111" lon="6.47144">
        <ele>1876.63</ele>
        <time>2022-08-09T08:26:26Z</time>
      </trkpt>
      <trkpt lat="44.42116" lon="6.47143">
        <ele>1879.51</ele>
        <time>2022-08-09T08:26:44Z</time>
      </trkpt>
      <trkpt lat="44.42126" lon="6.47149">
        <ele>1887.69</ele>
        <time>2022-08-09T08:26:57Z</time>
      </trkpt>
      <trkpt lat="44.42134" lon="6.47153">
        <ele>1893.93</ele>
        <time>2022-08-09T08:27:12Z</time>
      </trkpt>
      <trkpt lat="44.42139" lon="6.47155">
        <ele>1899.22</ele>
        <time>2022-08-09T08:27:26Z</time>
      </trkpt>
      <trkpt lat="44.42143" lon="6.47155">
        <ele>1907.39</ele>
        <time>2022-08-09T08:27:40Z</time>
      </trkpt>
      <trkpt lat="44.4215" lon="6.47167">
        <ele>1904.51</ele>
        <time>2022-08-09T08:27:53Z</time>
      </trkpt>
      <trkpt lat="44.42155" lon="6.4717">
        <ele>1911.72</ele>
        <time>2022-08-09T08:28:06Z</time>
      </trkpt>
      <trkpt lat="44.42165" lon="6.47177">
        <ele>1920.85</ele>
        <time>2022-08-09T08:28:21Z</time>
      </trkpt>
      <trkpt lat="44.4217" lon="6.47185">
        <ele>1929.02</ele>
        <time>2022-08-09T08:28:34Z</time>
      </trkpt>
      <trkpt lat="44.42174" lon="6.47192">
        <ele>1941.52</ele>
        <time>2022-08-09T08:28:46Z</time>
      </trkpt>
      <trkpt lat="44.42176" lon="6.47201">
        <ele>1950.65</ele>
        <time>2022-08-09T08:29:01Z</time>
      </trkpt>
      <trkpt lat="44.42182" lon="6.4723">
        <ele>1943.44</ele>
        <time>2022-08-09T08:29:15Z</time>
      </trkpt>
      <trkpt lat="44.42186" lon="6.47251">
        <ele>1937.67</ele>
        <time>2022-08-09T08:29:29Z</time>
      </trkpt>
      <trkpt lat="44.42189" lon="6.47261">
        <ele>1936.71</ele>
        <time>2022-08-09T08:29:42Z</time>
      </trkpt>
      <trkpt lat="44.42191" lon="6.47276">
        <ele>1940.08</ele>
        <time>2022-08-09T08:29:55Z</time>
      </trkpt>
      <trkpt lat="44.42194" lon="6.4729">
        <ele>1940.56</ele>
        <time>2022-08-09T08:30:07Z</time>
      </trkpt>
      <trkpt lat="44.42198" lon="6.47318">
        <ele>1938.16</ele>
        <time>2022-08-09T08:30:24Z</time>
      </trkpt>
      <trkpt lat="44.42207" lon="6.47341">
        <ele>1937.19</ele>
        <time>2022-08-09T08:30:39Z</time>
      </trkpt>
      <trkpt lat="44.42218" lon="6.47362">
        <ele>1932.39</ele>
        <time>2022-08-09T08:30:53Z</time>
      </trkpt>
      <trkpt lat="44.42223" lon="6.47375">
        <ele>1925.66</ele>
        <time>2022-08-09T08:31:07Z</time>
      </trkpt>
      <trkpt lat="44.42218" lon="6.47391">
        <ele>1919.89</ele>
        <time>2022-08-09T08:31:21Z</time>
      </trkpt>
      <trkpt lat="44.42215" lon="6.47404">
        <ele>1918.45</ele>
        <time>2022-08-09T08:31:31Z</time>
      </trkpt>
      <trkpt lat="44.42209" lon="6.47427">
        <ele>1914.12</ele>
        <time>2022-08-09T08:31:47Z</time>
      </trkpt>
      <trkpt lat="44.42201" lon="6.4744">
        <ele>1917.01</ele>
        <time>2022-08-09T08:32:01Z</time>
      </trkpt>
      <trkpt lat="44.42199" lon="6.47449">
        <ele>1919.89</ele>
        <time>2022-08-09T08:32:16Z</time>
      </trkpt>
      <trkpt lat="44.42202" lon="6.47461">
        <ele>1928.06</ele>
        <time>2022-08-09T08:32:30Z</time>
      </trkpt>
      <trkpt lat="44.42209" lon="6.47478">
        <ele>1930.46</ele>
        <time>2022-08-09T08:32:44Z</time>
      </trkpt>
      <trkpt lat="44.42223" lon="6.47495">
        <ele>1926.62</ele>
        <time>2022-08-09T08:33:03Z</time>
      </trkpt>
      <trkpt lat="44.42236" lon="6.4751">
        <ele>1924.7</ele>
        <time>2022-08-09T08:33:20Z</time>
      </trkpt>
      <trkpt lat="44.42251" lon="6.47527">
        <ele>1910.28</ele>
        <time>2022-08-09T08:33:35Z</time>
      </trkpt>
      <trkpt lat="44.42252" lon="6.47529">
        <ele>1910.28</ele>
        <time>2022-08-09T08:33:37Z</time>
      </trkpt>
      <trkpt lat="44.42264" lon="6.47543">
        <ele>1908.35</ele>
        <time>2022-08-09T08:33:54Z</time>
      </trkpt>
      <trkpt lat="44.42274" lon="6.47553">
        <ele>1909.32</ele>
        <time>2022-08-09T08:34:09Z</time>
      </trkpt>
      <trkpt lat="44.42286" lon="6.47563">
        <ele>1904.51</ele>
        <time>2022-08-09T08:34:24Z</time>
      </trkpt>
      <trkpt lat="44.42287" lon="6.47565">
        <ele>1904.51</ele>
        <time>2022-08-09T08:34:58Z</time>
      </trkpt>
      <trkpt lat="44.42294" lon="6.47571">
        <ele>1902.11</ele>
        <time>2022-08-09T08:35:10Z</time>
      </trkpt>
      <trkpt lat="44.42306" lon="6.47579">
        <ele>1901.14</ele>
        <time>2022-08-09T08:35:25Z</time>
      </trkpt>
      <trkpt lat="44.42315" lon="6.47592">
        <ele>1904.03</ele>
        <time>2022-08-09T08:35:41Z</time>
      </trkpt>
      <trkpt lat="44.42321" lon="6.47605">
        <ele>1908.35</ele>
        <time>2022-08-09T08:35:56Z</time>
      </trkpt>
      <trkpt lat="44.42328" lon="6.47615">
        <ele>1909.8</ele>
        <time>2022-08-09T08:36:10Z</time>
      </trkpt>
      <trkpt lat="44.42331" lon="6.47625">
        <ele>1914.6</ele>
        <time>2022-08-09T08:36:23Z</time>
      </trkpt>
      <trkpt lat="44.42338" lon="6.47639">
        <ele>1918.45</ele>
        <time>2022-08-09T08:36:38Z</time>
      </trkpt>
      <trkpt lat="44.42343" lon="6.47657">
        <ele>1921.33</ele>
        <time>2022-08-09T08:36:52Z</time>
      </trkpt>
      <trkpt lat="44.42344" lon="6.47659">
        <ele>1921.81</ele>
        <time>2022-08-09T08:36:54Z</time>
      </trkpt>
      <trkpt lat="44.42355" lon="6.47671">
        <ele>1922.77</ele>
        <time>2022-08-09T08:37:08Z</time>
      </trkpt>
      <trkpt lat="44.42359" lon="6.4768">
        <ele>1927.58</ele>
        <time>2022-08-09T08:37:19Z</time>
      </trkpt>
      <trkpt lat="44.42364" lon="6.47688">
        <ele>1931.91</ele>
        <time>2022-08-09T08:37:32Z</time>
      </trkpt>
      <trkpt lat="44.42373" lon="6.47703">
        <ele>1940.56</ele>
        <time>2022-08-09T08:37:46Z</time>
      </trkpt>
      <trkpt lat="44.42377" lon="6.47711">
        <ele>1950.17</ele>
        <time>2022-08-09T08:37:59Z</time>
      </trkpt>
      <trkpt lat="44.42381" lon="6.47717">
        <ele>1960.75</ele>
        <time>2022-08-09T08:38:09Z</time>
      </trkpt>
      <trkpt lat="44.42383" lon="6.47726">
        <ele>1968.44</ele>
        <time>2022-08-09T08:38:18Z</time>
      </trkpt>
      <trkpt lat="44.42387" lon="6.47742">
        <ele>1977.09</ele>
        <time>2022-08-09T08:38:30Z</time>
      </trkpt>
      <trkpt lat="44.42393" lon="6.47763">
        <ele>1976.13</ele>
        <time>2022-08-09T08:38:44Z</time>
      </trkpt>
      <trkpt lat="44.42405" lon="6.47779">
        <ele>1970.36</ele>
        <time>2022-08-09T08:38:59Z</time>
      </trkpt>
      <trkpt lat="44.42417" lon="6.47791">
        <ele>1965.55</ele>
        <time>2022-08-09T08:39:12Z</time>
      </trkpt>
      <trkpt lat="44.42433" lon="6.47807">
        <ele>1955.46</ele>
        <time>2022-08-09T08:39:28Z</time>
      </trkpt>
      <trkpt lat="44.42444" lon="6.47821">
        <ele>1948.25</ele>
        <time>2022-08-09T08:39:42Z</time>
      </trkpt>
      <trkpt lat="44.42449" lon="6.47825">
        <ele>1947.29</ele>
        <time>2022-08-09T08:39:49Z</time>
      </trkpt>
      <trkpt lat="44.4246" lon="6.47832">
        <ele>1944.4</ele>
        <time>2022-08-09T08:40:04Z</time>
      </trkpt>
      <trkpt lat="44.42471" lon="6.47844">
        <ele>1940.56</ele>
        <time>2022-08-09T08:40:19Z</time>
      </trkpt>
      <trkpt lat="44.42484" lon="6.47854">
        <ele>1940.56</ele>
        <time>2022-08-09T08:40:34Z</time>
      </trkpt>
      <trkpt lat="44.42494" lon="6.47866">
        <ele>1939.12</ele>
        <time>2022-08-09T08:40:48Z</time>
      </trkpt>
      <trkpt lat="44.425" lon="6.47878">
        <ele>1937.67</ele>
        <time>2022-08-09T08:41:01Z</time>
      </trkpt>
      <trkpt lat="44.42508" lon="6.47888">
        <ele>1936.23</ele>
        <time>2022-08-09T08:41:16Z</time>
      </trkpt>
      <trkpt lat="44.42515" lon="6.47898">
        <ele>1937.19</ele>
        <time>2022-08-09T08:41:31Z</time>
      </trkpt>
      <trkpt lat="44.42523" lon="6.47909">
        <ele>1939.6</ele>
        <time>2022-08-09T08:41:46Z</time>
      </trkpt>
      <trkpt lat="44.42526" lon="6.47913">
        <ele>1939.6</ele>
        <time>2022-08-09T08:42:02Z</time>
      </trkpt>
      <trkpt lat="44.42528" lon="6.47916">
        <ele>1938.64</ele>
        <time>2022-08-09T08:42:15Z</time>
      </trkpt>
      <trkpt lat="44.42529" lon="6.47917">
        <ele>1938.64</ele>
        <time>2022-08-09T08:42:28Z</time>
      </trkpt>
      <trkpt lat="44.42529" lon="6.47918">
        <ele>1938.16</ele>
        <time>2022-08-09T08:42:45Z</time>
      </trkpt>
      <trkpt lat="44.42529" lon="6.47918">
        <ele>1938.16</ele>
        <time>2022-08-09T08:42:50Z</time>
      </trkpt>
      <trkpt lat="44.42531" lon="6.47918">
        <ele>1937.19</ele>
        <time>2022-08-09T08:43:03Z</time>
      </trkpt>
      <trkpt lat="44.42531" lon="6.47919">
        <ele>1937.67</ele>
        <time>2022-08-09T08:43:20Z</time>
      </trkpt>
      <trkpt lat="44.42531" lon="6.47918">
        <ele>1937.19</ele>
        <time>2022-08-09T08:43:45Z</time>
      </trkpt>
      <trkpt lat="44.42531" lon="6.47918">
        <ele>1936.71</ele>
        <time>2022-08-09T08:44:11Z</time>
      </trkpt>
      <trkpt lat="44.42532" lon="6.47921">
        <ele>1937.19</ele>
        <time>2022-08-09T08:44:33Z</time>
      </trkpt>
      <trkpt lat="44.42531" lon="6.4792">
        <ele>1939.12</ele>
        <time>2022-08-09T08:44:48Z</time>
      </trkpt>
      <trkpt lat="44.42532" lon="6.47921">
        <ele>1938.64</ele>
        <time>2022-08-09T08:45:01Z</time>
      </trkpt>
      <trkpt lat="44.42532" lon="6.4792">
        <ele>1939.12</ele>
        <time>2022-08-09T08:45:21Z</time>
      </trkpt>
      <trkpt lat="44.42531" lon="6.47921">
        <ele>1939.12</ele>
        <time>2022-08-09T08:45:39Z</time>
      </trkpt>
      <trkpt lat="44.42532" lon="6.47922">
        <ele>1939.12</ele>
        <time>2022-08-09T08:45:53Z</time>
      </trkpt>
      <trkpt lat="44.42531" lon="6.47922">
        <ele>1939.6</ele>
        <time>2022-08-09T08:46:19Z</time>
      </trkpt>
      <trkpt lat="44.42534" lon="6.47925">
        <ele>1940.08</ele>
        <time>2022-08-09T08:46:34Z</time>
      </trkpt>
      <trkpt lat="44.42545" lon="6.4794">
        <ele>1941.52</ele>
        <time>2022-08-09T08:46:53Z</time>
      </trkpt>
      <trkpt lat="44.42555" lon="6.47953">
        <ele>1944.4</ele>
        <time>2022-08-09T08:47:09Z</time>
      </trkpt>
      <trkpt lat="44.42556" lon="6.47954">
        <ele>1944.4</ele>
        <time>2022-08-09T08:47:10Z</time>
      </trkpt>
      <trkpt lat="44.42561" lon="6.4796">
        <ele>1945.36</ele>
        <time>2022-08-09T08:47:18Z</time>
      </trkpt>
      <trkpt lat="44.4257" lon="6.4798">
        <ele>1948.25</ele>
        <time>2022-08-09T08:47:36Z</time>
      </trkpt>
      <trkpt lat="44.42579" lon="6.47995">
        <ele>1948.25</ele>
        <time>2022-08-09T08:47:52Z</time>
      </trkpt>
      <trkpt lat="44.42586" lon="6.48002">
        <ele>1950.17</ele>
        <time>2022-08-09T08:48:05Z</time>
      </trkpt>
      <trkpt lat="44.42596" lon="6.48008">
        <ele>1953.06</ele>
        <time>2022-08-09T08:48:21Z</time>
      </trkpt>
      <trkpt lat="44.42602" lon="6.48018">
        <ele>1955.46</ele>
        <time>2022-08-09T08:48:33Z</time>
      </trkpt>
      <trkpt lat="44.42609" lon="6.48034">
        <ele>1956.9</ele>
        <time>2022-08-09T08:48:48Z</time>
      </trkpt>
      <trkpt lat="44.42615" lon="6.48045">
        <ele>1957.38</ele>
        <time>2022-08-09T08:49:03Z</time>
      </trkpt>
      <trkpt lat="44.42617" lon="6.48055">
        <ele>1958.82</ele>
        <time>2022-08-09T08:49:14Z</time>
      </trkpt>
      <trkpt lat="44.42618" lon="6.48071">
        <ele>1961.23</ele>
        <time>2022-08-09T08:49:29Z</time>
      </trkpt>
      <trkpt lat="44.4262" lon="6.48074">
        <ele>1961.71</ele>
        <time>2022-08-09T08:49:42Z</time>
      </trkpt>
      <trkpt lat="44.42625" lon="6.48077">
        <ele>1961.71</ele>
        <time>2022-08-09T08:49:52Z</time>
      </trkpt>
      <trkpt lat="44.42637" lon="6.48067">
        <ele>1963.15</ele>
        <time>2022-08-09T08:50:07Z</time>
      </trkpt>
      <trkpt lat="44.42642" lon="6.48064">
        <ele>1962.67</ele>
        <time>2022-08-09T08:50:20Z</time>
      </trkpt>
      <trkpt lat="44.42647" lon="6.48058">
        <ele>1966.51</ele>
        <time>2022-08-09T08:50:32Z</time>
      </trkpt>
      <trkpt lat="44.42657" lon="6.48051">
        <ele>1970.36</ele>
        <time>2022-08-09T08:50:49Z</time>
      </trkpt>
      <trkpt lat="44.42662" lon="6.48049">
        <ele>1972.28</ele>
        <time>2022-08-09T08:51:02Z</time>
      </trkpt>
      <trkpt lat="44.4267" lon="6.48042">
        <ele>1975.17</ele>
        <time>2022-08-09T08:51:17Z</time>
      </trkpt>
      <trkpt lat="44.42676" lon="6.48039">
        <ele>1977.09</ele>
        <time>2022-08-09T08:51:26Z</time>
      </trkpt>
      <trkpt lat="44.42687" lon="6.4804">
        <ele>1980.93</ele>
        <time>2022-08-09T08:51:42Z</time>
      </trkpt>
      <trkpt lat="44.42689" lon="6.48045">
        <ele>1983.34</ele>
        <time>2022-08-09T08:51:56Z</time>
      </trkpt>
      <trkpt lat="44.42683" lon="6.48055">
        <ele>1985.26</ele>
        <time>2022-08-09T08:52:10Z</time>
      </trkpt>
      <trkpt lat="44.4268" lon="6.48062">
        <ele>1986.7</ele>
        <time>2022-08-09T08:52:23Z</time>
      </trkpt>
      <trkpt lat="44.42676" lon="6.48069">
        <ele>1987.18</ele>
        <time>2022-08-09T08:52:29Z</time>
      </trkpt>
      <trkpt lat="44.42671" lon="6.48086">
        <ele>1987.18</ele>
        <time>2022-08-09T08:52:44Z</time>
      </trkpt>
      <trkpt lat="44.42668" lon="6.48098">
        <ele>1986.7</ele>
        <time>2022-08-09T08:53:01Z</time>
      </trkpt>
      <trkpt lat="44.42656" lon="6.48112">
        <ele>1989.59</ele>
        <time>2022-08-09T08:53:17Z</time>
      </trkpt>
      <trkpt lat="44.42653" lon="6.48117">
        <ele>1990.55</ele>
        <time>2022-08-09T08:53:24Z</time>
      </trkpt>
      <trkpt lat="44.42648" lon="6.48125">
        <ele>1990.07</ele>
        <time>2022-08-09T08:53:37Z</time>
      </trkpt>
      <trkpt lat="44.42643" lon="6.4814">
        <ele>1990.55</ele>
        <time>2022-08-09T08:53:51Z</time>
      </trkpt>
      <trkpt lat="44.42637" lon="6.4815">
        <ele>1991.51</ele>
        <time>2022-08-09T08:54:03Z</time>
      </trkpt>
      <trkpt lat="44.42634" lon="6.48153">
        <ele>1991.51</ele>
        <time>2022-08-09T08:54:08Z</time>
      </trkpt>
      <trkpt lat="44.42626" lon="6.48157">
        <ele>1994.39</ele>
        <time>2022-08-09T08:54:20Z</time>
      </trkpt>
      <trkpt lat="44.4262" lon="6.4816">
        <ele>1996.8</ele>
        <time>2022-08-09T08:54:33Z</time>
      </trkpt>
      <trkpt lat="44.42613" lon="6.48168">
        <ele>1998.72</ele>
        <time>2022-08-09T08:54:45Z</time>
      </trkpt>
      <trkpt lat="44.42604" lon="6.4818">
        <ele>2000.64</ele>
        <time>2022-08-09T08:55:02Z</time>
      </trkpt>
      <trkpt lat="44.42598" lon="6.48189">
        <ele>2003.04</ele>
        <time>2022-08-09T08:55:15Z</time>
      </trkpt>
      <trkpt lat="44.42593" lon="6.482">
        <ele>2003.52</ele>
        <time>2022-08-09T08:55:29Z</time>
      </trkpt>
      <trkpt lat="44.4259" lon="6.48211">
        <ele>2006.89</ele>
        <time>2022-08-09T08:55:44Z</time>
      </trkpt>
      <trkpt lat="44.42586" lon="6.4822">
        <ele>2008.81</ele>
        <time>2022-08-09T08:55:59Z</time>
      </trkpt>
      <trkpt lat="44.42584" lon="6.48227">
        <ele>2008.81</ele>
        <time>2022-08-09T08:56:11Z</time>
      </trkpt>
      <trkpt lat="44.42583" lon="6.48235">
        <ele>2010.25</ele>
        <time>2022-08-09T08:56:23Z</time>
      </trkpt>
      <trkpt lat="44.42583" lon="6.48236">
        <ele>2009.77</ele>
        <time>2022-08-09T08:56:36Z</time>
      </trkpt>
      <trkpt lat="44.42583" lon="6.48235">
        <ele>2009.29</ele>
        <time>2022-08-09T08:57:05Z</time>
      </trkpt>
      <trkpt lat="44.42582" lon="6.48235">
        <ele>2009.29</ele>
        <time>2022-08-09T08:57:28Z</time>
      </trkpt>
      <trkpt lat="44.42583" lon="6.48236">
        <ele>2008.81</ele>
        <time>2022-08-09T08:57:43Z</time>
      </trkpt>
      <trkpt lat="44.42582" lon="6.48236">
        <ele>2009.29</ele>
        <time>2022-08-09T08:58:03Z</time>
      </trkpt>
      <trkpt lat="44.42582" lon="6.48237">
        <ele>2010.73</ele>
        <time>2022-08-09T08:58:26Z</time>
      </trkpt>
      <trkpt lat="44.42579" lon="6.48247">
        <ele>2014.1</ele>
        <time>2022-08-09T08:58:39Z</time>
      </trkpt>
      <trkpt lat="44.42576" lon="6.48253">
        <ele>2019.39</ele>
        <time>2022-08-09T08:58:56Z</time>
      </trkpt>
      <trkpt lat="44.42571" lon="6.48258">
        <ele>2022.75</ele>
        <time>2022-08-09T08:59:12Z</time>
      </trkpt>
      <trkpt lat="44.42565" lon="6.48265">
        <ele>2026.6</ele>
        <time>2022-08-09T08:59:30Z</time>
      </trkpt>
      <trkpt lat="44.42559" lon="6.48265">
        <ele>2028.52</ele>
        <time>2022-08-09T08:59:43Z</time>
      </trkpt>
      <trkpt lat="44.42552" lon="6.48271">
        <ele>2031.4</ele>
        <time>2022-08-09T08:59:58Z</time>
      </trkpt>
      <trkpt lat="44.42544" lon="6.48278">
        <ele>2034.77</ele>
        <time>2022-08-09T09:00:13Z</time>
      </trkpt>
      <trkpt lat="44.42537" lon="6.48284">
        <ele>2036.21</ele>
        <time>2022-08-09T09:00:27Z</time>
      </trkpt>
      <trkpt lat="44.42535" lon="6.48285">
        <ele>2035.73</ele>
        <time>2022-08-09T09:00:41Z</time>
      </trkpt>
      <trkpt lat="44.42529" lon="6.48289">
        <ele>2037.65</ele>
        <time>2022-08-09T09:00:54Z</time>
      </trkpt>
      <trkpt lat="44.42525" lon="6.4829">
        <ele>2038.61</ele>
        <time>2022-08-09T09:01:00Z</time>
      </trkpt>
      <trkpt lat="44.4252" lon="6.48296">
        <ele>2041.02</ele>
        <time>2022-08-09T09:01:15Z</time>
      </trkpt>
      <trkpt lat="44.4252" lon="6.48296">
        <ele>2040.54</ele>
        <time>2022-08-09T09:01:31Z</time>
      </trkpt>
      <trkpt lat="44.42519" lon="6.48297">
        <ele>2040.05</ele>
        <time>2022-08-09T09:01:53Z</time>
      </trkpt>
      <trkpt lat="44.42515" lon="6.483">
        <ele>2040.54</ele>
        <time>2022-08-09T09:02:09Z</time>
      </trkpt>
      <trkpt lat="44.42515" lon="6.48301">
        <ele>2040.05</ele>
        <time>2022-08-09T09:02:20Z</time>
      </trkpt>
      <trkpt lat="44.42511" lon="6.48304">
        <ele>2039.57</ele>
        <time>2022-08-09T09:02:24Z</time>
      </trkpt>
      <trkpt lat="44.42501" lon="6.48312">
        <ele>2040.05</ele>
        <time>2022-08-09T09:02:32Z</time>
      </trkpt>
      <trkpt lat="44.42486" lon="6.48331">
        <ele>2044.86</ele>
        <time>2022-08-09T09:02:48Z</time>
      </trkpt>
      <trkpt lat="44.42485" lon="6.48335">
        <ele>2045.82</ele>
        <time>2022-08-09T09:02:51Z</time>
      </trkpt>
      <trkpt lat="44.4248" lon="6.48338">
        <ele>2046.3</ele>
        <time>2022-08-09T09:02:55Z</time>
      </trkpt>
      <trkpt lat="44.42472" lon="6.48343">
        <ele>2046.3</ele>
        <time>2022-08-09T09:03:04Z</time>
      </trkpt>
      <trkpt lat="44.42463" lon="6.48354">
        <ele>2048.23</ele>
        <time>2022-08-09T09:03:13Z</time>
      </trkpt>
      <trkpt lat="44.42456" lon="6.48367">
        <ele>2052.07</ele>
        <time>2022-08-09T09:03:27Z</time>
      </trkpt>
      <trkpt lat="44.42454" lon="6.48372">
        <ele>2052.55</ele>
        <time>2022-08-09T09:03:31Z</time>
      </trkpt>
      <trkpt lat="44.42452" lon="6.48374">
        <ele>2053.51</ele>
        <time>2022-08-09T09:03:34Z</time>
      </trkpt>
      <trkpt lat="44.42441" lon="6.48389">
        <ele>2056.88</ele>
        <time>2022-08-09T09:03:49Z</time>
      </trkpt>
      <trkpt lat="44.42432" lon="6.48398">
        <ele>2060.24</ele>
        <time>2022-08-09T09:04:02Z</time>
      </trkpt>
      <trkpt lat="44.42423" lon="6.48408">
        <ele>2066.01</ele>
        <time>2022-08-09T09:04:17Z</time>
      </trkpt>
      <trkpt lat="44.42415" lon="6.48418">
        <ele>2074.18</ele>
        <time>2022-08-09T09:04:31Z</time>
      </trkpt>
      <trkpt lat="44.42409" lon="6.48426">
        <ele>2080.91</ele>
        <time>2022-08-09T09:04:44Z</time>
      </trkpt>
      <trkpt lat="44.42406" lon="6.4843">
        <ele>2082.83</ele>
        <time>2022-08-09T09:04:48Z</time>
      </trkpt>
      <trkpt lat="44.42402" lon="6.48444">
        <ele>2089.08</ele>
        <time>2022-08-09T09:05:02Z</time>
      </trkpt>
      <trkpt lat="44.42402" lon="6.48447">
        <ele>2090.04</ele>
        <time>2022-08-09T09:05:07Z</time>
      </trkpt>
      <trkpt lat="44.42397" lon="6.48456">
        <ele>2088.6</ele>
        <time>2022-08-09T09:05:20Z</time>
      </trkpt>
      <trkpt lat="44.42395" lon="6.48461">
        <ele>2085.72</ele>
        <time>2022-08-09T09:05:35Z</time>
      </trkpt>
      <trkpt lat="44.42395" lon="6.48463">
        <ele>2084.28</ele>
        <time>2022-08-09T09:05:48Z</time>
      </trkpt>
      <trkpt lat="44.42394" lon="6.48466">
        <ele>2083.31</ele>
        <time>2022-08-09T09:06:05Z</time>
      </trkpt>
      <trkpt lat="44.4239" lon="6.48471">
        <ele>2083.79</ele>
        <time>2022-08-09T09:06:19Z</time>
      </trkpt>
      <trkpt lat="44.42387" lon="6.48475">
        <ele>2083.79</ele>
        <time>2022-08-09T09:06:30Z</time>
      </trkpt>
      <trkpt lat="44.42387" lon="6.48477">
        <ele>2082.83</ele>
        <time>2022-08-09T09:06:56Z</time>
      </trkpt>
      <trkpt lat="44.42386" lon="6.48478">
        <ele>2082.35</ele>
        <time>2022-08-09T09:07:05Z</time>
      </trkpt>
      <trkpt lat="44.42385" lon="6.4848">
        <ele>2081.39</ele>
        <time>2022-08-09T09:07:26Z</time>
      </trkpt>
      <trkpt lat="44.42385" lon="6.48482">
        <ele>2082.35</ele>
        <time>2022-08-09T09:07:43Z</time>
      </trkpt>
      <trkpt lat="44.42385" lon="6.48482">
        <ele>2081.39</ele>
        <time>2022-08-09T09:08:03Z</time>
      </trkpt>
      <trkpt lat="44.42381" lon="6.48489">
        <ele>2085.24</ele>
        <time>2022-08-09T09:08:18Z</time>
      </trkpt>
      <trkpt lat="44.42376" lon="6.48498">
        <ele>2089.56</ele>
        <time>2022-08-09T09:08:30Z</time>
      </trkpt>
      <trkpt lat="44.4237" lon="6.48508">
        <ele>2092.45</ele>
        <time>2022-08-09T09:08:44Z</time>
      </trkpt>
      <trkpt lat="44.42366" lon="6.48516">
        <ele>2093.89</ele>
        <time>2022-08-09T09:08:55Z</time>
      </trkpt>
      <trkpt lat="44.42357" lon="6.48525">
        <ele>2095.81</ele>
        <time>2022-08-09T09:09:10Z</time>
      </trkpt>
      <trkpt lat="44.42353" lon="6.48528">
        <ele>2094.85</ele>
        <time>2022-08-09T09:09:25Z</time>
      </trkpt>
      <trkpt lat="44.4235" lon="6.48533">
        <ele>2097.73</ele>
        <time>2022-08-09T09:09:36Z</time>
      </trkpt>
      <trkpt lat="44.42344" lon="6.4854">
        <ele>2101.1</ele>
        <time>2022-08-09T09:09:48Z</time>
      </trkpt>
      <trkpt lat="44.42338" lon="6.48548">
        <ele>2104.94</ele>
        <time>2022-08-09T09:10:02Z</time>
      </trkpt>
      <trkpt lat="44.42334" lon="6.48555">
        <ele>2104.46</ele>
        <time>2022-08-09T09:10:15Z</time>
      </trkpt>
      <trkpt lat="44.42331" lon="6.48563">
        <ele>2106.39</ele>
        <time>2022-08-09T09:10:27Z</time>
      </trkpt>
      <trkpt lat="44.42329" lon="6.48568">
        <ele>2108.79</ele>
        <time>2022-08-09T09:10:38Z</time>
      </trkpt>
      <trkpt lat="44.42322" lon="6.48577">
        <ele>2112.63</ele>
        <time>2022-08-09T09:10:55Z</time>
      </trkpt>
      <trkpt lat="44.42317" lon="6.48584">
        <ele>2116</ele>
        <time>2022-08-09T09:11:07Z</time>
      </trkpt>
      <trkpt lat="44.42312" lon="6.48589">
        <ele>2117.92</ele>
        <time>2022-08-09T09:11:19Z</time>
      </trkpt>
      <trkpt lat="44.42307" lon="6.48593">
        <ele>2118.4</ele>
        <time>2022-08-09T09:11:30Z</time>
      </trkpt>
      <trkpt lat="44.42306" lon="6.48594">
        <ele>2118.4</ele>
        <time>2022-08-09T09:11:43Z</time>
      </trkpt>
      <trkpt lat="44.42306" lon="6.48594">
        <ele>2117.44</ele>
        <time>2022-08-09T09:12:03Z</time>
      </trkpt>
      <trkpt lat="44.42306" lon="6.48593">
        <ele>2116.48</ele>
        <time>2022-08-09T09:12:16Z</time>
      </trkpt>
      <trkpt lat="44.42301" lon="6.48595">
        <ele>2116.48</ele>
        <time>2022-08-09T09:12:28Z</time>
      </trkpt>
      <trkpt lat="44.42296" lon="6.48596">
        <ele>2117.44</ele>
        <time>2022-08-09T09:12:35Z</time>
      </trkpt>
      <trkpt lat="44.42286" lon="6.48605">
        <ele>2118.4</ele>
        <time>2022-08-09T09:12:49Z</time>
      </trkpt>
      <trkpt lat="44.42281" lon="6.48608">
        <ele>2120.81</ele>
        <time>2022-08-09T09:13:03Z</time>
      </trkpt>
      <trkpt lat="44.42279" lon="6.48606">
        <ele>2118.4</ele>
        <time>2022-08-09T09:13:16Z</time>
      </trkpt>
      <trkpt lat="44.42276" lon="6.48607">
        <ele>2116.48</ele>
        <time>2022-08-09T09:13:37Z</time>
      </trkpt>
      <trkpt lat="44.42275" lon="6.48607">
        <ele>2116.96</ele>
        <time>2022-08-09T09:13:54Z</time>
      </trkpt>
      <trkpt lat="44.42276" lon="6.48607">
        <ele>2116.48</ele>
        <time>2022-08-09T09:14:12Z</time>
      </trkpt>
      <trkpt lat="44.42276" lon="6.48607">
        <ele>2116</ele>
        <time>2022-08-09T09:14:36Z</time>
      </trkpt>
      <trkpt lat="44.42275" lon="6.48614">
        <ele>2117.44</ele>
        <time>2022-08-09T09:14:47Z</time>
      </trkpt>
      <trkpt lat="44.42269" lon="6.4862">
        <ele>2120.81</ele>
        <time>2022-08-09T09:15:00Z</time>
      </trkpt>
      <trkpt lat="44.4227" lon="6.48626">
        <ele>2122.73</ele>
        <time>2022-08-09T09:15:11Z</time>
      </trkpt>
      <trkpt lat="44.4227" lon="6.48632">
        <ele>2125.13</ele>
        <time>2022-08-09T09:15:20Z</time>
      </trkpt>
      <trkpt lat="44.42275" lon="6.48639">
        <ele>2126.09</ele>
        <time>2022-08-09T09:15:32Z</time>
      </trkpt>
      <trkpt lat="44.42277" lon="6.48646">
        <ele>2126.57</ele>
        <time>2022-08-09T09:15:48Z</time>
      </trkpt>
      <trkpt lat="44.42276" lon="6.48653">
        <ele>2130.42</ele>
        <time>2022-08-09T09:16:02Z</time>
      </trkpt>
      <trkpt lat="44.4228" lon="6.4866">
        <ele>2130.42</ele>
        <time>2022-08-09T09:16:14Z</time>
      </trkpt>
      <trkpt lat="44.42286" lon="6.48665">
        <ele>2132.82</ele>
        <time>2022-08-09T09:16:28Z</time>
      </trkpt>
      <trkpt lat="44.42276" lon="6.48671">
        <ele>2137.15</ele>
        <time>2022-08-09T09:16:45Z</time>
      </trkpt>
      <trkpt lat="44.42269" lon="6.48675">
        <ele>2140.03</ele>
        <time>2022-08-09T09:17:00Z</time>
      </trkpt>
      <trkpt lat="44.42264" lon="6.48678">
        <ele>2142.92</ele>
        <time>2022-08-09T09:17:12Z</time>
      </trkpt>
      <trkpt lat="44.42257" lon="6.48682">
        <ele>2145.8</ele>
        <time>2022-08-09T09:17:26Z</time>
      </trkpt>
      <trkpt lat="44.42245" lon="6.48686">
        <ele>2149.16</ele>
        <time>2022-08-09T09:17:42Z</time>
      </trkpt>
      <trkpt lat="44.42239" lon="6.48687">
        <ele>2151.57</ele>
        <time>2022-08-09T09:17:52Z</time>
      </trkpt>
      <trkpt lat="44.42231" lon="6.48686">
        <ele>2152.53</ele>
        <time>2022-08-09T09:18:05Z</time>
      </trkpt>
      <trkpt lat="44.42227" lon="6.48684">
        <ele>2155.41</ele>
        <time>2022-08-09T09:18:18Z</time>
      </trkpt>
      <trkpt lat="44.42223" lon="6.48682">
        <ele>2158.3</ele>
        <time>2022-08-09T09:18:30Z</time>
      </trkpt>
      <trkpt lat="44.42221" lon="6.48677">
        <ele>2160.7</ele>
        <time>2022-08-09T09:18:43Z</time>
      </trkpt>
      <trkpt lat="44.42217" lon="6.48676">
        <ele>2161.66</ele>
        <time>2022-08-09T09:18:54Z</time>
      </trkpt>
      <trkpt lat="44.42214" lon="6.48672">
        <ele>2164.06</ele>
        <time>2022-08-09T09:19:04Z</time>
      </trkpt>
      <trkpt lat="44.42213" lon="6.48671">
        <ele>2165.99</ele>
        <time>2022-08-09T09:19:22Z</time>
      </trkpt>
      <trkpt lat="44.42213" lon="6.4867">
        <ele>2165.99</ele>
        <time>2022-08-09T09:19:39Z</time>
      </trkpt>
      <trkpt lat="44.42208" lon="6.4867">
        <ele>2166.47</ele>
        <time>2022-08-09T09:19:57Z</time>
      </trkpt>
      <trkpt lat="44.42203" lon="6.48672">
        <ele>2168.39</ele>
        <time>2022-08-09T09:20:08Z</time>
      </trkpt>
      <trkpt lat="44.42195" lon="6.48673">
        <ele>2171.27</ele>
        <time>2022-08-09T09:20:23Z</time>
      </trkpt>
      <trkpt lat="44.42187" lon="6.48675">
        <ele>2173.2</ele>
        <time>2022-08-09T09:20:41Z</time>
      </trkpt>
      <trkpt lat="44.42181" lon="6.48675">
        <ele>2174.16</ele>
        <time>2022-08-09T09:20:55Z</time>
      </trkpt>
      <trkpt lat="44.42176" lon="6.48675">
        <ele>2174.16</ele>
        <time>2022-08-09T09:21:09Z</time>
      </trkpt>
      <trkpt lat="44.4217" lon="6.48678">
        <ele>2174.64</ele>
        <time>2022-08-09T09:21:24Z</time>
      </trkpt>
      <trkpt lat="44.42164" lon="6.48682">
        <ele>2175.12</ele>
        <time>2022-08-09T09:21:36Z</time>
      </trkpt>
      <trkpt lat="44.42162" lon="6.48682">
        <ele>2176.56</ele>
        <time>2022-08-09T09:21:47Z</time>
      </trkpt>
      <trkpt lat="44.42163" lon="6.48684">
        <ele>2176.08</ele>
        <time>2022-08-09T09:22:16Z</time>
      </trkpt>
      <trkpt lat="44.42159" lon="6.48688">
        <ele>2176.56</ele>
        <time>2022-08-09T09:22:34Z</time>
      </trkpt>
      <trkpt lat="44.42152" lon="6.48691">
        <ele>2179.93</ele>
        <time>2022-08-09T09:22:46Z</time>
      </trkpt>
      <trkpt lat="44.42151" lon="6.48701">
        <ele>2183.29</ele>
        <time>2022-08-09T09:23:00Z</time>
      </trkpt>
      <trkpt lat="44.42153" lon="6.48706">
        <ele>2182.33</ele>
        <time>2022-08-09T09:23:11Z</time>
      </trkpt>
      <trkpt lat="44.42156" lon="6.48711">
        <ele>2182.81</ele>
        <time>2022-08-09T09:23:25Z</time>
      </trkpt>
      <trkpt lat="44.42157" lon="6.48718">
        <ele>2184.73</ele>
        <time>2022-08-09T09:23:37Z</time>
      </trkpt>
      <trkpt lat="44.42153" lon="6.48726">
        <ele>2188.58</ele>
        <time>2022-08-09T09:23:51Z</time>
      </trkpt>
      <trkpt lat="44.42149" lon="6.48732">
        <ele>2189.54</ele>
        <time>2022-08-09T09:24:07Z</time>
      </trkpt>
      <trkpt lat="44.42146" lon="6.48738">
        <ele>2190.98</ele>
        <time>2022-08-09T09:24:21Z</time>
      </trkpt>
      <trkpt lat="44.42144" lon="6.48747">
        <ele>2192.9</ele>
        <time>2022-08-09T09:24:36Z</time>
      </trkpt>
      <trkpt lat="44.4214" lon="6.4875">
        <ele>2194.83</ele>
        <time>2022-08-09T09:24:50Z</time>
      </trkpt>
      <trkpt lat="44.42133" lon="6.48751">
        <ele>2197.71</ele>
        <time>2022-08-09T09:25:03Z</time>
      </trkpt>
      <trkpt lat="44.42132" lon="6.48752">
        <ele>2199.15</ele>
        <time>2022-08-09T09:25:23Z</time>
      </trkpt>
      <trkpt lat="44.42127" lon="6.48755">
        <ele>2200.59</ele>
        <time>2022-08-09T09:25:37Z</time>
      </trkpt>
      <trkpt lat="44.42121" lon="6.4876">
        <ele>2202.04</ele>
        <time>2022-08-09T09:25:50Z</time>
      </trkpt>
      <trkpt lat="44.42114" lon="6.48766">
        <ele>2203.48</ele>
        <time>2022-08-09T09:26:05Z</time>
      </trkpt>
      <trkpt lat="44.4211" lon="6.48772">
        <ele>2203</ele>
        <time>2022-08-09T09:26:17Z</time>
      </trkpt>
      <trkpt lat="44.42104" lon="6.48779">
        <ele>2204.92</ele>
        <time>2022-08-09T09:26:32Z</time>
      </trkpt>
      <trkpt lat="44.421" lon="6.48785">
        <ele>2206.84</ele>
        <time>2022-08-09T09:26:44Z</time>
      </trkpt>
      <trkpt lat="44.42099" lon="6.48788">
        <ele>2207.32</ele>
        <time>2022-08-09T09:26:59Z</time>
      </trkpt>
      <trkpt lat="44.42094" lon="6.48791">
        <ele>2209.25</ele>
        <time>2022-08-09T09:27:15Z</time>
      </trkpt>
      <trkpt lat="44.42089" lon="6.48795">
        <ele>2211.65</ele>
        <time>2022-08-09T09:27:28Z</time>
      </trkpt>
      <trkpt lat="44.42083" lon="6.488">
        <ele>2214.53</ele>
        <time>2022-08-09T09:27:43Z</time>
      </trkpt>
      <trkpt lat="44.4208" lon="6.48804">
        <ele>2216.46</ele>
        <time>2022-08-09T09:27:57Z</time>
      </trkpt>
      <trkpt lat="44.42078" lon="6.48806">
        <ele>2218.38</ele>
        <time>2022-08-09T09:28:10Z</time>
      </trkpt>
      <trkpt lat="44.42074" lon="6.48808">
        <ele>2221.26</ele>
        <time>2022-08-09T09:28:21Z</time>
      </trkpt>
      <trkpt lat="44.42067" lon="6.48811">
        <ele>2224.63</ele>
        <time>2022-08-09T09:28:36Z</time>
      </trkpt>
      <trkpt lat="44.42065" lon="6.4881">
        <ele>2226.07</ele>
        <time>2022-08-09T09:28:48Z</time>
      </trkpt>
      <trkpt lat="44.42062" lon="6.4881">
        <ele>2227.51</ele>
        <time>2022-08-09T09:29:02Z</time>
      </trkpt>
      <trkpt lat="44.42063" lon="6.4881">
        <ele>2227.51</ele>
        <time>2022-08-09T09:29:20Z</time>
      </trkpt>
      <trkpt lat="44.4206" lon="6.48809">
        <ele>2229.92</ele>
        <time>2022-08-09T09:29:35Z</time>
      </trkpt>
      <trkpt lat="44.42056" lon="6.48812">
        <ele>2230.88</ele>
        <time>2022-08-09T09:29:47Z</time>
      </trkpt>
      <trkpt lat="44.42053" lon="6.48812">
        <ele>2230.88</ele>
        <time>2022-08-09T09:30:04Z</time>
      </trkpt>
      <trkpt lat="44.42051" lon="6.48815">
        <ele>2231.36</ele>
        <time>2022-08-09T09:30:20Z</time>
      </trkpt>
      <trkpt lat="44.42049" lon="6.48822">
        <ele>2232.8</ele>
        <time>2022-08-09T09:30:33Z</time>
      </trkpt>
      <trkpt lat="44.42052" lon="6.48832">
        <ele>2237.13</ele>
        <time>2022-08-09T09:30:46Z</time>
      </trkpt>
      <trkpt lat="44.42049" lon="6.48836">
        <ele>2240.97</ele>
        <time>2022-08-09T09:30:57Z</time>
      </trkpt>
      <trkpt lat="44.42049" lon="6.48839">
        <ele>2241.45</ele>
        <time>2022-08-09T09:31:11Z</time>
      </trkpt>
      <trkpt lat="44.42051" lon="6.48846">
        <ele>2242.41</ele>
        <time>2022-08-09T09:31:23Z</time>
      </trkpt>
      <trkpt lat="44.42056" lon="6.48854">
        <ele>2245.3</ele>
        <time>2022-08-09T09:31:34Z</time>
      </trkpt>
      <trkpt lat="44.42059" lon="6.48861">
        <ele>2248.18</ele>
        <time>2022-08-09T09:31:47Z</time>
      </trkpt>
      <trkpt lat="44.42056" lon="6.48863">
        <ele>2250.1</ele>
        <time>2022-08-09T09:31:53Z</time>
      </trkpt>
      <trkpt lat="44.42049" lon="6.48865">
        <ele>2255.39</ele>
        <time>2022-08-09T09:32:06Z</time>
      </trkpt>
      <trkpt lat="44.42045" lon="6.48863">
        <ele>2258.27</ele>
        <time>2022-08-09T09:32:19Z</time>
      </trkpt>
      <trkpt lat="44.42046" lon="6.48867">
        <ele>2258.27</ele>
        <time>2022-08-09T09:32:32Z</time>
      </trkpt>
      <trkpt lat="44.42047" lon="6.48868">
        <ele>2258.27</ele>
        <time>2022-08-09T09:32:51Z</time>
      </trkpt>
      <trkpt lat="44.42047" lon="6.48868">
        <ele>2258.27</ele>
        <time>2022-08-09T09:33:16Z</time>
      </trkpt>
      <trkpt lat="44.42047" lon="6.48868">
        <ele>2258.27</ele>
        <time>2022-08-09T09:33:40Z</time>
      </trkpt>
      <trkpt lat="44.42047" lon="6.48869">
        <ele>2257.79</ele>
        <time>2022-08-09T09:33:55Z</time>
      </trkpt>
      <trkpt lat="44.42055" lon="6.4888">
        <ele>2258.75</ele>
        <time>2022-08-09T09:34:11Z</time>
      </trkpt>
      <trkpt lat="44.42056" lon="6.48884">
        <ele>2260.68</ele>
        <time>2022-08-09T09:34:27Z</time>
      </trkpt>
      <trkpt lat="44.42057" lon="6.48884">
        <ele>2260.68</ele>
        <time>2022-08-09T09:34:52Z</time>
      </trkpt>
      <trkpt lat="44.42057" lon="6.48883">
        <ele>2261.16</ele>
        <time>2022-08-09T09:35:19Z</time>
      </trkpt>
      <trkpt lat="44.42062" lon="6.48889">
        <ele>2263.08</ele>
        <time>2022-08-09T09:35:28Z</time>
      </trkpt>
      <trkpt lat="44.4207" lon="6.48894">
        <ele>2264.04</ele>
        <time>2022-08-09T09:35:41Z</time>
      </trkpt>
      <trkpt lat="44.42076" lon="6.48902">
        <ele>2266.93</ele>
        <time>2022-08-09T09:35:54Z</time>
      </trkpt>
      <trkpt lat="44.4208" lon="6.48908">
        <ele>2268.37</ele>
        <time>2022-08-09T09:36:07Z</time>
      </trkpt>
      <trkpt lat="44.42086" lon="6.48915">
        <ele>2272.21</ele>
        <time>2022-08-09T09:36:20Z</time>
      </trkpt>
      <trkpt lat="44.42094" lon="6.48919">
        <ele>2275.58</ele>
        <time>2022-08-09T09:36:32Z</time>
      </trkpt>
      <trkpt lat="44.42092" lon="6.48925">
        <ele>2277.02</ele>
        <time>2022-08-09T09:36:45Z</time>
      </trkpt>
      <trkpt lat="44.42087" lon="6.48929">
        <ele>2280.38</ele>
        <time>2022-08-09T09:36:56Z</time>
      </trkpt>
      <trkpt lat="44.42083" lon="6.48932">
        <ele>2279.9</ele>
        <time>2022-08-09T09:37:12Z</time>
      </trkpt>
      <trkpt lat="44.42081" lon="6.48932">
        <ele>2279.9</ele>
        <time>2022-08-09T09:37:27Z</time>
      </trkpt>
      <trkpt lat="44.42073" lon="6.48935">
        <ele>2283.75</ele>
        <time>2022-08-09T09:37:38Z</time>
      </trkpt>
      <trkpt lat="44.42065" lon="6.48938">
        <ele>2289.04</ele>
        <time>2022-08-09T09:37:51Z</time>
      </trkpt>
      <trkpt lat="44.42056" lon="6.48941">
        <ele>2291.92</ele>
        <time>2022-08-09T09:38:04Z</time>
      </trkpt>
      <trkpt lat="44.42052" lon="6.48942">
        <ele>2293.36</ele>
        <time>2022-08-09T09:38:10Z</time>
      </trkpt>
      <trkpt lat="44.42045" lon="6.48942">
        <ele>2292.4</ele>
        <time>2022-08-09T09:38:24Z</time>
      </trkpt>
      <trkpt lat="44.42034" lon="6.48943">
        <ele>2294.8</ele>
        <time>2022-08-09T09:38:37Z</time>
      </trkpt>
      <trkpt lat="44.4203" lon="6.48945">
        <ele>2295.28</ele>
        <time>2022-08-09T09:38:41Z</time>
      </trkpt>
      <trkpt lat="44.42029" lon="6.48948">
        <ele>2296.25</ele>
        <time>2022-08-09T09:38:44Z</time>
      </trkpt>
      <trkpt lat="44.42025" lon="6.48952">
        <ele>2298.17</ele>
        <time>2022-08-09T09:38:52Z</time>
      </trkpt>
      <trkpt lat="44.42021" lon="6.4896">
        <ele>2299.13</ele>
        <time>2022-08-09T09:39:05Z</time>
      </trkpt>
      <trkpt lat="44.4202" lon="6.48962">
        <ele>2298.17</ele>
        <time>2022-08-09T09:39:12Z</time>
      </trkpt>
      <trkpt lat="44.42012" lon="6.48968">
        <ele>2300.09</ele>
        <time>2022-08-09T09:39:25Z</time>
      </trkpt>
      <trkpt lat="44.42012" lon="6.48968">
        <ele>2298.65</ele>
        <time>2022-08-09T09:39:42Z</time>
      </trkpt>
      <trkpt lat="44.42012" lon="6.4897">
        <ele>2299.13</ele>
        <time>2022-08-09T09:40:04Z</time>
      </trkpt>
      <trkpt lat="44.42011" lon="6.4897">
        <ele>2298.17</ele>
        <time>2022-08-09T09:40:33Z</time>
      </trkpt>
      <trkpt lat="44.42011" lon="6.4897">
        <ele>2297.21</ele>
        <time>2022-08-09T09:41:16Z</time>
      </trkpt>
      <trkpt lat="44.4201" lon="6.48969">
        <ele>2296.73</ele>
        <time>2022-08-09T09:41:58Z</time>
      </trkpt>
      <trkpt lat="44.42009" lon="6.48969">
        <ele>2296.25</ele>
        <time>2022-08-09T09:42:31Z</time>
      </trkpt>
      <trkpt lat="44.4201" lon="6.48969">
        <ele>2296.25</ele>
        <time>2022-08-09T09:43:00Z</time>
      </trkpt>
      <trkpt lat="44.42011" lon="6.48971">
        <ele>2298.17</ele>
        <time>2022-08-09T09:43:21Z</time>
      </trkpt>
      <trkpt lat="44.42013" lon="6.48973">
        <ele>2298.65</ele>
        <time>2022-08-09T09:43:41Z</time>
      </trkpt>
      <trkpt lat="44.42013" lon="6.48973">
        <ele>2299.13</ele>
        <time>2022-08-09T09:43:59Z</time>
      </trkpt>
      <trkpt lat="44.42013" lon="6.48973">
        <ele>2300.09</ele>
        <time>2022-08-09T09:44:21Z</time>
      </trkpt>
      <trkpt lat="44.42012" lon="6.48973">
        <ele>2301.53</ele>
        <time>2022-08-09T09:44:40Z</time>
      </trkpt>
      <trkpt lat="44.42012" lon="6.48973">
        <ele>2302.01</ele>
        <time>2022-08-09T09:44:55Z</time>
      </trkpt>
      <trkpt lat="44.42015" lon="6.48974">
        <ele>2302.01</ele>
        <time>2022-08-09T09:45:08Z</time>
      </trkpt>
      <trkpt lat="44.42014" lon="6.48973">
        <ele>2302.01</ele>
        <time>2022-08-09T09:45:24Z</time>
      </trkpt>
      <trkpt lat="44.42012" lon="6.48972">
        <ele>2301.53</ele>
        <time>2022-08-09T09:45:37Z</time>
      </trkpt>
      <trkpt lat="44.42011" lon="6.48971">
        <ele>2301.53</ele>
        <time>2022-08-09T09:45:51Z</time>
      </trkpt>
      <trkpt lat="44.42011" lon="6.48971">
        <ele>2301.05</ele>
        <time>2022-08-09T09:46:20Z</time>
      </trkpt>
      <trkpt lat="44.4201" lon="6.4897">
        <ele>2301.05</ele>
        <time>2022-08-09T09:46:34Z</time>
      </trkpt>
      <trkpt lat="44.42007" lon="6.48969">
        <ele>2301.53</ele>
        <time>2022-08-09T09:46:54Z</time>
      </trkpt>
      <trkpt lat="44.42003" lon="6.48966">
        <ele>2302.01</ele>
        <time>2022-08-09T09:47:09Z</time>
      </trkpt>
      <trkpt lat="44.42" lon="6.48961">
        <ele>2302.98</ele>
        <time>2022-08-09T09:47:19Z</time>
      </trkpt>
      <trkpt lat="44.41995" lon="6.48955">
        <ele>2303.46</ele>
        <time>2022-08-09T09:47:26Z</time>
      </trkpt>
      <trkpt lat="44.41985" lon="6.48946">
        <ele>2307.3</ele>
        <time>2022-08-09T09:47:41Z</time>
      </trkpt>
      <trkpt lat="44.41975" lon="6.48939">
        <ele>2312.11</ele>
        <time>2022-08-09T09:47:54Z</time>
      </trkpt>
      <trkpt lat="44.41966" lon="6.48934">
        <ele>2314.51</ele>
        <time>2022-08-09T09:48:09Z</time>
      </trkpt>
      <trkpt lat="44.41957" lon="6.48929">
        <ele>2316.43</ele>
        <time>2022-08-09T09:48:23Z</time>
      </trkpt>
      <trkpt lat="44.41951" lon="6.48929">
        <ele>2316.91</ele>
        <time>2022-08-09T09:48:38Z</time>
      </trkpt>
      <trkpt lat="44.41948" lon="6.48928">
        <ele>2317.4</ele>
        <time>2022-08-09T09:48:58Z</time>
      </trkpt>
      <trkpt lat="44.41936" lon="6.48924">
        <ele>2320.76</ele>
        <time>2022-08-09T09:49:13Z</time>
      </trkpt>
      <trkpt lat="44.41928" lon="6.4892">
        <ele>2324.61</ele>
        <time>2022-08-09T09:49:25Z</time>
      </trkpt>
      <trkpt lat="44.4192" lon="6.48913">
        <ele>2327.01</ele>
        <time>2022-08-09T09:49:38Z</time>
      </trkpt>
      <trkpt lat="44.41912" lon="6.48907">
        <ele>2327.01</ele>
        <time>2022-08-09T09:49:52Z</time>
      </trkpt>
      <trkpt lat="44.41908" lon="6.48902">
        <ele>2326.05</ele>
        <time>2022-08-09T09:50:09Z</time>
      </trkpt>
      <trkpt lat="44.41905" lon="6.48899">
        <ele>2325.57</ele>
        <time>2022-08-09T09:50:22Z</time>
      </trkpt>
      <trkpt lat="44.419" lon="6.489">
        <ele>2327.97</ele>
        <time>2022-08-09T09:50:33Z</time>
      </trkpt>
      <trkpt lat="44.41896" lon="6.48894">
        <ele>2328.45</ele>
        <time>2022-08-09T09:50:48Z</time>
      </trkpt>
      <trkpt lat="44.41893" lon="6.48898">
        <ele>2328.93</ele>
        <time>2022-08-09T09:51:04Z</time>
      </trkpt>
      <trkpt lat="44.41891" lon="6.48897">
        <ele>2329.89</ele>
        <time>2022-08-09T09:51:17Z</time>
      </trkpt>
      <trkpt lat="44.41886" lon="6.48896">
        <ele>2332.78</ele>
        <time>2022-08-09T09:51:30Z</time>
      </trkpt>
      <trkpt lat="44.41884" lon="6.48895">
        <ele>2334.22</ele>
        <time>2022-08-09T09:51:41Z</time>
      </trkpt>
      <trkpt lat="44.41881" lon="6.48889">
        <ele>2333.74</ele>
        <time>2022-08-09T09:51:54Z</time>
      </trkpt>
      <trkpt lat="44.41876" lon="6.48892">
        <ele>2336.62</ele>
        <time>2022-08-09T09:52:06Z</time>
      </trkpt>
      <trkpt lat="44.41875" lon="6.48887">
        <ele>2339.02</ele>
        <time>2022-08-09T09:52:18Z</time>
      </trkpt>
      <trkpt lat="44.41871" lon="6.48886">
        <ele>2339.99</ele>
        <time>2022-08-09T09:52:32Z</time>
      </trkpt>
      <trkpt lat="44.41869" lon="6.48881">
        <ele>2340.95</ele>
        <time>2022-08-09T09:52:48Z</time>
      </trkpt>
      <trkpt lat="44.41862" lon="6.48876">
        <ele>2344.31</ele>
        <time>2022-08-09T09:53:03Z</time>
      </trkpt>
      <trkpt lat="44.41859" lon="6.48874">
        <ele>2345.75</ele>
        <time>2022-08-09T09:53:17Z</time>
      </trkpt>
      <trkpt lat="44.41857" lon="6.48873">
        <ele>2345.75</ele>
        <time>2022-08-09T09:53:42Z</time>
      </trkpt>
      <trkpt lat="44.41855" lon="6.48869">
        <ele>2347.68</ele>
        <time>2022-08-09T09:53:54Z</time>
      </trkpt>
      <trkpt lat="44.41853" lon="6.48868">
        <ele>2348.64</ele>
        <time>2022-08-09T09:54:06Z</time>
      </trkpt>
      <trkpt lat="44.41853" lon="6.48869">
        <ele>2349.6</ele>
        <time>2022-08-09T09:54:23Z</time>
      </trkpt>
      <trkpt lat="44.41848" lon="6.4887">
        <ele>2350.56</ele>
        <time>2022-08-09T09:54:41Z</time>
      </trkpt>
      <trkpt lat="44.41843" lon="6.48862">
        <ele>2352.96</ele>
        <time>2022-08-09T09:54:56Z</time>
      </trkpt>
      <trkpt lat="44.4184" lon="6.48859">
        <ele>2354.41</ele>
        <time>2022-08-09T09:55:06Z</time>
      </trkpt>
      <trkpt lat="44.41836" lon="6.48853">
        <ele>2354.89</ele>
        <time>2022-08-09T09:55:22Z</time>
      </trkpt>
      <trkpt lat="44.41835" lon="6.48844">
        <ele>2356.81</ele>
        <time>2022-08-09T09:55:40Z</time>
      </trkpt>
      <trkpt lat="44.41831" lon="6.48837">
        <ele>2358.25</ele>
        <time>2022-08-09T09:55:55Z</time>
      </trkpt>
      <trkpt lat="44.41829" lon="6.48835">
        <ele>2359.21</ele>
        <time>2022-08-09T09:56:09Z</time>
      </trkpt>
      <trkpt lat="44.41826" lon="6.4883">
        <ele>2361.14</ele>
        <time>2022-08-09T09:56:26Z</time>
      </trkpt>
      <trkpt lat="44.41821" lon="6.48834">
        <ele>2364.02</ele>
        <time>2022-08-09T09:56:39Z</time>
      </trkpt>
      <trkpt lat="44.41818" lon="6.48829">
        <ele>2366.42</ele>
        <time>2022-08-09T09:56:51Z</time>
      </trkpt>
      <trkpt lat="44.41819" lon="6.48827">
        <ele>2366.9</ele>
        <time>2022-08-09T09:57:09Z</time>
      </trkpt>
      <trkpt lat="44.41815" lon="6.48824">
        <ele>2368.35</ele>
        <time>2022-08-09T09:57:28Z</time>
      </trkpt>
      <trkpt lat="44.41814" lon="6.48818">
        <ele>2370.27</ele>
        <time>2022-08-09T09:57:42Z</time>
      </trkpt>
      <trkpt lat="44.41812" lon="6.4881">
        <ele>2373.15</ele>
        <time>2022-08-09T09:57:57Z</time>
      </trkpt>
      <trkpt lat="44.41808" lon="6.4881">
        <ele>2375.07</ele>
        <time>2022-08-09T09:58:07Z</time>
      </trkpt>
      <trkpt lat="44.41802" lon="6.48817">
        <ele>2377</ele>
        <time>2022-08-09T09:58:21Z</time>
      </trkpt>
      <trkpt lat="44.41802" lon="6.48815">
        <ele>2378.44</ele>
        <time>2022-08-09T09:58:28Z</time>
      </trkpt>
      <trkpt lat="44.41801" lon="6.48809">
        <ele>2381.32</ele>
        <time>2022-08-09T09:58:40Z</time>
      </trkpt>
      <trkpt lat="44.41799" lon="6.48805">
        <ele>2382.76</ele>
        <time>2022-08-09T09:58:51Z</time>
      </trkpt>
      <trkpt lat="44.41799" lon="6.48802">
        <ele>2383.73</ele>
        <time>2022-08-09T09:59:07Z</time>
      </trkpt>
      <trkpt lat="44.41794" lon="6.48794">
        <ele>2387.57</ele>
        <time>2022-08-09T09:59:22Z</time>
      </trkpt>
      <trkpt lat="44.41786" lon="6.48794">
        <ele>2391.42</ele>
        <time>2022-08-09T09:59:36Z</time>
      </trkpt>
      <trkpt lat="44.41779" lon="6.48789">
        <ele>2394.3</ele>
        <time>2022-08-09T09:59:52Z</time>
      </trkpt>
      <trkpt lat="44.4178" lon="6.48789">
        <ele>2395.26</ele>
        <time>2022-08-09T10:00:08Z</time>
      </trkpt>
      <trkpt lat="44.41775" lon="6.48785">
        <ele>2397.67</ele>
        <time>2022-08-09T10:00:25Z</time>
      </trkpt>
      <trkpt lat="44.41769" lon="6.4878">
        <ele>2401.03</ele>
        <time>2022-08-09T10:00:40Z</time>
      </trkpt>
      <trkpt lat="44.41765" lon="6.48775">
        <ele>2403.43</ele>
        <time>2022-08-09T10:00:51Z</time>
      </trkpt>
      <trkpt lat="44.41759" lon="6.48771">
        <ele>2406.32</ele>
        <time>2022-08-09T10:01:07Z</time>
      </trkpt>
      <trkpt lat="44.41754" lon="6.4877">
        <ele>2407.28</ele>
        <time>2022-08-09T10:01:18Z</time>
      </trkpt>
      <trkpt lat="44.41745" lon="6.48773">
        <ele>2410.64</ele>
        <time>2022-08-09T10:01:34Z</time>
      </trkpt>
      <trkpt lat="44.41738" lon="6.48778">
        <ele>2412.09</ele>
        <time>2022-08-09T10:01:48Z</time>
      </trkpt>
      <trkpt lat="44.41739" lon="6.48781">
        <ele>2412.09</ele>
        <time>2022-08-09T10:02:05Z</time>
      </trkpt>
      <trkpt lat="44.41739" lon="6.48781">
        <ele>2410.64</ele>
        <time>2022-08-09T10:02:53Z</time>
      </trkpt>
      <trkpt lat="44.41739" lon="6.48781">
        <ele>2409.68</ele>
        <time>2022-08-09T10:03:22Z</time>
      </trkpt>
      <trkpt lat="44.41739" lon="6.48781">
        <ele>2410.64</ele>
        <time>2022-08-09T10:03:45Z</time>
      </trkpt>
      <trkpt lat="44.41739" lon="6.48782">
        <ele>2412.09</ele>
        <time>2022-08-09T10:04:21Z</time>
      </trkpt>
      <trkpt lat="44.41739" lon="6.48781">
        <ele>2413.05</ele>
        <time>2022-08-09T10:04:51Z</time>
      </trkpt>
      <trkpt lat="44.41739" lon="6.48781">
        <ele>2413.53</ele>
        <time>2022-08-09T10:05:20Z</time>
      </trkpt>
      <trkpt lat="44.4174" lon="6.48781">
        <ele>2414.01</ele>
        <time>2022-08-09T10:05:56Z</time>
      </trkpt>
      <trkpt lat="44.4174" lon="6.48781">
        <ele>2414.97</ele>
        <time>2022-08-09T10:06:35Z</time>
      </trkpt>
      <trkpt lat="44.4174" lon="6.48782">
        <ele>2414.97</ele>
        <time>2022-08-09T10:07:05Z</time>
      </trkpt>
      <trkpt lat="44.4174" lon="6.48782">
        <ele>2414.97</ele>
        <time>2022-08-09T10:07:49Z</time>
      </trkpt>
      <trkpt lat="44.4174" lon="6.48782">
        <ele>2414.97</ele>
        <time>2022-08-09T10:08:26Z</time>
      </trkpt>
      <trkpt lat="44.4174" lon="6.48782">
        <ele>2414.49</ele>
        <time>2022-08-09T10:09:12Z</time>
      </trkpt>
      <trkpt lat="44.4174" lon="6.48782">
        <ele>2414.49</ele>
        <time>2022-08-09T10:09:50Z</time>
      </trkpt>
      <trkpt lat="44.4174" lon="6.48782">
        <ele>2414.01</ele>
        <time>2022-08-09T10:10:26Z</time>
      </trkpt>
      <trkpt lat="44.4174" lon="6.48782">
        <ele>2413.53</ele>
        <time>2022-08-09T10:10:59Z</time>
      </trkpt>
      <trkpt lat="44.41739" lon="6.48782">
        <ele>2413.53</ele>
        <time>2022-08-09T10:11:33Z</time>
      </trkpt>
      <trkpt lat="44.41739" lon="6.48782">
        <ele>2413.53</ele>
        <time>2022-08-09T10:12:07Z</time>
      </trkpt>
      <trkpt lat="44.41739" lon="6.48781">
        <ele>2414.01</ele>
        <time>2022-08-09T10:12:51Z</time>
      </trkpt>
      <trkpt lat="44.41739" lon="6.48781">
        <ele>2414.49</ele>
        <time>2022-08-09T10:13:27Z</time>
      </trkpt>
      <trkpt lat="44.41739" lon="6.48781">
        <ele>2414.97</ele>
        <time>2022-08-09T10:14:08Z</time>
      </trkpt>
      <trkpt lat="44.41739" lon="6.48781">
        <ele>2415.45</ele>
        <time>2022-08-09T10:14:45Z</time>
      </trkpt>
      <trkpt lat="44.41739" lon="6.48781">
        <ele>2415.45</ele>
        <time>2022-08-09T10:15:28Z</time>
      </trkpt>
      <trkpt lat="44.41739" lon="6.48781">
        <ele>2415.45</ele>
        <time>2022-08-09T10:16:03Z</time>
      </trkpt>
      <trkpt lat="44.41739" lon="6.48781">
        <ele>2415.93</ele>
        <time>2022-08-09T10:16:38Z</time>
      </trkpt>
      <trkpt lat="44.41739" lon="6.48782">
        <ele>2414.97</ele>
        <time>2022-08-09T10:17:07Z</time>
      </trkpt>
      <trkpt lat="44.41739" lon="6.48782">
        <ele>2414.01</ele>
        <time>2022-08-09T10:17:33Z</time>
      </trkpt>
      <trkpt lat="44.41739" lon="6.48783">
        <ele>2413.05</ele>
        <time>2022-08-09T10:18:03Z</time>
      </trkpt>
      <trkpt lat="44.4174" lon="6.48783">
        <ele>2412.57</ele>
        <time>2022-08-09T10:18:42Z</time>
      </trkpt>
      <trkpt lat="44.4174" lon="6.48782">
        <ele>2412.57</ele>
        <time>2022-08-09T10:19:19Z</time>
      </trkpt>
      <trkpt lat="44.4174" lon="6.48782">
        <ele>2412.09</ele>
        <time>2022-08-09T10:19:51Z</time>
      </trkpt>
      <trkpt lat="44.41739" lon="6.48782">
        <ele>2411.6</ele>
        <time>2022-08-09T10:20:29Z</time>
      </trkpt>
      <trkpt lat="44.41739" lon="6.48782">
        <ele>2411.12</ele>
        <time>2022-08-09T10:21:05Z</time>
      </trkpt>
      <trkpt lat="44.41739" lon="6.48782">
        <ele>2410.64</ele>
        <time>2022-08-09T10:21:40Z</time>
      </trkpt>
      <trkpt lat="44.41739" lon="6.48782">
        <ele>2410.16</ele>
        <time>2022-08-09T10:22:11Z</time>
      </trkpt>
      <trkpt lat="44.4174" lon="6.48782">
        <ele>2410.16</ele>
        <time>2022-08-09T10:22:40Z</time>
      </trkpt>
      <trkpt lat="44.4174" lon="6.48782">
        <ele>2409.68</ele>
        <time>2022-08-09T10:23:20Z</time>
      </trkpt>
      <trkpt lat="44.41739" lon="6.48782">
        <ele>2409.68</ele>
        <time>2022-08-09T10:23:51Z</time>
      </trkpt>
      <trkpt lat="44.41739" lon="6.48782">
        <ele>2409.68</ele>
        <time>2022-08-09T10:24:25Z</time>
      </trkpt>
      <trkpt lat="44.41739" lon="6.48782">
        <ele>2409.68</ele>
        <time>2022-08-09T10:24:57Z</time>
      </trkpt>
      <trkpt lat="44.41739" lon="6.48782">
        <ele>2410.16</ele>
        <time>2022-08-09T10:25:27Z</time>
      </trkpt>
      <trkpt lat="44.4174" lon="6.48782">
        <ele>2410.16</ele>
        <time>2022-08-09T10:25:46Z</time>
      </trkpt>
      <trkpt lat="44.4174" lon="6.48783">
        <ele>2410.64</ele>
        <time>2022-08-09T10:26:01Z</time>
      </trkpt>
      <trkpt lat="44.41739" lon="6.48782">
        <ele>2410.64</ele>
        <time>2022-08-09T10:26:18Z</time>
      </trkpt>
      <trkpt lat="44.41742" lon="6.48771">
        <ele>2410.16</ele>
        <time>2022-08-09T10:26:31Z</time>
      </trkpt>
      <trkpt lat="44.41746" lon="6.48761">
        <ele>2409.68</ele>
        <time>2022-08-09T10:26:44Z</time>
      </trkpt>
      <trkpt lat="44.41747" lon="6.4876">
        <ele>2409.68</ele>
        <time>2022-08-09T10:26:58Z</time>
      </trkpt>
      <trkpt lat="44.41747" lon="6.4876">
        <ele>2409.68</ele>
        <time>2022-08-09T10:27:02Z</time>
      </trkpt>
      <trkpt lat="44.41746" lon="6.4876">
        <ele>2408.72</ele>
        <time>2022-08-09T10:27:19Z</time>
      </trkpt>
      <trkpt lat="44.41746" lon="6.4876">
        <ele>2408.72</ele>
        <time>2022-08-09T10:27:49Z</time>
      </trkpt>
      <trkpt lat="44.41746" lon="6.48759">
        <ele>2408.24</ele>
        <time>2022-08-09T10:28:28Z</time>
      </trkpt>
      <trkpt lat="44.41746" lon="6.48759">
        <ele>2408.24</ele>
        <time>2022-08-09T10:28:52Z</time>
      </trkpt>
      <trkpt lat="44.41746" lon="6.48759">
        <ele>2408.24</ele>
        <time>2022-08-09T10:29:21Z</time>
      </trkpt>
      <trkpt lat="44.41746" lon="6.48759">
        <ele>2408.24</ele>
        <time>2022-08-09T10:29:52Z</time>
      </trkpt>
      <trkpt lat="44.41746" lon="6.48759">
        <ele>2408.24</ele>
        <time>2022-08-09T10:30:22Z</time>
      </trkpt>
      <trkpt lat="44.41746" lon="6.48759">
        <ele>2407.76</ele>
        <time>2022-08-09T10:30:54Z</time>
      </trkpt>
      <trkpt lat="44.41746" lon="6.48759">
        <ele>2407.76</ele>
        <time>2022-08-09T10:31:26Z</time>
      </trkpt>
      <trkpt lat="44.41746" lon="6.48759">
        <ele>2407.28</ele>
        <time>2022-08-09T10:32:03Z</time>
      </trkpt>
      <trkpt lat="44.41746" lon="6.48759">
        <ele>2407.76</ele>
        <time>2022-08-09T10:32:44Z</time>
      </trkpt>
      <trkpt lat="44.41746" lon="6.48759">
        <ele>2407.76</ele>
        <time>2022-08-09T10:33:22Z</time>
      </trkpt>
      <trkpt lat="44.41746" lon="6.48759">
        <ele>2407.76</ele>
        <time>2022-08-09T10:33:52Z</time>
      </trkpt>
      <trkpt lat="44.41746" lon="6.48759">
        <ele>2407.76</ele>
        <time>2022-08-09T10:34:30Z</time>
      </trkpt>
      <trkpt lat="44.41746" lon="6.48759">
        <ele>2407.76</ele>
        <time>2022-08-09T10:35:05Z</time>
      </trkpt>
      <trkpt lat="44.41746" lon="6.48759">
        <ele>2408.24</ele>
        <time>2022-08-09T10:35:30Z</time>
      </trkpt>
      <trkpt lat="44.41746" lon="6.48759">
        <ele>2408.24</ele>
        <time>2022-08-09T10:36:04Z</time>
      </trkpt>
      <trkpt lat="44.41746" lon="6.48759">
        <ele>2408.24</ele>
        <time>2022-08-09T10:36:37Z</time>
      </trkpt>
      <trkpt lat="44.41746" lon="6.48759">
        <ele>2408.24</ele>
        <time>2022-08-09T10:37:15Z</time>
      </trkpt>
      <trkpt lat="44.41746" lon="6.48759">
        <ele>2407.76</ele>
        <time>2022-08-09T10:37:46Z</time>
      </trkpt>
      <trkpt lat="44.41746" lon="6.48759">
        <ele>2407.76</ele>
        <time>2022-08-09T10:38:14Z</time>
      </trkpt>
      <trkpt lat="44.41746" lon="6.48759">
        <ele>2407.76</ele>
        <time>2022-08-09T10:38:45Z</time>
      </trkpt>
      <trkpt lat="44.41746" lon="6.48759">
        <ele>2407.76</ele>
        <time>2022-08-09T10:39:21Z</time>
      </trkpt>
      <trkpt lat="44.41746" lon="6.48759">
        <ele>2407.76</ele>
        <time>2022-08-09T10:40:00Z</time>
      </trkpt>
      <trkpt lat="44.41747" lon="6.48759">
        <ele>2407.76</ele>
        <time>2022-08-09T10:40:36Z</time>
      </trkpt>
      <trkpt lat="44.41747" lon="6.4876">
        <ele>2408.24</ele>
        <time>2022-08-09T10:41:09Z</time>
      </trkpt>
      <trkpt lat="44.41747" lon="6.4876">
        <ele>2408.24</ele>
        <time>2022-08-09T10:41:49Z</time>
      </trkpt>
      <trkpt lat="44.41747" lon="6.48761">
        <ele>2407.76</ele>
        <time>2022-08-09T10:41:59Z</time>
      </trkpt>
      <trkpt lat="44.41747" lon="6.48761">
        <ele>2407.76</ele>
        <time>2022-08-09T10:42:24Z</time>
      </trkpt>
      <trkpt lat="44.41747" lon="6.4876">
        <ele>2407.76</ele>
        <time>2022-08-09T10:42:30Z</time>
      </trkpt>
      <trkpt lat="44.41747" lon="6.48761">
        <ele>2407.76</ele>
        <time>2022-08-09T10:42:44Z</time>
      </trkpt>
      <trkpt lat="44.41747" lon="6.48761">
        <ele>2407.76</ele>
        <time>2022-08-09T10:43:05Z</time>
      </trkpt>
      <trkpt lat="44.41746" lon="6.48761">
        <ele>2407.76</ele>
        <time>2022-08-09T10:43:37Z</time>
      </trkpt>
      <trkpt lat="44.41746" lon="6.48761">
        <ele>2407.76</ele>
        <time>2022-08-09T10:44:05Z</time>
      </trkpt>
      <trkpt lat="44.41747" lon="6.48761">
        <ele>2407.76</ele>
        <time>2022-08-09T10:44:38Z</time>
      </trkpt>
      <trkpt lat="44.41747" lon="6.48761">
        <ele>2407.76</ele>
        <time>2022-08-09T10:44:53Z</time>
      </trkpt>
      <trkpt lat="44.41748" lon="6.48761">
        <ele>2407.28</ele>
        <time>2022-08-09T10:45:10Z</time>
      </trkpt>
      <trkpt lat="44.41748" lon="6.48762">
        <ele>2407.28</ele>
        <time>2022-08-09T10:45:35Z</time>
      </trkpt>
      <trkpt lat="44.41748" lon="6.48762">
        <ele>2406.8</ele>
        <time>2022-08-09T10:46:01Z</time>
      </trkpt>
      <trkpt lat="44.41749" lon="6.48764">
        <ele>2406.8</ele>
        <time>2022-08-09T10:46:18Z</time>
      </trkpt>
      <trkpt lat="44.41751" lon="6.48766">
        <ele>2406.32</ele>
        <time>2022-08-09T10:46:21Z</time>
      </trkpt>
      <trkpt lat="44.41757" lon="6.48773">
        <ele>2404.39</ele>
        <time>2022-08-09T10:46:36Z</time>
      </trkpt>
      <trkpt lat="44.41765" lon="6.48777">
        <ele>2399.11</ele>
        <time>2022-08-09T10:46:50Z</time>
      </trkpt>
      <trkpt lat="44.41771" lon="6.4878">
        <ele>2396.22</ele>
        <time>2022-08-09T10:47:03Z</time>
      </trkpt>
      <trkpt lat="44.4178" lon="6.48789">
        <ele>2392.38</ele>
        <time>2022-08-09T10:47:18Z</time>
      </trkpt>
      <trkpt lat="44.41788" lon="6.48796">
        <ele>2388.05</ele>
        <time>2022-08-09T10:47:31Z</time>
      </trkpt>
      <trkpt lat="44.41796" lon="6.488">
        <ele>2384.21</ele>
        <time>2022-08-09T10:47:44Z</time>
      </trkpt>
      <trkpt lat="44.41799" lon="6.48809">
        <ele>2382.28</ele>
        <time>2022-08-09T10:47:58Z</time>
      </trkpt>
      <trkpt lat="44.41803" lon="6.48815">
        <ele>2377.96</ele>
        <time>2022-08-09T10:48:12Z</time>
      </trkpt>
      <trkpt lat="44.41803" lon="6.48814">
        <ele>2377.96</ele>
        <time>2022-08-09T10:48:13Z</time>
      </trkpt>
      <trkpt lat="44.4181" lon="6.48812">
        <ele>2374.59</ele>
        <time>2022-08-09T10:48:27Z</time>
      </trkpt>
      <trkpt lat="44.41813" lon="6.48825">
        <ele>2371.71</ele>
        <time>2022-08-09T10:48:42Z</time>
      </trkpt>
      <trkpt lat="44.4182" lon="6.48832">
        <ele>2366.9</ele>
        <time>2022-08-09T10:48:57Z</time>
      </trkpt>
      <trkpt lat="44.41825" lon="6.48831">
        <ele>2363.54</ele>
        <time>2022-08-09T10:49:09Z</time>
      </trkpt>
      <trkpt lat="44.41827" lon="6.48833">
        <ele>2362.58</ele>
        <time>2022-08-09T10:49:22Z</time>
      </trkpt>
      <trkpt lat="44.41831" lon="6.48843">
        <ele>2360.65</ele>
        <time>2022-08-09T10:49:37Z</time>
      </trkpt>
      <trkpt lat="44.41833" lon="6.48848">
        <ele>2359.21</ele>
        <time>2022-08-09T10:49:50Z</time>
      </trkpt>
      <trkpt lat="44.41838" lon="6.48859">
        <ele>2354.89</ele>
        <time>2022-08-09T10:50:07Z</time>
      </trkpt>
      <trkpt lat="44.41843" lon="6.48864">
        <ele>2352</ele>
        <time>2022-08-09T10:50:20Z</time>
      </trkpt>
      <trkpt lat="44.41847" lon="6.48871">
        <ele>2349.6</ele>
        <time>2022-08-09T10:50:34Z</time>
      </trkpt>
      <trkpt lat="44.41851" lon="6.48868">
        <ele>2347.68</ele>
        <time>2022-08-09T10:50:47Z</time>
      </trkpt>
      <trkpt lat="44.41854" lon="6.48868">
        <ele>2345.75</ele>
        <time>2022-08-09T10:50:58Z</time>
      </trkpt>
      <trkpt lat="44.41861" lon="6.48874">
        <ele>2343.35</ele>
        <time>2022-08-09T10:51:11Z</time>
      </trkpt>
      <trkpt lat="44.41865" lon="6.48879">
        <ele>2340.47</ele>
        <time>2022-08-09T10:51:24Z</time>
      </trkpt>
      <trkpt lat="44.41871" lon="6.48887">
        <ele>2339.02</ele>
        <time>2022-08-09T10:51:37Z</time>
      </trkpt>
      <trkpt lat="44.41876" lon="6.48894">
        <ele>2337.1</ele>
        <time>2022-08-09T10:51:52Z</time>
      </trkpt>
      <trkpt lat="44.41879" lon="6.48894">
        <ele>2335.66</ele>
        <time>2022-08-09T10:52:06Z</time>
      </trkpt>
      <trkpt lat="44.41884" lon="6.48894">
        <ele>2332.3</ele>
        <time>2022-08-09T10:52:20Z</time>
      </trkpt>
      <trkpt lat="44.4189" lon="6.48891">
        <ele>2328.93</ele>
        <time>2022-08-09T10:52:35Z</time>
      </trkpt>
      <trkpt lat="44.41891" lon="6.48891">
        <ele>2327.49</ele>
        <time>2022-08-09T10:52:58Z</time>
      </trkpt>
      <trkpt lat="44.41895" lon="6.48892">
        <ele>2325.57</ele>
        <time>2022-08-09T10:53:09Z</time>
      </trkpt>
      <trkpt lat="44.41899" lon="6.48895">
        <ele>2323.64</ele>
        <time>2022-08-09T10:53:21Z</time>
      </trkpt>
      <trkpt lat="44.41907" lon="6.48899">
        <ele>2320.28</ele>
        <time>2022-08-09T10:53:35Z</time>
      </trkpt>
      <trkpt lat="44.41915" lon="6.48904">
        <ele>2317.4</ele>
        <time>2022-08-09T10:53:49Z</time>
      </trkpt>
      <trkpt lat="44.41917" lon="6.48907">
        <ele>2316.91</ele>
        <time>2022-08-09T10:53:53Z</time>
      </trkpt>
      <trkpt lat="44.41929" lon="6.48915">
        <ele>2314.03</ele>
        <time>2022-08-09T10:54:08Z</time>
      </trkpt>
      <trkpt lat="44.41942" lon="6.48923">
        <ele>2312.59</ele>
        <time>2022-08-09T10:54:24Z</time>
      </trkpt>
      <trkpt lat="44.41951" lon="6.48927">
        <ele>2312.11</ele>
        <time>2022-08-09T10:54:33Z</time>
      </trkpt>
      <trkpt lat="44.41963" lon="6.48929">
        <ele>2310.19</ele>
        <time>2022-08-09T10:54:48Z</time>
      </trkpt>
      <trkpt lat="44.41971" lon="6.48933">
        <ele>2308.74</ele>
        <time>2022-08-09T10:54:58Z</time>
      </trkpt>
      <trkpt lat="44.41985" lon="6.48944">
        <ele>2304.9</ele>
        <time>2022-08-09T10:55:14Z</time>
      </trkpt>
      <trkpt lat="44.41992" lon="6.48951">
        <ele>2302.01</ele>
        <time>2022-08-09T10:55:25Z</time>
      </trkpt>
      <trkpt lat="44.42003" lon="6.48961">
        <ele>2298.65</ele>
        <time>2022-08-09T10:55:38Z</time>
      </trkpt>
      <trkpt lat="44.42015" lon="6.48967">
        <ele>2296.25</ele>
        <time>2022-08-09T10:55:51Z</time>
      </trkpt>
      <trkpt lat="44.42016" lon="6.48964">
        <ele>2295.77</ele>
        <time>2022-08-09T10:55:55Z</time>
      </trkpt>
      <trkpt lat="44.42021" lon="6.48954">
        <ele>2293.84</ele>
        <time>2022-08-09T10:56:09Z</time>
      </trkpt>
      <trkpt lat="44.42028" lon="6.48946">
        <ele>2290.96</ele>
        <time>2022-08-09T10:56:23Z</time>
      </trkpt>
      <trkpt lat="44.4203" lon="6.48945">
        <ele>2290.96</ele>
        <time>2022-08-09T10:56:31Z</time>
      </trkpt>
      <trkpt lat="44.42041" lon="6.48942">
        <ele>2288.56</ele>
        <time>2022-08-09T10:56:44Z</time>
      </trkpt>
      <trkpt lat="44.4205" lon="6.48942">
        <ele>2286.63</ele>
        <time>2022-08-09T10:56:57Z</time>
      </trkpt>
      <trkpt lat="44.42058" lon="6.4894">
        <ele>2284.71</ele>
        <time>2022-08-09T10:57:09Z</time>
      </trkpt>
      <trkpt lat="44.4207" lon="6.48936">
        <ele>2281.35</ele>
        <time>2022-08-09T10:57:23Z</time>
      </trkpt>
      <trkpt lat="44.42084" lon="6.48931">
        <ele>2278.46</ele>
        <time>2022-08-09T10:57:39Z</time>
      </trkpt>
      <trkpt lat="44.42092" lon="6.48925">
        <ele>2275.58</ele>
        <time>2022-08-09T10:57:54Z</time>
      </trkpt>
      <trkpt lat="44.4209" lon="6.48919">
        <ele>2272.21</ele>
        <time>2022-08-09T10:58:08Z</time>
      </trkpt>
      <trkpt lat="44.42085" lon="6.48916">
        <ele>2270.29</ele>
        <time>2022-08-09T10:58:23Z</time>
      </trkpt>
      <trkpt lat="44.42078" lon="6.48907">
        <ele>2267.89</ele>
        <time>2022-08-09T10:58:37Z</time>
      </trkpt>
      <trkpt lat="44.42076" lon="6.48904">
        <ele>2267.89</ele>
        <time>2022-08-09T10:58:42Z</time>
      </trkpt>
      <trkpt lat="44.42067" lon="6.48896">
        <ele>2265.48</ele>
        <time>2022-08-09T10:58:55Z</time>
      </trkpt>
      <trkpt lat="44.42065" lon="6.48894">
        <ele>2264.52</ele>
        <time>2022-08-09T10:59:10Z</time>
      </trkpt>
      <trkpt lat="44.42059" lon="6.48888">
        <ele>2262.6</ele>
        <time>2022-08-09T10:59:24Z</time>
      </trkpt>
      <trkpt lat="44.42054" lon="6.48883">
        <ele>2262.12</ele>
        <time>2022-08-09T10:59:31Z</time>
      </trkpt>
      <trkpt lat="44.42041" lon="6.48869">
        <ele>2259.72</ele>
        <time>2022-08-09T10:59:48Z</time>
      </trkpt>
      <trkpt lat="44.42045" lon="6.48868">
        <ele>2257.79</ele>
        <time>2022-08-09T11:00:01Z</time>
      </trkpt>
      <trkpt lat="44.42052" lon="6.48866">
        <ele>2253.47</ele>
        <time>2022-08-09T11:00:12Z</time>
      </trkpt>
      <trkpt lat="44.42057" lon="6.48863">
        <ele>2250.58</ele>
        <time>2022-08-09T11:00:26Z</time>
      </trkpt>
      <trkpt lat="44.42057" lon="6.48858">
        <ele>2248.66</ele>
        <time>2022-08-09T11:00:38Z</time>
      </trkpt>
      <trkpt lat="44.42049" lon="6.48844">
        <ele>2245.3</ele>
        <time>2022-08-09T11:00:54Z</time>
      </trkpt>
      <trkpt lat="44.42048" lon="6.48838">
        <ele>2243.37</ele>
        <time>2022-08-09T11:01:08Z</time>
      </trkpt>
      <trkpt lat="44.4205" lon="6.48834">
        <ele>2240.01</ele>
        <time>2022-08-09T11:01:23Z</time>
      </trkpt>
      <trkpt lat="44.42048" lon="6.48825">
        <ele>2236.16</ele>
        <time>2022-08-09T11:01:37Z</time>
      </trkpt>
      <trkpt lat="44.42048" lon="6.48816">
        <ele>2234.24</ele>
        <time>2022-08-09T11:01:50Z</time>
      </trkpt>
      <trkpt lat="44.42053" lon="6.48813">
        <ele>2231.36</ele>
        <time>2022-08-09T11:02:04Z</time>
      </trkpt>
      <trkpt lat="44.42057" lon="6.4881">
        <ele>2227.03</ele>
        <time>2022-08-09T11:02:17Z</time>
      </trkpt>
      <trkpt lat="44.42061" lon="6.48811">
        <ele>2225.11</ele>
        <time>2022-08-09T11:02:23Z</time>
      </trkpt>
      <trkpt lat="44.42071" lon="6.48808">
        <ele>2221.74</ele>
        <time>2022-08-09T11:02:36Z</time>
      </trkpt>
      <trkpt lat="44.42078" lon="6.48803">
        <ele>2215.98</ele>
        <time>2022-08-09T11:02:49Z</time>
      </trkpt>
      <trkpt lat="44.42087" lon="6.48796">
        <ele>2212.13</ele>
        <time>2022-08-09T11:03:01Z</time>
      </trkpt>
      <trkpt lat="44.42091" lon="6.48791">
        <ele>2210.21</ele>
        <time>2022-08-09T11:03:07Z</time>
      </trkpt>
      <trkpt lat="44.42099" lon="6.48782">
        <ele>2205.88</ele>
        <time>2022-08-09T11:03:18Z</time>
      </trkpt>
      <trkpt lat="44.42101" lon="6.48781">
        <ele>2204.92</ele>
        <time>2022-08-09T11:03:20Z</time>
      </trkpt>
      <trkpt lat="44.4211" lon="6.48767">
        <ele>2199.15</ele>
        <time>2022-08-09T11:03:36Z</time>
      </trkpt>
      <trkpt lat="44.42112" lon="6.48766">
        <ele>2198.19</ele>
        <time>2022-08-09T11:04:02Z</time>
      </trkpt>
      <trkpt lat="44.42112" lon="6.48766">
        <ele>2196.75</ele>
        <time>2022-08-09T11:04:29Z</time>
      </trkpt>
      <trkpt lat="44.42113" lon="6.48765">
        <ele>2197.23</ele>
        <time>2022-08-09T11:04:45Z</time>
      </trkpt>
      <trkpt lat="44.42122" lon="6.48756">
        <ele>2195.31</ele>
        <time>2022-08-09T11:05:01Z</time>
      </trkpt>
      <trkpt lat="44.42133" lon="6.48751">
        <ele>2192.42</ele>
        <time>2022-08-09T11:05:13Z</time>
      </trkpt>
      <trkpt lat="44.42137" lon="6.48751">
        <ele>2190.98</ele>
        <time>2022-08-09T11:05:17Z</time>
      </trkpt>
      <trkpt lat="44.42142" lon="6.48743">
        <ele>2189.06</ele>
        <time>2022-08-09T11:05:25Z</time>
      </trkpt>
      <trkpt lat="44.42144" lon="6.48739">
        <ele>2188.58</ele>
        <time>2022-08-09T11:05:28Z</time>
      </trkpt>
      <trkpt lat="44.42148" lon="6.48732">
        <ele>2185.69</ele>
        <time>2022-08-09T11:05:35Z</time>
      </trkpt>
      <trkpt lat="44.42152" lon="6.48727">
        <ele>2184.73</ele>
        <time>2022-08-09T11:05:41Z</time>
      </trkpt>
      <trkpt lat="44.42156" lon="6.48724">
        <ele>2183.77</ele>
        <time>2022-08-09T11:05:46Z</time>
      </trkpt>
      <trkpt lat="44.42155" lon="6.48717">
        <ele>2180.89</ele>
        <time>2022-08-09T11:05:59Z</time>
      </trkpt>
      <trkpt lat="44.42155" lon="6.48716">
        <ele>2180.41</ele>
        <time>2022-08-09T11:06:15Z</time>
      </trkpt>
      <trkpt lat="44.42151" lon="6.48704">
        <ele>2178</ele>
        <time>2022-08-09T11:06:26Z</time>
      </trkpt>
      <trkpt lat="44.42149" lon="6.48693">
        <ele>2177.04</ele>
        <time>2022-08-09T11:06:39Z</time>
      </trkpt>
      <trkpt lat="44.42154" lon="6.48689">
        <ele>2173.68</ele>
        <time>2022-08-09T11:06:53Z</time>
      </trkpt>
      <trkpt lat="44.42158" lon="6.48684">
        <ele>2171.27</ele>
        <time>2022-08-09T11:07:05Z</time>
      </trkpt>
      <trkpt lat="44.42166" lon="6.4868">
        <ele>2167.43</ele>
        <time>2022-08-09T11:07:17Z</time>
      </trkpt>
      <trkpt lat="44.42177" lon="6.48675">
        <ele>2162.62</ele>
        <time>2022-08-09T11:07:31Z</time>
      </trkpt>
      <trkpt lat="44.42189" lon="6.48675">
        <ele>2159.74</ele>
        <time>2022-08-09T11:07:45Z</time>
      </trkpt>
      <trkpt lat="44.42196" lon="6.48672">
        <ele>2157.34</ele>
        <time>2022-08-09T11:07:58Z</time>
      </trkpt>
      <trkpt lat="44.42203" lon="6.48671">
        <ele>2154.93</ele>
        <time>2022-08-09T11:08:13Z</time>
      </trkpt>
      <trkpt lat="44.42208" lon="6.48669">
        <ele>2152.05</ele>
        <time>2022-08-09T11:08:27Z</time>
      </trkpt>
      <trkpt lat="44.42214" lon="6.48675">
        <ele>2149.65</ele>
        <time>2022-08-09T11:08:40Z</time>
      </trkpt>
      <trkpt lat="44.42218" lon="6.48678">
        <ele>2148.2</ele>
        <time>2022-08-09T11:08:52Z</time>
      </trkpt>
      <trkpt lat="44.42219" lon="6.48681">
        <ele>2147.72</ele>
        <time>2022-08-09T11:09:05Z</time>
      </trkpt>
      <trkpt lat="44.42222" lon="6.48682">
        <ele>2147.24</ele>
        <time>2022-08-09T11:09:22Z</time>
      </trkpt>
      <trkpt lat="44.42229" lon="6.48684">
        <ele>2145.32</ele>
        <time>2022-08-09T11:09:35Z</time>
      </trkpt>
      <trkpt lat="44.42237" lon="6.48686">
        <ele>2142.44</ele>
        <time>2022-08-09T11:09:49Z</time>
      </trkpt>
      <trkpt lat="44.42249" lon="6.48684">
        <ele>2137.63</ele>
        <time>2022-08-09T11:10:03Z</time>
      </trkpt>
      <trkpt lat="44.42262" lon="6.4868">
        <ele>2134.26</ele>
        <time>2022-08-09T11:10:17Z</time>
      </trkpt>
      <trkpt lat="44.42271" lon="6.48674">
        <ele>2129.94</ele>
        <time>2022-08-09T11:10:30Z</time>
      </trkpt>
      <trkpt lat="44.42283" lon="6.48668">
        <ele>2128.02</ele>
        <time>2022-08-09T11:10:44Z</time>
      </trkpt>
      <trkpt lat="44.42284" lon="6.48664">
        <ele>2129.46</ele>
        <time>2022-08-09T11:10:55Z</time>
      </trkpt>
      <trkpt lat="44.4228" lon="6.48661">
        <ele>2128.98</ele>
        <time>2022-08-09T11:11:00Z</time>
      </trkpt>
      <trkpt lat="44.42276" lon="6.48657">
        <ele>2128.02</ele>
        <time>2022-08-09T11:11:14Z</time>
      </trkpt>
      <trkpt lat="44.42278" lon="6.48658">
        <ele>2128.02</ele>
        <time>2022-08-09T11:11:56Z</time>
      </trkpt>
      <trkpt lat="44.42278" lon="6.48657">
        <ele>2128.02</ele>
        <time>2022-08-09T11:11:59Z</time>
      </trkpt>
      <trkpt lat="44.4228" lon="6.48659">
        <ele>2128.5</ele>
        <time>2022-08-09T11:12:11Z</time>
      </trkpt>
      <trkpt lat="44.4228" lon="6.48659">
        <ele>2128.5</ele>
        <time>2022-08-09T11:12:38Z</time>
      </trkpt>
      <trkpt lat="44.42281" lon="6.4866">
        <ele>2128.5</ele>
        <time>2022-08-09T11:13:08Z</time>
      </trkpt>
      <trkpt lat="44.42278" lon="6.48657">
        <ele>2128.02</ele>
        <time>2022-08-09T11:13:13Z</time>
      </trkpt>
      <trkpt lat="44.42273" lon="6.48642">
        <ele>2125.61</ele>
        <time>2022-08-09T11:13:26Z</time>
      </trkpt>
      <trkpt lat="44.42271" lon="6.48637">
        <ele>2122.25</ele>
        <time>2022-08-09T11:13:38Z</time>
      </trkpt>
      <trkpt lat="44.42271" lon="6.48636">
        <ele>2122.25</ele>
        <time>2022-08-09T11:14:01Z</time>
      </trkpt>
      <trkpt lat="44.42271" lon="6.48635">
        <ele>2121.77</ele>
        <time>2022-08-09T11:14:22Z</time>
      </trkpt>
      <trkpt lat="44.42271" lon="6.48635">
        <ele>2121.77</ele>
        <time>2022-08-09T11:14:40Z</time>
      </trkpt>
      <trkpt lat="44.42272" lon="6.48634">
        <ele>2121.77</ele>
        <time>2022-08-09T11:15:06Z</time>
      </trkpt>
      <trkpt lat="44.42271" lon="6.48634">
        <ele>2119.84</ele>
        <time>2022-08-09T11:15:27Z</time>
      </trkpt>
      <trkpt lat="44.42272" lon="6.48634">
        <ele>2119.36</ele>
        <time>2022-08-09T11:15:52Z</time>
      </trkpt>
      <trkpt lat="44.42272" lon="6.48634">
        <ele>2119.84</ele>
        <time>2022-08-09T11:16:10Z</time>
      </trkpt>
      <trkpt lat="44.42273" lon="6.48633">
        <ele>2119.84</ele>
        <time>2022-08-09T11:16:42Z</time>
      </trkpt>
      <trkpt lat="44.42273" lon="6.48633">
        <ele>2119.36</ele>
        <time>2022-08-09T11:16:58Z</time>
      </trkpt>
      <trkpt lat="44.42271" lon="6.48631">
        <ele>2117.92</ele>
        <time>2022-08-09T11:17:06Z</time>
      </trkpt>
      <trkpt lat="44.42274" lon="6.48618">
        <ele>2116.96</ele>
        <time>2022-08-09T11:17:21Z</time>
      </trkpt>
      <trkpt lat="44.42279" lon="6.4861">
        <ele>2114.08</ele>
        <time>2022-08-09T11:17:33Z</time>
      </trkpt>
      <trkpt lat="44.42281" lon="6.48608">
        <ele>2113.6</ele>
        <time>2022-08-09T11:17:36Z</time>
      </trkpt>
      <trkpt lat="44.42284" lon="6.48605">
        <ele>2113.12</ele>
        <time>2022-08-09T11:17:39Z</time>
      </trkpt>
      <trkpt lat="44.42292" lon="6.48596">
        <ele>2109.75</ele>
        <time>2022-08-09T11:17:51Z</time>
      </trkpt>
      <trkpt lat="44.42303" lon="6.48594">
        <ele>2104.94</ele>
        <time>2022-08-09T11:18:05Z</time>
      </trkpt>
      <trkpt lat="44.42311" lon="6.48591">
        <ele>2102.54</ele>
        <time>2022-08-09T11:18:17Z</time>
      </trkpt>
      <trkpt lat="44.42318" lon="6.48588">
        <ele>2100.62</ele>
        <time>2022-08-09T11:18:29Z</time>
      </trkpt>
      <trkpt lat="44.42322" lon="6.48577">
        <ele>2099.18</ele>
        <time>2022-08-09T11:18:42Z</time>
      </trkpt>
      <trkpt lat="44.42324" lon="6.48575">
        <ele>2099.66</ele>
        <time>2022-08-09T11:18:45Z</time>
      </trkpt>
      <trkpt lat="44.42329" lon="6.48567">
        <ele>2098.7</ele>
        <time>2022-08-09T11:18:57Z</time>
      </trkpt>
      <trkpt lat="44.42334" lon="6.48557">
        <ele>2097.73</ele>
        <time>2022-08-09T11:19:11Z</time>
      </trkpt>
      <trkpt lat="44.42339" lon="6.48549">
        <ele>2096.77</ele>
        <time>2022-08-09T11:19:24Z</time>
      </trkpt>
      <trkpt lat="44.42345" lon="6.48542">
        <ele>2096.29</ele>
        <time>2022-08-09T11:19:36Z</time>
      </trkpt>
      <trkpt lat="44.42352" lon="6.48531">
        <ele>2094.37</ele>
        <time>2022-08-09T11:19:50Z</time>
      </trkpt>
      <trkpt lat="44.42361" lon="6.48521">
        <ele>2094.37</ele>
        <time>2022-08-09T11:20:04Z</time>
      </trkpt>
      <trkpt lat="44.42369" lon="6.48511">
        <ele>2089.56</ele>
        <time>2022-08-09T11:20:19Z</time>
      </trkpt>
      <trkpt lat="44.42378" lon="6.48495">
        <ele>2082.83</ele>
        <time>2022-08-09T11:20:35Z</time>
      </trkpt>
      <trkpt lat="44.42382" lon="6.48484">
        <ele>2081.39</ele>
        <time>2022-08-09T11:20:49Z</time>
      </trkpt>
      <trkpt lat="44.42394" lon="6.4847">
        <ele>2075.14</ele>
        <time>2022-08-09T11:21:06Z</time>
      </trkpt>
      <trkpt lat="44.42401" lon="6.48462">
        <ele>2070.34</ele>
        <time>2022-08-09T11:21:22Z</time>
      </trkpt>
      <trkpt lat="44.42405" lon="6.4846">
        <ele>2068.89</ele>
        <time>2022-08-09T11:21:28Z</time>
      </trkpt>
      <trkpt lat="44.42408" lon="6.48455">
        <ele>2066.49</ele>
        <time>2022-08-09T11:21:36Z</time>
      </trkpt>
      <trkpt lat="44.42408" lon="6.48451">
        <ele>2065.53</ele>
        <time>2022-08-09T11:21:39Z</time>
      </trkpt>
      <trkpt lat="44.42411" lon="6.48441">
        <ele>2063.61</ele>
        <time>2022-08-09T11:21:48Z</time>
      </trkpt>
      <trkpt lat="44.42424" lon="6.48419">
        <ele>2059.28</ele>
        <time>2022-08-09T11:22:04Z</time>
      </trkpt>
      <trkpt lat="44.42428" lon="6.4841">
        <ele>2055.44</ele>
        <time>2022-08-09T11:22:18Z</time>
      </trkpt>
      <trkpt lat="44.42427" lon="6.48409">
        <ele>2053.99</ele>
        <time>2022-08-09T11:22:38Z</time>
      </trkpt>
      <trkpt lat="44.42426" lon="6.48409">
        <ele>2052.07</ele>
        <time>2022-08-09T11:23:02Z</time>
      </trkpt>
      <trkpt lat="44.42428" lon="6.48406">
        <ele>2051.11</ele>
        <time>2022-08-09T11:23:17Z</time>
      </trkpt>
      <trkpt lat="44.42438" lon="6.48393">
        <ele>2050.15</ele>
        <time>2022-08-09T11:23:27Z</time>
      </trkpt>
      <trkpt lat="44.42457" lon="6.48363">
        <ele>2047.26</ele>
        <time>2022-08-09T11:23:38Z</time>
      </trkpt>
      <trkpt lat="44.42467" lon="6.48347">
        <ele>2046.3</ele>
        <time>2022-08-09T11:23:43Z</time>
      </trkpt>
      <trkpt lat="44.42489" lon="6.48326">
        <ele>2043.42</ele>
        <time>2022-08-09T11:23:53Z</time>
      </trkpt>
      <trkpt lat="44.42492" lon="6.48321">
        <ele>2042.94</ele>
        <time>2022-08-09T11:23:55Z</time>
      </trkpt>
      <trkpt lat="44.42502" lon="6.48309">
        <ele>2040.05</ele>
        <time>2022-08-09T11:24:02Z</time>
      </trkpt>
      <trkpt lat="44.42518" lon="6.48295">
        <ele>2037.65</ele>
        <time>2022-08-09T11:24:17Z</time>
      </trkpt>
      <trkpt lat="44.42526" lon="6.48287">
        <ele>2034.29</ele>
        <time>2022-08-09T11:24:32Z</time>
      </trkpt>
      <trkpt lat="44.42532" lon="6.48285">
        <ele>2032.84</ele>
        <time>2022-08-09T11:24:47Z</time>
      </trkpt>
      <trkpt lat="44.42543" lon="6.48279">
        <ele>2029</ele>
        <time>2022-08-09T11:25:03Z</time>
      </trkpt>
      <trkpt lat="44.42552" lon="6.48268">
        <ele>2024.67</ele>
        <time>2022-08-09T11:25:19Z</time>
      </trkpt>
      <trkpt lat="44.42558" lon="6.48268">
        <ele>2021.79</ele>
        <time>2022-08-09T11:25:33Z</time>
      </trkpt>
      <trkpt lat="44.42564" lon="6.48267">
        <ele>2020.83</ele>
        <time>2022-08-09T11:25:46Z</time>
      </trkpt>
      <trkpt lat="44.42573" lon="6.48256">
        <ele>2016.98</ele>
        <time>2022-08-09T11:26:00Z</time>
      </trkpt>
      <trkpt lat="44.42578" lon="6.48248">
        <ele>2013.14</ele>
        <time>2022-08-09T11:26:14Z</time>
      </trkpt>
      <trkpt lat="44.42579" lon="6.48244">
        <ele>2011.7</ele>
        <time>2022-08-09T11:26:19Z</time>
      </trkpt>
      <trkpt lat="44.42583" lon="6.4823">
        <ele>2006.41</ele>
        <time>2022-08-09T11:26:34Z</time>
      </trkpt>
      <trkpt lat="44.4259" lon="6.48215">
        <ele>2003.52</ele>
        <time>2022-08-09T11:26:49Z</time>
      </trkpt>
      <trkpt lat="44.4259" lon="6.48215">
        <ele>2003.04</ele>
        <time>2022-08-09T11:26:51Z</time>
      </trkpt>
      <trkpt lat="44.42595" lon="6.48194">
        <ele>2000.64</ele>
        <time>2022-08-09T11:27:06Z</time>
      </trkpt>
      <trkpt lat="44.42596" lon="6.48191">
        <ele>2000.64</ele>
        <time>2022-08-09T11:27:09Z</time>
      </trkpt>
      <trkpt lat="44.42603" lon="6.48181">
        <ele>1997.76</ele>
        <time>2022-08-09T11:27:22Z</time>
      </trkpt>
      <trkpt lat="44.42612" lon="6.4817">
        <ele>1997.28</ele>
        <time>2022-08-09T11:27:35Z</time>
      </trkpt>
      <trkpt lat="44.4262" lon="6.48158">
        <ele>1994.39</ele>
        <time>2022-08-09T11:27:48Z</time>
      </trkpt>
      <trkpt lat="44.42629" lon="6.48154">
        <ele>1990.07</ele>
        <time>2022-08-09T11:28:01Z</time>
      </trkpt>
      <trkpt lat="44.42636" lon="6.4815">
        <ele>1988.62</ele>
        <time>2022-08-09T11:28:10Z</time>
      </trkpt>
      <trkpt lat="44.42638" lon="6.48147">
        <ele>1988.62</ele>
        <time>2022-08-09T11:28:15Z</time>
      </trkpt>
      <trkpt lat="44.4264" lon="6.48139">
        <ele>1989.1</ele>
        <time>2022-08-09T11:28:22Z</time>
      </trkpt>
      <trkpt lat="44.4265" lon="6.48121">
        <ele>1990.07</ele>
        <time>2022-08-09T11:28:38Z</time>
      </trkpt>
      <trkpt lat="44.42665" lon="6.48103">
        <ele>1986.22</ele>
        <time>2022-08-09T11:28:53Z</time>
      </trkpt>
      <trkpt lat="44.42671" lon="6.4808">
        <ele>1983.34</ele>
        <time>2022-08-09T11:29:09Z</time>
      </trkpt>
      <trkpt lat="44.42681" lon="6.48061">
        <ele>1981.9</ele>
        <time>2022-08-09T11:29:23Z</time>
      </trkpt>
      <trkpt lat="44.42685" lon="6.48053">
        <ele>1980.93</ele>
        <time>2022-08-09T11:29:29Z</time>
      </trkpt>
      <trkpt lat="44.42688" lon="6.48042">
        <ele>1979.49</ele>
        <time>2022-08-09T11:29:43Z</time>
      </trkpt>
      <trkpt lat="44.42677" lon="6.48038">
        <ele>1977.09</ele>
        <time>2022-08-09T11:29:58Z</time>
      </trkpt>
      <trkpt lat="44.42665" lon="6.48045">
        <ele>1974.2</ele>
        <time>2022-08-09T11:30:16Z</time>
      </trkpt>
      <trkpt lat="44.42655" lon="6.48053">
        <ele>1970.84</ele>
        <time>2022-08-09T11:30:31Z</time>
      </trkpt>
      <trkpt lat="44.42647" lon="6.48057">
        <ele>1967.96</ele>
        <time>2022-08-09T11:30:43Z</time>
      </trkpt>
      <trkpt lat="44.42636" lon="6.48068">
        <ele>1965.07</ele>
        <time>2022-08-09T11:30:57Z</time>
      </trkpt>
      <trkpt lat="44.42623" lon="6.48078">
        <ele>1963.63</ele>
        <time>2022-08-09T11:31:11Z</time>
      </trkpt>
      <trkpt lat="44.42619" lon="6.48073">
        <ele>1962.19</ele>
        <time>2022-08-09T11:31:24Z</time>
      </trkpt>
      <trkpt lat="44.42616" lon="6.4806">
        <ele>1962.67</ele>
        <time>2022-08-09T11:31:32Z</time>
      </trkpt>
      <trkpt lat="44.42611" lon="6.48041">
        <ele>1960.27</ele>
        <time>2022-08-09T11:31:44Z</time>
      </trkpt>
      <trkpt lat="44.42607" lon="6.4803">
        <ele>1958.34</ele>
        <time>2022-08-09T11:31:52Z</time>
      </trkpt>
      <trkpt lat="44.42597" lon="6.4801">
        <ele>1954.5</ele>
        <time>2022-08-09T11:32:11Z</time>
      </trkpt>
      <trkpt lat="44.42596" lon="6.48008">
        <ele>1954.02</ele>
        <time>2022-08-09T11:32:13Z</time>
      </trkpt>
      <trkpt lat="44.42589" lon="6.48003">
        <ele>1952.09</ele>
        <time>2022-08-09T11:32:21Z</time>
      </trkpt>
      <trkpt lat="44.42586" lon="6.48">
        <ele>1951.61</ele>
        <time>2022-08-09T11:32:26Z</time>
      </trkpt>
      <trkpt lat="44.42572" lon="6.47983">
        <ele>1947.29</ele>
        <time>2022-08-09T11:32:44Z</time>
      </trkpt>
      <trkpt lat="44.4257" lon="6.4798">
        <ele>1946.81</ele>
        <time>2022-08-09T11:32:47Z</time>
      </trkpt>
      <trkpt lat="44.42565" lon="6.4797">
        <ele>1946.81</ele>
        <time>2022-08-09T11:32:56Z</time>
      </trkpt>
      <trkpt lat="44.42559" lon="6.47961">
        <ele>1946.33</ele>
        <time>2022-08-09T11:33:06Z</time>
      </trkpt>
      <trkpt lat="44.42554" lon="6.47954">
        <ele>1943.44</ele>
        <time>2022-08-09T11:33:22Z</time>
      </trkpt>
      <trkpt lat="44.42544" lon="6.47939">
        <ele>1940.56</ele>
        <time>2022-08-09T11:33:38Z</time>
      </trkpt>
      <trkpt lat="44.42534" lon="6.47923">
        <ele>1936.71</ele>
        <time>2022-08-09T11:33:53Z</time>
      </trkpt>
      <trkpt lat="44.42528" lon="6.47915">
        <ele>1934.79</ele>
        <time>2022-08-09T11:34:01Z</time>
      </trkpt>
      <trkpt lat="44.42523" lon="6.47906">
        <ele>1932.39</ele>
        <time>2022-08-09T11:34:09Z</time>
      </trkpt>
      <trkpt lat="44.42514" lon="6.47894">
        <ele>1928.54</ele>
        <time>2022-08-09T11:34:24Z</time>
      </trkpt>
      <trkpt lat="44.42507" lon="6.47884">
        <ele>1926.62</ele>
        <time>2022-08-09T11:34:38Z</time>
      </trkpt>
      <trkpt lat="44.425" lon="6.47872">
        <ele>1924.22</ele>
        <time>2022-08-09T11:34:53Z</time>
      </trkpt>
      <trkpt lat="44.42495" lon="6.47865">
        <ele>1924.7</ele>
        <time>2022-08-09T11:35:00Z</time>
      </trkpt>
      <trkpt lat="44.42482" lon="6.47851">
        <ele>1928.06</ele>
        <time>2022-08-09T11:35:17Z</time>
      </trkpt>
      <trkpt lat="44.42472" lon="6.47838">
        <ele>1932.87</ele>
        <time>2022-08-09T11:35:31Z</time>
      </trkpt>
      <trkpt lat="44.42464" lon="6.47831">
        <ele>1930.95</ele>
        <time>2022-08-09T11:35:44Z</time>
      </trkpt>
      <trkpt lat="44.42463" lon="6.47831">
        <ele>1928.54</ele>
        <time>2022-08-09T11:36:03Z</time>
      </trkpt>
      <trkpt lat="44.42458" lon="6.47828">
        <ele>1926.14</ele>
        <time>2022-08-09T11:36:22Z</time>
      </trkpt>
      <trkpt lat="44.42449" lon="6.47818">
        <ele>1924.7</ele>
        <time>2022-08-09T11:36:36Z</time>
      </trkpt>
      <trkpt lat="44.42438" lon="6.47807">
        <ele>1924.7</ele>
        <time>2022-08-09T11:36:50Z</time>
      </trkpt>
      <trkpt lat="44.42426" lon="6.47799">
        <ele>1925.18</ele>
        <time>2022-08-09T11:37:04Z</time>
      </trkpt>
      <trkpt lat="44.42414" lon="6.47781">
        <ele>1929.5</ele>
        <time>2022-08-09T11:37:18Z</time>
      </trkpt>
      <trkpt lat="44.42412" lon="6.47773">
        <ele>1934.31</ele>
        <time>2022-08-09T11:37:30Z</time>
      </trkpt>
      <trkpt lat="44.42411" lon="6.47771">
        <ele>1936.71</ele>
        <time>2022-08-09T11:37:46Z</time>
      </trkpt>
      <trkpt lat="44.4241" lon="6.47767">
        <ele>1935.27</ele>
        <time>2022-08-09T11:38:11Z</time>
      </trkpt>
      <trkpt lat="44.42408" lon="6.47764">
        <ele>1933.35</ele>
        <time>2022-08-09T11:38:40Z</time>
      </trkpt>
      <trkpt lat="44.42408" lon="6.47763">
        <ele>1932.87</ele>
        <time>2022-08-09T11:39:08Z</time>
      </trkpt>
      <trkpt lat="44.42408" lon="6.47763">
        <ele>1932.87</ele>
        <time>2022-08-09T11:39:32Z</time>
      </trkpt>
      <trkpt lat="44.42404" lon="6.47758">
        <ele>1933.35</ele>
        <time>2022-08-09T11:39:41Z</time>
      </trkpt>
      <trkpt lat="44.424" lon="6.47744">
        <ele>1935.75</ele>
        <time>2022-08-09T11:39:53Z</time>
      </trkpt>
      <trkpt lat="44.42396" lon="6.4773">
        <ele>1939.6</ele>
        <time>2022-08-09T11:40:06Z</time>
      </trkpt>
      <trkpt lat="44.42393" lon="6.47716">
        <ele>1944.4</ele>
        <time>2022-08-09T11:40:20Z</time>
      </trkpt>
      <trkpt lat="44.42385" lon="6.47696">
        <ele>1949.69</ele>
        <time>2022-08-09T11:40:35Z</time>
      </trkpt>
      <trkpt lat="44.42376" lon="6.47678">
        <ele>1954.02</ele>
        <time>2022-08-09T11:40:48Z</time>
      </trkpt>
      <trkpt lat="44.42372" lon="6.47662">
        <ele>1957.38</ele>
        <time>2022-08-09T11:41:01Z</time>
      </trkpt>
      <trkpt lat="44.42365" lon="6.47641">
        <ele>1953.54</ele>
        <time>2022-08-09T11:41:15Z</time>
      </trkpt>
      <trkpt lat="44.42359" lon="6.47628">
        <ele>1950.65</ele>
        <time>2022-08-09T11:41:26Z</time>
      </trkpt>
      <trkpt lat="44.4235" lon="6.47612">
        <ele>1948.25</ele>
        <time>2022-08-09T11:41:39Z</time>
      </trkpt>
      <trkpt lat="44.42342" lon="6.47597">
        <ele>1945.85</ele>
        <time>2022-08-09T11:41:51Z</time>
      </trkpt>
      <trkpt lat="44.42331" lon="6.47584">
        <ele>1939.12</ele>
        <time>2022-08-09T11:42:02Z</time>
      </trkpt>
      <trkpt lat="44.42301" lon="6.47564">
        <ele>1925.66</ele>
        <time>2022-08-09T11:42:15Z</time>
      </trkpt>
      <trkpt lat="44.42289" lon="6.47557">
        <ele>1917.49</ele>
        <time>2022-08-09T11:42:29Z</time>
      </trkpt>
      <trkpt lat="44.42279" lon="6.47552">
        <ele>1911.72</ele>
        <time>2022-08-09T11:42:43Z</time>
      </trkpt>
      <trkpt lat="44.42268" lon="6.47547">
        <ele>1905.95</ele>
        <time>2022-08-09T11:42:57Z</time>
      </trkpt>
      <trkpt lat="44.42256" lon="6.47536">
        <ele>1901.63</ele>
        <time>2022-08-09T11:43:11Z</time>
      </trkpt>
      <trkpt lat="44.42252" lon="6.47531">
        <ele>1898.26</ele>
        <time>2022-08-09T11:43:18Z</time>
      </trkpt>
      <trkpt lat="44.42243" lon="6.47523">
        <ele>1896.34</ele>
        <time>2022-08-09T11:43:27Z</time>
      </trkpt>
      <trkpt lat="44.4223" lon="6.47509">
        <ele>1893.45</ele>
        <time>2022-08-09T11:43:43Z</time>
      </trkpt>
      <trkpt lat="44.42225" lon="6.47502">
        <ele>1892.97</ele>
        <time>2022-08-09T11:43:51Z</time>
      </trkpt>
      <trkpt lat="44.42215" lon="6.47489">
        <ele>1893.93</ele>
        <time>2022-08-09T11:44:06Z</time>
      </trkpt>
      <trkpt lat="44.42208" lon="6.4748">
        <ele>1896.82</ele>
        <time>2022-08-09T11:44:18Z</time>
      </trkpt>
      <trkpt lat="44.42208" lon="6.47468">
        <ele>1899.22</ele>
        <time>2022-08-09T11:44:31Z</time>
      </trkpt>
      <trkpt lat="44.42209" lon="6.47453">
        <ele>1902.59</ele>
        <time>2022-08-09T11:44:45Z</time>
      </trkpt>
      <trkpt lat="44.42215" lon="6.47439">
        <ele>1904.51</ele>
        <time>2022-08-09T11:44:58Z</time>
      </trkpt>
      <trkpt lat="44.42223" lon="6.47419">
        <ele>1901.14</ele>
        <time>2022-08-09T11:45:09Z</time>
      </trkpt>
      <trkpt lat="44.4223" lon="6.47393">
        <ele>1897.3</ele>
        <time>2022-08-09T11:45:25Z</time>
      </trkpt>
      <trkpt lat="44.42231" lon="6.47385">
        <ele>1897.3</ele>
        <time>2022-08-09T11:45:38Z</time>
      </trkpt>
      <trkpt lat="44.42229" lon="6.47369">
        <ele>1898.74</ele>
        <time>2022-08-09T11:45:52Z</time>
      </trkpt>
      <trkpt lat="44.42225" lon="6.47365">
        <ele>1898.26</ele>
        <time>2022-08-09T11:46:00Z</time>
      </trkpt>
      <trkpt lat="44.42225" lon="6.47349">
        <ele>1902.11</ele>
        <time>2022-08-09T11:46:14Z</time>
      </trkpt>
      <trkpt lat="44.42223" lon="6.4734">
        <ele>1905.95</ele>
        <time>2022-08-09T11:46:26Z</time>
      </trkpt>
      <trkpt lat="44.42223" lon="6.47322">
        <ele>1913.64</ele>
        <time>2022-08-09T11:46:40Z</time>
      </trkpt>
      <trkpt lat="44.42225" lon="6.47307">
        <ele>1920.85</ele>
        <time>2022-08-09T11:46:52Z</time>
      </trkpt>
      <trkpt lat="44.42236" lon="6.47289">
        <ele>1931.91</ele>
        <time>2022-08-09T11:47:06Z</time>
      </trkpt>
      <trkpt lat="44.42235" lon="6.4727">
        <ele>1932.39</ele>
        <time>2022-08-09T11:47:18Z</time>
      </trkpt>
      <trkpt lat="44.42239" lon="6.47251">
        <ele>1933.83</ele>
        <time>2022-08-09T11:47:31Z</time>
      </trkpt>
      <trkpt lat="44.42233" lon="6.47233">
        <ele>1928.54</ele>
        <time>2022-08-09T11:47:44Z</time>
      </trkpt>
      <trkpt lat="44.42229" lon="6.47225">
        <ele>1922.77</ele>
        <time>2022-08-09T11:47:57Z</time>
      </trkpt>
      <trkpt lat="44.4222" lon="6.47213">
        <ele>1917.49</ele>
        <time>2022-08-09T11:48:12Z</time>
      </trkpt>
      <trkpt lat="44.42205" lon="6.47199">
        <ele>1908.83</ele>
        <time>2022-08-09T11:48:28Z</time>
      </trkpt>
      <trkpt lat="44.42182" lon="6.47188">
        <ele>1898.74</ele>
        <time>2022-08-09T11:48:43Z</time>
      </trkpt>
      <trkpt lat="44.42167" lon="6.47177">
        <ele>1886.24</ele>
        <time>2022-08-09T11:48:59Z</time>
      </trkpt>
      <trkpt lat="44.42148" lon="6.47165">
        <ele>1875.67</ele>
        <time>2022-08-09T11:49:12Z</time>
      </trkpt>
      <trkpt lat="44.42128" lon="6.47158">
        <ele>1867.5</ele>
        <time>2022-08-09T11:49:26Z</time>
      </trkpt>
      <trkpt lat="44.42112" lon="6.47152">
        <ele>1860.29</ele>
        <time>2022-08-09T11:49:44Z</time>
      </trkpt>
      <trkpt lat="44.42101" lon="6.47149">
        <ele>1854.52</ele>
        <time>2022-08-09T11:49:58Z</time>
      </trkpt>
      <trkpt lat="44.42098" lon="6.47148">
        <ele>1853.56</ele>
        <time>2022-08-09T11:50:00Z</time>
      </trkpt>
      <trkpt lat="44.42083" lon="6.47138">
        <ele>1849.71</ele>
        <time>2022-08-09T11:50:13Z</time>
      </trkpt>
      <trkpt lat="44.42072" lon="6.47132">
        <ele>1845.87</ele>
        <time>2022-08-09T11:50:28Z</time>
      </trkpt>
      <trkpt lat="44.42059" lon="6.47125">
        <ele>1842.98</ele>
        <time>2022-08-09T11:50:42Z</time>
      </trkpt>
      <trkpt lat="44.4205" lon="6.47116">
        <ele>1844.91</ele>
        <time>2022-08-09T11:50:57Z</time>
      </trkpt>
      <trkpt lat="44.42042" lon="6.47111">
        <ele>1844.43</ele>
        <time>2022-08-09T11:51:12Z</time>
      </trkpt>
      <trkpt lat="44.42023" lon="6.47099">
        <ele>1842.98</ele>
        <time>2022-08-09T11:51:28Z</time>
      </trkpt>
      <trkpt lat="44.4201" lon="6.47089">
        <ele>1837.22</ele>
        <time>2022-08-09T11:51:41Z</time>
      </trkpt>
      <trkpt lat="44.41995" lon="6.47081">
        <ele>1830.01</ele>
        <time>2022-08-09T11:51:54Z</time>
      </trkpt>
      <trkpt lat="44.41986" lon="6.47076">
        <ele>1824.72</ele>
        <time>2022-08-09T11:52:08Z</time>
      </trkpt>
      <trkpt lat="44.41982" lon="6.4707">
        <ele>1823.28</ele>
        <time>2022-08-09T11:52:25Z</time>
      </trkpt>
      <trkpt lat="44.41979" lon="6.47064">
        <ele>1821.35</ele>
        <time>2022-08-09T11:52:39Z</time>
      </trkpt>
      <trkpt lat="44.41973" lon="6.47057">
        <ele>1820.39</ele>
        <time>2022-08-09T11:52:53Z</time>
      </trkpt>
      <trkpt lat="44.41966" lon="6.47047">
        <ele>1818.95</ele>
        <time>2022-08-09T11:53:09Z</time>
      </trkpt>
      <trkpt lat="44.41952" lon="6.47036">
        <ele>1815.11</ele>
        <time>2022-08-09T11:53:26Z</time>
      </trkpt>
      <trkpt lat="44.4195" lon="6.4703">
        <ele>1814.63</ele>
        <time>2022-08-09T11:53:38Z</time>
      </trkpt>
      <trkpt lat="44.41948" lon="6.47017">
        <ele>1808.38</ele>
        <time>2022-08-09T11:53:52Z</time>
      </trkpt>
      <trkpt lat="44.4194" lon="6.47">
        <ele>1805.01</ele>
        <time>2022-08-09T11:54:06Z</time>
      </trkpt>
      <trkpt lat="44.4195" lon="6.46978">
        <ele>1791.55</ele>
        <time>2022-08-09T11:54:20Z</time>
      </trkpt>
      <trkpt lat="44.41952" lon="6.46977">
        <ele>1788.67</ele>
        <time>2022-08-09T11:54:32Z</time>
      </trkpt>
      <trkpt lat="44.41953" lon="6.46968">
        <ele>1787.23</ele>
        <time>2022-08-09T11:54:47Z</time>
      </trkpt>
      <trkpt lat="44.41955" lon="6.46966">
        <ele>1783.38</ele>
        <time>2022-08-09T11:54:58Z</time>
      </trkpt>
      <trkpt lat="44.41953" lon="6.46956">
        <ele>1780.02</ele>
        <time>2022-08-09T11:55:16Z</time>
      </trkpt>
      <trkpt lat="44.41949" lon="6.46951">
        <ele>1778.1</ele>
        <time>2022-08-09T11:55:38Z</time>
      </trkpt>
      <trkpt lat="44.41948" lon="6.4695">
        <ele>1776.65</ele>
        <time>2022-08-09T11:55:58Z</time>
      </trkpt>
      <trkpt lat="44.41948" lon="6.46949">
        <ele>1776.17</ele>
        <time>2022-08-09T11:56:16Z</time>
      </trkpt>
      <trkpt lat="44.41948" lon="6.46949">
        <ele>1775.21</ele>
        <time>2022-08-09T11:56:50Z</time>
      </trkpt>
      <trkpt lat="44.41947" lon="6.46949">
        <ele>1775.21</ele>
        <time>2022-08-09T11:57:14Z</time>
      </trkpt>
      <trkpt lat="44.41947" lon="6.4695">
        <ele>1774.25</ele>
        <time>2022-08-09T11:57:39Z</time>
      </trkpt>
      <trkpt lat="44.41947" lon="6.46951">
        <ele>1774.73</ele>
        <time>2022-08-09T11:58:14Z</time>
      </trkpt>
      <trkpt lat="44.41947" lon="6.46951">
        <ele>1774.25</ele>
        <time>2022-08-09T11:58:41Z</time>
      </trkpt>
      <trkpt lat="44.41947" lon="6.46951">
        <ele>1773.77</ele>
        <time>2022-08-09T11:59:06Z</time>
      </trkpt>
      <trkpt lat="44.41954" lon="6.46949">
        <ele>1770.89</ele>
        <time>2022-08-09T11:59:19Z</time>
      </trkpt>
      <trkpt lat="44.41958" lon="6.46946">
        <ele>1769.92</ele>
        <time>2022-08-09T11:59:25Z</time>
      </trkpt>
      <trkpt lat="44.41961" lon="6.46941">
        <ele>1768.96</ele>
        <time>2022-08-09T11:59:38Z</time>
      </trkpt>
      <trkpt lat="44.41961" lon="6.4694">
        <ele>1768.96</ele>
        <time>2022-08-09T11:59:42Z</time>
      </trkpt>
      <trkpt lat="44.41949" lon="6.46929">
        <ele>1768.96</ele>
        <time>2022-08-09T11:59:55Z</time>
      </trkpt>
      <trkpt lat="44.41947" lon="6.46924">
        <ele>1767.52</ele>
        <time>2022-08-09T12:00:00Z</time>
      </trkpt>
      <trkpt lat="44.41948" lon="6.46917">
        <ele>1767.04</ele>
        <time>2022-08-09T12:00:05Z</time>
      </trkpt>
      <trkpt lat="44.41943" lon="6.46904">
        <ele>1763.2</ele>
        <time>2022-08-09T12:00:18Z</time>
      </trkpt>
      <trkpt lat="44.41952" lon="6.46899">
        <ele>1758.39</ele>
        <time>2022-08-09T12:00:32Z</time>
      </trkpt>
      <trkpt lat="44.41966" lon="6.46896">
        <ele>1753.58</ele>
        <time>2022-08-09T12:00:50Z</time>
      </trkpt>
      <trkpt lat="44.41966" lon="6.46897">
        <ele>1753.58</ele>
        <time>2022-08-09T12:00:51Z</time>
      </trkpt>
      <trkpt lat="44.41961" lon="6.46887">
        <ele>1749.74</ele>
        <time>2022-08-09T12:01:06Z</time>
      </trkpt>
      <trkpt lat="44.41955" lon="6.46883">
        <ele>1746.37</ele>
        <time>2022-08-09T12:01:16Z</time>
      </trkpt>
      <trkpt lat="44.41943" lon="6.46874">
        <ele>1742.53</ele>
        <time>2022-08-09T12:01:32Z</time>
      </trkpt>
      <trkpt lat="44.41931" lon="6.46868">
        <ele>1740.12</ele>
        <time>2022-08-09T12:01:48Z</time>
      </trkpt>
      <trkpt lat="44.41921" lon="6.46866">
        <ele>1739.16</ele>
        <time>2022-08-09T12:02:02Z</time>
      </trkpt>
      <trkpt lat="44.41913" lon="6.4687">
        <ele>1738.2</ele>
        <time>2022-08-09T12:02:20Z</time>
      </trkpt>
      <trkpt lat="44.41906" lon="6.46871">
        <ele>1737.24</ele>
        <time>2022-08-09T12:02:34Z</time>
      </trkpt>
      <trkpt lat="44.41901" lon="6.46862">
        <ele>1734.36</ele>
        <time>2022-08-09T12:02:49Z</time>
      </trkpt>
      <trkpt lat="44.41905" lon="6.46865">
        <ele>1731.95</ele>
        <time>2022-08-09T12:03:02Z</time>
      </trkpt>
      <trkpt lat="44.41901" lon="6.46861">
        <ele>1730.99</ele>
        <time>2022-08-09T12:03:14Z</time>
      </trkpt>
      <trkpt lat="44.41901" lon="6.46857">
        <ele>1730.51</ele>
        <time>2022-08-09T12:03:27Z</time>
      </trkpt>
      <trkpt lat="44.41902" lon="6.46857">
        <ele>1730.03</ele>
        <time>2022-08-09T12:03:29Z</time>
      </trkpt>
      <trkpt lat="44.41911" lon="6.46853">
        <ele>1728.59</ele>
        <time>2022-08-09T12:03:44Z</time>
      </trkpt>
      <trkpt lat="44.41912" lon="6.4685">
        <ele>1728.59</ele>
        <time>2022-08-09T12:03:59Z</time>
      </trkpt>
      <trkpt lat="44.41913" lon="6.46842">
        <ele>1728.11</ele>
        <time>2022-08-09T12:04:14Z</time>
      </trkpt>
      <trkpt lat="44.41907" lon="6.46832">
        <ele>1728.11</ele>
        <time>2022-08-09T12:04:29Z</time>
      </trkpt>
      <trkpt lat="44.41901" lon="6.46826">
        <ele>1728.59</ele>
        <time>2022-08-09T12:04:44Z</time>
      </trkpt>
      <trkpt lat="44.41891" lon="6.46816">
        <ele>1727.15</ele>
        <time>2022-08-09T12:04:58Z</time>
      </trkpt>
      <trkpt lat="44.41882" lon="6.46807">
        <ele>1725.7</ele>
        <time>2022-08-09T12:05:06Z</time>
      </trkpt>
      <trkpt lat="44.41869" lon="6.46802">
        <ele>1718.01</ele>
        <time>2022-08-09T12:05:20Z</time>
      </trkpt>
      <trkpt lat="44.41855" lon="6.46795">
        <ele>1712.25</ele>
        <time>2022-08-09T12:05:34Z</time>
      </trkpt>
      <trkpt lat="44.4184" lon="6.46779">
        <ele>1706</ele>
        <time>2022-08-09T12:05:52Z</time>
      </trkpt>
      <trkpt lat="44.41832" lon="6.46771">
        <ele>1700.23</ele>
        <time>2022-08-09T12:06:07Z</time>
      </trkpt>
      <trkpt lat="44.41828" lon="6.46766">
        <ele>1697.34</ele>
        <time>2022-08-09T12:06:20Z</time>
      </trkpt>
      <trkpt lat="44.41829" lon="6.46758">
        <ele>1694.46</ele>
        <time>2022-08-09T12:06:36Z</time>
      </trkpt>
      <trkpt lat="44.41826" lon="6.46754">
        <ele>1692.54</ele>
        <time>2022-08-09T12:06:51Z</time>
      </trkpt>
      <trkpt lat="44.41817" lon="6.46749">
        <ele>1690.14</ele>
        <time>2022-08-09T12:07:06Z</time>
      </trkpt>
      <trkpt lat="44.41811" lon="6.46747">
        <ele>1688.21</ele>
        <time>2022-08-09T12:07:19Z</time>
      </trkpt>
      <trkpt lat="44.41806" lon="6.46747">
        <ele>1686.77</ele>
        <time>2022-08-09T12:07:35Z</time>
      </trkpt>
      <trkpt lat="44.41796" lon="6.46747">
        <ele>1682.44</ele>
        <time>2022-08-09T12:07:49Z</time>
      </trkpt>
      <trkpt lat="44.41794" lon="6.46746">
        <ele>1680.04</ele>
        <time>2022-08-09T12:08:06Z</time>
      </trkpt>
      <trkpt lat="44.41797" lon="6.46741">
        <ele>1673.79</ele>
        <time>2022-08-09T12:08:22Z</time>
      </trkpt>
      <trkpt lat="44.41801" lon="6.46735">
        <ele>1670.43</ele>
        <time>2022-08-09T12:08:37Z</time>
      </trkpt>
      <trkpt lat="44.41803" lon="6.46733">
        <ele>1668.02</ele>
        <time>2022-08-09T12:08:49Z</time>
      </trkpt>
      <trkpt lat="44.41803" lon="6.46733">
        <ele>1668.02</ele>
        <time>2022-08-09T12:08:52Z</time>
      </trkpt>
      <trkpt lat="44.41802" lon="6.46725">
        <ele>1666.58</ele>
        <time>2022-08-09T12:09:04Z</time>
      </trkpt>
      <trkpt lat="44.41804" lon="6.4672">
        <ele>1664.66</ele>
        <time>2022-08-09T12:09:17Z</time>
      </trkpt>
      <trkpt lat="44.41803" lon="6.4672">
        <ele>1664.18</ele>
        <time>2022-08-09T12:09:29Z</time>
      </trkpt>
      <trkpt lat="44.418" lon="6.46709">
        <ele>1660.81</ele>
        <time>2022-08-09T12:09:45Z</time>
      </trkpt>
      <trkpt lat="44.41806" lon="6.46702">
        <ele>1657.93</ele>
        <time>2022-08-09T12:10:00Z</time>
      </trkpt>
      <trkpt lat="44.41805" lon="6.467">
        <ele>1655.53</ele>
        <time>2022-08-09T12:10:15Z</time>
      </trkpt>
      <trkpt lat="44.41791" lon="6.46705">
        <ele>1653.12</ele>
        <time>2022-08-09T12:10:30Z</time>
      </trkpt>
      <trkpt lat="44.41778" lon="6.46712">
        <ele>1649.76</ele>
        <time>2022-08-09T12:10:46Z</time>
      </trkpt>
      <trkpt lat="44.41771" lon="6.46722">
        <ele>1648.8</ele>
        <time>2022-08-09T12:10:59Z</time>
      </trkpt>
      <trkpt lat="44.4177" lon="6.46725">
        <ele>1647.36</ele>
        <time>2022-08-09T12:11:16Z</time>
      </trkpt>
      <trkpt lat="44.41769" lon="6.46727">
        <ele>1646.88</ele>
        <time>2022-08-09T12:11:39Z</time>
      </trkpt>
      <trkpt lat="44.41764" lon="6.4673">
        <ele>1645.91</ele>
        <time>2022-08-09T12:11:44Z</time>
      </trkpt>
      <trkpt lat="44.4175" lon="6.46739">
        <ele>1645.91</ele>
        <time>2022-08-09T12:11:59Z</time>
      </trkpt>
      <trkpt lat="44.4174" lon="6.46746">
        <ele>1644.47</ele>
        <time>2022-08-09T12:12:12Z</time>
      </trkpt>
      <trkpt lat="44.41734" lon="6.46753">
        <ele>1642.55</ele>
        <time>2022-08-09T12:12:20Z</time>
      </trkpt>
      <trkpt lat="44.41726" lon="6.4677">
        <ele>1636.3</ele>
        <time>2022-08-09T12:12:37Z</time>
      </trkpt>
      <trkpt lat="44.41725" lon="6.46783">
        <ele>1631.98</ele>
        <time>2022-08-09T12:12:54Z</time>
      </trkpt>
      <trkpt lat="44.41723" lon="6.46786">
        <ele>1631.01</ele>
        <time>2022-08-09T12:12:57Z</time>
      </trkpt>
      <trkpt lat="44.41717" lon="6.46805">
        <ele>1627.65</ele>
        <time>2022-08-09T12:13:11Z</time>
      </trkpt>
      <trkpt lat="44.41713" lon="6.46828">
        <ele>1622.84</ele>
        <time>2022-08-09T12:13:28Z</time>
      </trkpt>
      <trkpt lat="44.41712" lon="6.46838">
        <ele>1619</ele>
        <time>2022-08-09T12:13:43Z</time>
      </trkpt>
      <trkpt lat="44.41711" lon="6.46855">
        <ele>1616.11</ele>
        <time>2022-08-09T12:13:58Z</time>
      </trkpt>
      <trkpt lat="44.41706" lon="6.46862">
        <ele>1613.71</ele>
        <time>2022-08-09T12:14:13Z</time>
      </trkpt>
      <trkpt lat="44.41705" lon="6.46859">
        <ele>1612.75</ele>
        <time>2022-08-09T12:14:19Z</time>
      </trkpt>
      <trkpt lat="44.41704" lon="6.46853">
        <ele>1611.31</ele>
        <time>2022-08-09T12:14:32Z</time>
      </trkpt>
      <trkpt lat="44.41699" lon="6.46868">
        <ele>1608.9</ele>
        <time>2022-08-09T12:14:48Z</time>
      </trkpt>
      <trkpt lat="44.41694" lon="6.46867">
        <ele>1609.38</ele>
        <time>2022-08-09T12:14:53Z</time>
      </trkpt>
      <trkpt lat="44.41688" lon="6.46858">
        <ele>1606.02</ele>
        <time>2022-08-09T12:15:06Z</time>
      </trkpt>
      <trkpt lat="44.41688" lon="6.46851">
        <ele>1603.62</ele>
        <time>2022-08-09T12:15:19Z</time>
      </trkpt>
      <trkpt lat="44.41689" lon="6.46844">
        <ele>1603.62</ele>
        <time>2022-08-09T12:15:31Z</time>
      </trkpt>
      <trkpt lat="44.41688" lon="6.4684">
        <ele>1601.69</ele>
        <time>2022-08-09T12:15:48Z</time>
      </trkpt>
      <trkpt lat="44.4168" lon="6.46843">
        <ele>1599.77</ele>
        <time>2022-08-09T12:16:02Z</time>
      </trkpt>
      <trkpt lat="44.41672" lon="6.46845">
        <ele>1596.89</ele>
        <time>2022-08-09T12:16:17Z</time>
      </trkpt>
      <trkpt lat="44.41662" lon="6.46855">
        <ele>1595.45</ele>
        <time>2022-08-09T12:16:32Z</time>
      </trkpt>
      <trkpt lat="44.41659" lon="6.46862">
        <ele>1594.48</ele>
        <time>2022-08-09T12:16:40Z</time>
      </trkpt>
      <trkpt lat="44.41659" lon="6.46872">
        <ele>1594.48</ele>
        <time>2022-08-09T12:16:54Z</time>
      </trkpt>
      <trkpt lat="44.41659" lon="6.46875">
        <ele>1594.48</ele>
        <time>2022-08-09T12:17:08Z</time>
      </trkpt>
      <trkpt lat="44.4166" lon="6.46878">
        <ele>1594.96</ele>
        <time>2022-08-09T12:17:22Z</time>
      </trkpt>
      <trkpt lat="44.41665" lon="6.46887">
        <ele>1594.96</ele>
        <time>2022-08-09T12:17:37Z</time>
      </trkpt>
      <trkpt lat="44.41663" lon="6.4689">
        <ele>1594.48</ele>
        <time>2022-08-09T12:17:51Z</time>
      </trkpt>
      <trkpt lat="44.4166" lon="6.46892">
        <ele>1592.08</ele>
        <time>2022-08-09T12:18:07Z</time>
      </trkpt>
      <trkpt lat="44.4166" lon="6.46896">
        <ele>1589.2</ele>
        <time>2022-08-09T12:18:22Z</time>
      </trkpt>
      <trkpt lat="44.41665" lon="6.46902">
        <ele>1583.43</ele>
        <time>2022-08-09T12:18:35Z</time>
      </trkpt>
      <trkpt lat="44.41666" lon="6.46909">
        <ele>1582.47</ele>
        <time>2022-08-09T12:18:47Z</time>
      </trkpt>
      <trkpt lat="44.41662" lon="6.46907">
        <ele>1581.51</ele>
        <time>2022-08-09T12:19:01Z</time>
      </trkpt>
      <trkpt lat="44.41661" lon="6.4691">
        <ele>1581.03</ele>
        <time>2022-08-09T12:19:12Z</time>
      </trkpt>
      <trkpt lat="44.41655" lon="6.46917">
        <ele>1580.06</ele>
        <time>2022-08-09T12:19:26Z</time>
      </trkpt>
      <trkpt lat="44.41648" lon="6.46919">
        <ele>1579.1</ele>
        <time>2022-08-09T12:19:52Z</time>
      </trkpt>
      <trkpt lat="44.4165" lon="6.4692">
        <ele>1576.22</ele>
        <time>2022-08-09T12:20:09Z</time>
      </trkpt>
      <trkpt lat="44.41656" lon="6.4692">
        <ele>1573.82</ele>
        <time>2022-08-09T12:20:23Z</time>
      </trkpt>
      <trkpt lat="44.41657" lon="6.46926">
        <ele>1572.37</ele>
        <time>2022-08-09T12:20:37Z</time>
      </trkpt>
      <trkpt lat="44.4166" lon="6.46929">
        <ele>1570.45</ele>
        <time>2022-08-09T12:20:49Z</time>
      </trkpt>
      <trkpt lat="44.41658" lon="6.46935">
        <ele>1569.01</ele>
        <time>2022-08-09T12:21:03Z</time>
      </trkpt>
      <trkpt lat="44.41657" lon="6.4694">
        <ele>1569.49</ele>
        <time>2022-08-09T12:21:18Z</time>
      </trkpt>
      <trkpt lat="44.4166" lon="6.46941">
        <ele>1568.05</ele>
        <time>2022-08-09T12:21:32Z</time>
      </trkpt>
      <trkpt lat="44.41657" lon="6.46945">
        <ele>1567.57</ele>
        <time>2022-08-09T12:21:44Z</time>
      </trkpt>
      <trkpt lat="44.41658" lon="6.46949">
        <ele>1567.09</ele>
        <time>2022-08-09T12:21:57Z</time>
      </trkpt>
      <trkpt lat="44.41661" lon="6.46953">
        <ele>1565.16</ele>
        <time>2022-08-09T12:22:11Z</time>
      </trkpt>
      <trkpt lat="44.4166" lon="6.46959">
        <ele>1563.24</ele>
        <time>2022-08-09T12:22:24Z</time>
      </trkpt>
      <trkpt lat="44.41655" lon="6.46969">
        <ele>1563.24</ele>
        <time>2022-08-09T12:22:33Z</time>
      </trkpt>
      <trkpt lat="44.41652" lon="6.46988">
        <ele>1564.68</ele>
        <time>2022-08-09T12:22:47Z</time>
      </trkpt>
      <trkpt lat="44.41651" lon="6.47">
        <ele>1564.2</ele>
        <time>2022-08-09T12:22:56Z</time>
      </trkpt>
      <trkpt lat="44.41653" lon="6.47014">
        <ele>1561.32</ele>
        <time>2022-08-09T12:23:16Z</time>
      </trkpt>
      <trkpt lat="44.41654" lon="6.47016">
        <ele>1553.63</ele>
        <time>2022-08-09T12:23:43Z</time>
      </trkpt>
      <trkpt lat="44.41655" lon="6.47015">
        <ele>1553.15</ele>
        <time>2022-08-09T12:24:07Z</time>
      </trkpt>
      <trkpt lat="44.41655" lon="6.47014">
        <ele>1552.19</ele>
        <time>2022-08-09T12:24:35Z</time>
      </trkpt>
      <trkpt lat="44.41656" lon="6.47017">
        <ele>1550.26</ele>
        <time>2022-08-09T12:24:55Z</time>
      </trkpt>
      <trkpt lat="44.41656" lon="6.4702">
        <ele>1548.82</ele>
        <time>2022-08-09T12:25:10Z</time>
      </trkpt>
      <trkpt lat="44.4165" lon="6.47038">
        <ele>1547.86</ele>
        <time>2022-08-09T12:25:27Z</time>
      </trkpt>
      <trkpt lat="44.41645" lon="6.47044">
        <ele>1543.05</ele>
        <time>2022-08-09T12:25:40Z</time>
      </trkpt>
      <trkpt lat="44.41644" lon="6.47045">
        <ele>1541.13</ele>
        <time>2022-08-09T12:25:43Z</time>
      </trkpt>
      <trkpt lat="44.41639" lon="6.47059">
        <ele>1535.84</ele>
        <time>2022-08-09T12:25:57Z</time>
      </trkpt>
      <trkpt lat="44.41631" lon="6.47069">
        <ele>1533.44</ele>
        <time>2022-08-09T12:26:09Z</time>
      </trkpt>
      <trkpt lat="44.41623" lon="6.47083">
        <ele>1527.67</ele>
        <time>2022-08-09T12:26:25Z</time>
      </trkpt>
      <trkpt lat="44.41615" lon="6.47097">
        <ele>1524.31</ele>
        <time>2022-08-09T12:26:39Z</time>
      </trkpt>
      <trkpt lat="44.41611" lon="6.47115">
        <ele>1522.39</ele>
        <time>2022-08-09T12:26:54Z</time>
      </trkpt>
      <trkpt lat="44.41601" lon="6.47123">
        <ele>1521.9</ele>
        <time>2022-08-09T12:27:09Z</time>
      </trkpt>
      <trkpt lat="44.41596" lon="6.47122">
        <ele>1521.42</ele>
        <time>2022-08-09T12:27:16Z</time>
      </trkpt>
      <trkpt lat="44.41595" lon="6.47113">
        <ele>1519.98</ele>
        <time>2022-08-09T12:27:31Z</time>
      </trkpt>
      <trkpt lat="44.41593" lon="6.47106">
        <ele>1518.06</ele>
        <time>2022-08-09T12:27:42Z</time>
      </trkpt>
      <trkpt lat="44.41593" lon="6.47103">
        <ele>1518.06</ele>
        <time>2022-08-09T12:27:45Z</time>
      </trkpt>
      <trkpt lat="44.41592" lon="6.47092">
        <ele>1519.02</ele>
        <time>2022-08-09T12:27:55Z</time>
      </trkpt>
      <trkpt lat="44.41593" lon="6.47085">
        <ele>1519.98</ele>
        <time>2022-08-09T12:28:08Z</time>
      </trkpt>
      <trkpt lat="44.41593" lon="6.47089">
        <ele>1510.85</ele>
        <time>2022-08-09T12:28:23Z</time>
      </trkpt>
      <trkpt lat="44.41584" lon="6.47101">
        <ele>1507</ele>
        <time>2022-08-09T12:28:41Z</time>
      </trkpt>
      <trkpt lat="44.41574" lon="6.47114">
        <ele>1503.16</ele>
        <time>2022-08-09T12:28:58Z</time>
      </trkpt>
      <trkpt lat="44.41568" lon="6.47118">
        <ele>1502.68</ele>
        <time>2022-08-09T12:29:04Z</time>
      </trkpt>
      <trkpt lat="44.41557" lon="6.4713">
        <ele>1501.24</ele>
        <time>2022-08-09T12:29:17Z</time>
      </trkpt>
      <trkpt lat="44.41551" lon="6.47144">
        <ele>1498.35</ele>
        <time>2022-08-09T12:29:30Z</time>
      </trkpt>
      <trkpt lat="44.41548" lon="6.47156">
        <ele>1495.95</ele>
        <time>2022-08-09T12:29:39Z</time>
      </trkpt>
      <trkpt lat="44.41544" lon="6.47179">
        <ele>1494.99</ele>
        <time>2022-08-09T12:29:57Z</time>
      </trkpt>
      <trkpt lat="44.41535" lon="6.47193">
        <ele>1494.99</ele>
        <time>2022-08-09T12:30:11Z</time>
      </trkpt>
      <trkpt lat="44.41534" lon="6.47196">
        <ele>1494.03</ele>
        <time>2022-08-09T12:30:13Z</time>
      </trkpt>
      <trkpt lat="44.41522" lon="6.4721">
        <ele>1487.3</ele>
        <time>2022-08-09T12:30:28Z</time>
      </trkpt>
      <trkpt lat="44.41511" lon="6.47223">
        <ele>1482.01</ele>
        <time>2022-08-09T12:30:42Z</time>
      </trkpt>
      <trkpt lat="44.41502" lon="6.47229">
        <ele>1479.61</ele>
        <time>2022-08-09T12:30:54Z</time>
      </trkpt>
      <trkpt lat="44.41495" lon="6.47225">
        <ele>1477.2</ele>
        <time>2022-08-09T12:31:07Z</time>
      </trkpt>
      <trkpt lat="44.41483" lon="6.47218">
        <ele>1474.8</ele>
        <time>2022-08-09T12:31:23Z</time>
      </trkpt>
      <trkpt lat="44.41478" lon="6.47214">
        <ele>1474.8</ele>
        <time>2022-08-09T12:31:28Z</time>
      </trkpt>
      <trkpt lat="44.41476" lon="6.47212">
        <ele>1474.32</ele>
        <time>2022-08-09T12:31:30Z</time>
      </trkpt>
      <trkpt lat="44.41464" lon="6.47207">
        <ele>1472.88</ele>
        <time>2022-08-09T12:31:43Z</time>
      </trkpt>
      <trkpt lat="44.41447" lon="6.47205">
        <ele>1469.51</ele>
        <time>2022-08-09T12:31:58Z</time>
      </trkpt>
      <trkpt lat="44.41432" lon="6.47201">
        <ele>1465.19</ele>
        <time>2022-08-09T12:32:14Z</time>
      </trkpt>
      <trkpt lat="44.4142" lon="6.47201">
        <ele>1462.3</ele>
        <time>2022-08-09T12:32:24Z</time>
      </trkpt>
      <trkpt lat="44.41413" lon="6.47202">
        <ele>1461.82</ele>
        <time>2022-08-09T12:32:29Z</time>
      </trkpt>
      <trkpt lat="44.41409" lon="6.47201">
        <ele>1460.86</ele>
        <time>2022-08-09T12:32:32Z</time>
      </trkpt>
      <trkpt lat="44.41397" lon="6.47208">
        <ele>1459.9</ele>
        <time>2022-08-09T12:32:45Z</time>
      </trkpt>
      <trkpt lat="44.41392" lon="6.47213">
        <ele>1459.9</ele>
        <time>2022-08-09T12:32:51Z</time>
      </trkpt>
      <trkpt lat="44.41375" lon="6.4722">
        <ele>1459.42</ele>
        <time>2022-08-09T12:33:06Z</time>
      </trkpt>
      <trkpt lat="44.41368" lon="6.47212">
        <ele>1457.98</ele>
        <time>2022-08-09T12:33:18Z</time>
      </trkpt>
      <trkpt lat="44.4135" lon="6.47201">
        <ele>1458.46</ele>
        <time>2022-08-09T12:33:34Z</time>
      </trkpt>
      <trkpt lat="44.41346" lon="6.47199">
        <ele>1458.94</ele>
        <time>2022-08-09T12:33:37Z</time>
      </trkpt>
      <trkpt lat="44.41324" lon="6.4719">
        <ele>1460.38</ele>
        <time>2022-08-09T12:33:54Z</time>
      </trkpt>
      <trkpt lat="44.41311" lon="6.47192">
        <ele>1462.78</ele>
        <time>2022-08-09T12:34:08Z</time>
      </trkpt>
      <trkpt lat="44.41291" lon="6.47188">
        <ele>1461.34</ele>
        <time>2022-08-09T12:34:22Z</time>
      </trkpt>
      <trkpt lat="44.41286" lon="6.47185">
        <ele>1460.86</ele>
        <time>2022-08-09T12:34:26Z</time>
      </trkpt>
      <trkpt lat="44.41283" lon="6.47184">
        <ele>1460.86</ele>
        <time>2022-08-09T12:34:28Z</time>
      </trkpt>
      <trkpt lat="44.41266" lon="6.47177">
        <ele>1457.98</ele>
        <time>2022-08-09T12:34:42Z</time>
      </trkpt>
      <trkpt lat="44.41252" lon="6.47173">
        <ele>1454.61</ele>
        <time>2022-08-09T12:34:57Z</time>
      </trkpt>
      <trkpt lat="44.4124" lon="6.47175">
        <ele>1451.73</ele>
        <time>2022-08-09T12:35:11Z</time>
      </trkpt>
      <trkpt lat="44.41223" lon="6.4717">
        <ele>1449.81</ele>
        <time>2022-08-09T12:35:26Z</time>
      </trkpt>
      <trkpt lat="44.41212" lon="6.47171">
        <ele>1448.84</ele>
        <time>2022-08-09T12:35:35Z</time>
      </trkpt>
      <trkpt lat="44.41196" lon="6.47179">
        <ele>1449.32</ele>
        <time>2022-08-09T12:35:51Z</time>
      </trkpt>
      <trkpt lat="44.41187" lon="6.47182">
        <ele>1448.84</ele>
        <time>2022-08-09T12:36:05Z</time>
      </trkpt>
      <trkpt lat="44.4118" lon="6.47192">
        <ele>1448.36</ele>
        <time>2022-08-09T12:36:17Z</time>
      </trkpt>
      <trkpt lat="44.41177" lon="6.47196">
        <ele>1449.32</ele>
        <time>2022-08-09T12:36:22Z</time>
      </trkpt>
      <trkpt lat="44.41162" lon="6.47206">
        <ele>1447.88</ele>
        <time>2022-08-09T12:36:38Z</time>
      </trkpt>
      <trkpt lat="44.41153" lon="6.4721">
        <ele>1445</ele>
        <time>2022-08-09T12:36:50Z</time>
      </trkpt>
      <trkpt lat="44.41143" lon="6.47214">
        <ele>1444.04</ele>
        <time>2022-08-09T12:37:04Z</time>
      </trkpt>
      <trkpt lat="44.41132" lon="6.47214">
        <ele>1444.04</ele>
        <time>2022-08-09T12:37:20Z</time>
      </trkpt>
      <trkpt lat="44.41117" lon="6.47201">
        <ele>1443.08</ele>
        <time>2022-08-09T12:37:37Z</time>
      </trkpt>
      <trkpt lat="44.41101" lon="6.47174">
        <ele>1440.19</ele>
        <time>2022-08-09T12:37:53Z</time>
      </trkpt>
      <trkpt lat="44.41099" lon="6.47156">
        <ele>1440.19</ele>
        <time>2022-08-09T12:38:08Z</time>
      </trkpt>
      <trkpt lat="44.41098" lon="6.47136">
        <ele>1440.67</ele>
        <time>2022-08-09T12:38:23Z</time>
      </trkpt>
      <trkpt lat="44.41098" lon="6.47122">
        <ele>1440.67</ele>
        <time>2022-08-09T12:38:33Z</time>
      </trkpt>
      <trkpt lat="44.41099" lon="6.47096">
        <ele>1446.44</ele>
        <time>2022-08-09T12:38:50Z</time>
      </trkpt>
      <trkpt lat="44.41097" lon="6.47073">
        <ele>1455.09</ele>
        <time>2022-08-09T12:39:06Z</time>
      </trkpt>
      <trkpt lat="44.41097" lon="6.47048">
        <ele>1465.67</ele>
        <time>2022-08-09T12:39:23Z</time>
      </trkpt>
      <trkpt lat="44.411" lon="6.47044">
        <ele>1463.74</ele>
        <time>2022-08-09T12:39:42Z</time>
      </trkpt>
      <trkpt lat="44.41102" lon="6.47037">
        <ele>1459.42</ele>
        <time>2022-08-09T12:40:04Z</time>
      </trkpt>
      <trkpt lat="44.4111" lon="6.4703">
        <ele>1447.88</ele>
        <time>2022-08-09T12:40:31Z</time>
      </trkpt>
    </trkseg>
  </trk>
</gpx>